<?xml version="1.0" encoding="UTF-8" standalone="no" ?>
<gpx xmlns="http://www.topografix.com/GPX/1/1" xmlns:xsi="http://www.w3.org/2001/XMLSchema-instance" xsi:schemaLocation="http://www.topografix.com/GPX/1/1 http://www.topografix.com/GPX/1/1/gpx.xsd" version="1.1" creator="VisuGPX - https://www.visugpx.com">
  <metadata>
    <name>31 mai 2014 Coupe-Gorge</name>
    <desc><![CDATA[encore quelques chemins gadoueux, et un GR TRÈS étroit !]]></desc>
  </metadata>
  <trk>
    <name><![CDATA[Untitled]]></name>
    <trkseg>
      <trkpt lat="48.70615" lon="1.75614">
        <ele>182.60000610352</ele>
        <time>2014-05-31T12:51:52.000Z</time>
      </trkpt>
      <trkpt lat="48.70616" lon="1.75616">
        <ele>182.60000610352</ele>
        <time>2014-05-31T12:51:53.000Z</time>
      </trkpt>
      <trkpt lat="48.70618" lon="1.75622">
        <ele>182.60000610352</ele>
        <time>2014-05-31T12:51:56.000Z</time>
      </trkpt>
      <trkpt lat="48.70619" lon="1.75629">
        <ele>182.60000610352</ele>
        <time>2014-05-31T12:51:59.000Z</time>
      </trkpt>
      <trkpt lat="48.70617" lon="1.75631">
        <ele>182.80000305176</ele>
        <time>2014-05-31T12:52:01.000Z</time>
      </trkpt>
      <trkpt lat="48.70607" lon="1.75633">
        <ele>184</ele>
        <time>2014-05-31T12:52:05.000Z</time>
      </trkpt>
      <trkpt lat="48.70607" lon="1.75641">
        <ele>184.19999694824</ele>
        <time>2014-05-31T12:52:10.000Z</time>
      </trkpt>
      <trkpt lat="48.70613" lon="1.7565">
        <ele>183.80000305176</ele>
        <time>2014-05-31T12:52:14.000Z</time>
      </trkpt>
      <trkpt lat="48.70622" lon="1.75668">
        <ele>182.60000610352</ele>
        <time>2014-05-31T12:52:23.000Z</time>
      </trkpt>
      <trkpt lat="48.70624" lon="1.75678">
        <ele>182</ele>
        <time>2014-05-31T12:52:29.000Z</time>
      </trkpt>
      <trkpt lat="48.70625" lon="1.75686">
        <ele>181.39999389648</ele>
        <time>2014-05-31T12:52:34.000Z</time>
      </trkpt>
      <trkpt lat="48.70621" lon="1.75696">
        <ele>181</ele>
        <time>2014-05-31T12:52:41.000Z</time>
      </trkpt>
      <trkpt lat="48.7062" lon="1.75701">
        <ele>180.60000610352</ele>
        <time>2014-05-31T12:52:45.000Z</time>
      </trkpt>
      <trkpt lat="48.70615" lon="1.75713">
        <ele>180</ele>
        <time>2014-05-31T12:52:53.000Z</time>
      </trkpt>
      <trkpt lat="48.70608" lon="1.75722">
        <ele>179.80000305176</ele>
        <time>2014-05-31T12:53:00.000Z</time>
      </trkpt>
      <trkpt lat="48.70606" lon="1.75725">
        <ele>179.80000305176</ele>
        <time>2014-05-31T12:53:03.000Z</time>
      </trkpt>
      <trkpt lat="48.70438" lon="1.75931">
        <ele>181.60000610352</ele>
        <time>2014-05-31T12:56:03.000Z</time>
      </trkpt>
      <trkpt lat="48.70448" lon="1.75938">
        <ele>181.19999694824</ele>
        <time>2014-05-31T12:56:04.000Z</time>
      </trkpt>
      <trkpt lat="48.70463" lon="1.75951">
        <ele>180.60000610352</ele>
        <time>2014-05-31T12:56:06.000Z</time>
      </trkpt>
      <trkpt lat="48.70474" lon="1.7597">
        <ele>179.80000305176</ele>
        <time>2014-05-31T12:56:12.000Z</time>
      </trkpt>
      <trkpt lat="48.7048" lon="1.75987">
        <ele>179.39999389648</ele>
        <time>2014-05-31T12:56:17.000Z</time>
      </trkpt>
      <trkpt lat="48.70485" lon="1.75998">
        <ele>178.60000610352</ele>
        <time>2014-05-31T12:56:20.000Z</time>
      </trkpt>
      <trkpt lat="48.70491" lon="1.76018">
        <ele>177.19999694824</ele>
        <time>2014-05-31T12:56:28.000Z</time>
      </trkpt>
      <trkpt lat="48.70492" lon="1.76032">
        <ele>176.39999389648</ele>
        <time>2014-05-31T12:56:34.000Z</time>
      </trkpt>
      <trkpt lat="48.70497" lon="1.76047">
        <ele>175.19999694824</ele>
        <time>2014-05-31T12:56:41.000Z</time>
      </trkpt>
      <trkpt lat="48.705" lon="1.76062">
        <ele>174.39999389648</ele>
        <time>2014-05-31T12:56:48.000Z</time>
      </trkpt>
      <trkpt lat="48.70502" lon="1.76077">
        <ele>173.80000305176</ele>
        <time>2014-05-31T12:56:55.000Z</time>
      </trkpt>
      <trkpt lat="48.70501" lon="1.76089">
        <ele>173.60000610352</ele>
        <time>2014-05-31T12:57:02.000Z</time>
      </trkpt>
      <trkpt lat="48.705" lon="1.76091">
        <ele>173.80000305176</ele>
        <time>2014-05-31T12:57:04.000Z</time>
      </trkpt>
      <trkpt lat="48.70492" lon="1.76102">
        <ele>174</ele>
        <time>2014-05-31T12:57:12.000Z</time>
      </trkpt>
      <trkpt lat="48.70484" lon="1.76107">
        <ele>174.39999389648</ele>
        <time>2014-05-31T12:57:19.000Z</time>
      </trkpt>
      <trkpt lat="48.7048" lon="1.76113">
        <ele>174.39999389648</ele>
        <time>2014-05-31T12:57:25.000Z</time>
      </trkpt>
      <trkpt lat="48.70479" lon="1.76114">
        <ele>174.39999389648</ele>
        <time>2014-05-31T12:57:26.000Z</time>
      </trkpt>
      <trkpt lat="48.70467" lon="1.76115">
        <ele>175</ele>
        <time>2014-05-31T12:57:32.000Z</time>
      </trkpt>
      <trkpt lat="48.70465" lon="1.76116">
        <ele>175</ele>
        <time>2014-05-31T12:57:33.000Z</time>
      </trkpt>
      <trkpt lat="48.70458" lon="1.76122">
        <ele>175.39999389648</ele>
        <time>2014-05-31T12:57:39.000Z</time>
      </trkpt>
      <trkpt lat="48.70459" lon="1.76129">
        <ele>175.19999694824</ele>
        <time>2014-05-31T12:57:43.000Z</time>
      </trkpt>
      <trkpt lat="48.7046" lon="1.76133">
        <ele>175.19999694824</ele>
        <time>2014-05-31T12:57:45.000Z</time>
      </trkpt>
      <trkpt lat="48.70463" lon="1.76142">
        <ele>174.80000305176</ele>
        <time>2014-05-31T12:57:51.000Z</time>
      </trkpt>
      <trkpt lat="48.70469" lon="1.76155">
        <ele>174.39999389648</ele>
        <time>2014-05-31T12:57:56.000Z</time>
      </trkpt>
      <trkpt lat="48.70468" lon="1.76165">
        <ele>174.19999694824</ele>
        <time>2014-05-31T12:58:01.000Z</time>
      </trkpt>
      <trkpt lat="48.70465" lon="1.76178">
        <ele>173.80000305176</ele>
        <time>2014-05-31T12:58:08.000Z</time>
      </trkpt>
      <trkpt lat="48.70464" lon="1.76183">
        <ele>173.60000610352</ele>
        <time>2014-05-31T12:58:12.000Z</time>
      </trkpt>
      <trkpt lat="48.70468" lon="1.76188">
        <ele>173.39999389648</ele>
        <time>2014-05-31T12:58:18.000Z</time>
      </trkpt>
      <trkpt lat="48.70462" lon="1.76191">
        <ele>173.60000610352</ele>
        <time>2014-05-31T12:58:23.000Z</time>
      </trkpt>
      <trkpt lat="48.70458" lon="1.76199">
        <ele>173.60000610352</ele>
        <time>2014-05-31T12:58:28.000Z</time>
      </trkpt>
      <trkpt lat="48.70459" lon="1.76214">
        <ele>173.19999694824</ele>
        <time>2014-05-31T12:58:33.000Z</time>
      </trkpt>
      <trkpt lat="48.70459" lon="1.76218">
        <ele>173.19999694824</ele>
        <time>2014-05-31T12:58:37.000Z</time>
      </trkpt>
      <trkpt lat="48.7046" lon="1.76224">
        <ele>173</ele>
        <time>2014-05-31T12:58:42.000Z</time>
      </trkpt>
      <trkpt lat="48.7046" lon="1.76234">
        <ele>172.60000610352</ele>
        <time>2014-05-31T12:58:48.000Z</time>
      </trkpt>
      <trkpt lat="48.7046" lon="1.76242">
        <ele>172.80000305176</ele>
        <time>2014-05-31T12:58:51.000Z</time>
      </trkpt>
      <trkpt lat="48.70459" lon="1.76253">
        <ele>173</ele>
        <time>2014-05-31T12:58:58.000Z</time>
      </trkpt>
      <trkpt lat="48.70458" lon="1.76254">
        <ele>173.19999694824</ele>
        <time>2014-05-31T12:59:02.000Z</time>
      </trkpt>
      <trkpt lat="48.70463" lon="1.76265">
        <ele>173</ele>
        <time>2014-05-31T12:59:11.000Z</time>
      </trkpt>
      <trkpt lat="48.70465" lon="1.76269">
        <ele>173</ele>
        <time>2014-05-31T12:59:14.000Z</time>
      </trkpt>
      <trkpt lat="48.70462" lon="1.76282">
        <ele>173</ele>
        <time>2014-05-31T12:59:21.000Z</time>
      </trkpt>
      <trkpt lat="48.70466" lon="1.76302">
        <ele>173</ele>
        <time>2014-05-31T12:59:26.000Z</time>
      </trkpt>
      <trkpt lat="48.70466" lon="1.76306">
        <ele>173</ele>
        <time>2014-05-31T12:59:29.000Z</time>
      </trkpt>
      <trkpt lat="48.70466" lon="1.76315">
        <ele>173</ele>
        <time>2014-05-31T12:59:34.000Z</time>
      </trkpt>
      <trkpt lat="48.70467" lon="1.76317">
        <ele>173</ele>
        <time>2014-05-31T12:59:35.000Z</time>
      </trkpt>
      <trkpt lat="48.70469" lon="1.76326">
        <ele>173</ele>
        <time>2014-05-31T12:59:38.000Z</time>
      </trkpt>
      <trkpt lat="48.70472" lon="1.76336">
        <ele>173.39999389648</ele>
        <time>2014-05-31T12:59:42.000Z</time>
      </trkpt>
      <trkpt lat="48.70474" lon="1.76347">
        <ele>174</ele>
        <time>2014-05-31T12:59:48.000Z</time>
      </trkpt>
      <trkpt lat="48.70461" lon="1.76354">
        <ele>174.60000610352</ele>
        <time>2014-05-31T12:59:59.000Z</time>
      </trkpt>
      <trkpt lat="48.70456" lon="1.76361">
        <ele>175.19999694824</ele>
        <time>2014-05-31T13:00:11.000Z</time>
      </trkpt>
      <trkpt lat="48.70452" lon="1.76367">
        <ele>175.60000610352</ele>
        <time>2014-05-31T13:00:15.000Z</time>
      </trkpt>
      <trkpt lat="48.70453" lon="1.76376">
        <ele>176</ele>
        <time>2014-05-31T13:00:20.000Z</time>
      </trkpt>
      <trkpt lat="48.70461" lon="1.76388">
        <ele>176.39999389648</ele>
        <time>2014-05-31T13:00:26.000Z</time>
      </trkpt>
      <trkpt lat="48.70463" lon="1.76393">
        <ele>176.60000610352</ele>
        <time>2014-05-31T13:00:32.000Z</time>
      </trkpt>
      <trkpt lat="48.70464" lon="1.76395">
        <ele>176.60000610352</ele>
        <time>2014-05-31T13:00:36.000Z</time>
      </trkpt>
      <trkpt lat="48.7047" lon="1.76404">
        <ele>176.80000305176</ele>
        <time>2014-05-31T13:00:41.000Z</time>
      </trkpt>
      <trkpt lat="48.70469" lon="1.76408">
        <ele>176.80000305176</ele>
        <time>2014-05-31T13:00:43.000Z</time>
      </trkpt>
      <trkpt lat="48.70469" lon="1.76417">
        <ele>177</ele>
        <time>2014-05-31T13:00:46.000Z</time>
      </trkpt>
      <trkpt lat="48.70479" lon="1.76448">
        <ele>177</ele>
        <time>2014-05-31T13:00:54.000Z</time>
      </trkpt>
      <trkpt lat="48.70483" lon="1.76465">
        <ele>177.60000610352</ele>
        <time>2014-05-31T13:01:01.000Z</time>
      </trkpt>
      <trkpt lat="48.70486" lon="1.76478">
        <ele>178</ele>
        <time>2014-05-31T13:01:07.000Z</time>
      </trkpt>
      <trkpt lat="48.70485" lon="1.76492">
        <ele>178.60000610352</ele>
        <time>2014-05-31T13:01:14.000Z</time>
      </trkpt>
      <trkpt lat="48.70482" lon="1.76503">
        <ele>179</ele>
        <time>2014-05-31T13:01:21.000Z</time>
      </trkpt>
      <trkpt lat="48.70485" lon="1.76522">
        <ele>179</ele>
        <time>2014-05-31T13:01:30.000Z</time>
      </trkpt>
      <trkpt lat="48.70486" lon="1.7654">
        <ele>179</ele>
        <time>2014-05-31T13:01:39.000Z</time>
      </trkpt>
      <trkpt lat="48.70485" lon="1.76551">
        <ele>179</ele>
        <time>2014-05-31T13:01:46.000Z</time>
      </trkpt>
      <trkpt lat="48.70492" lon="1.76572">
        <ele>178.39999389648</ele>
        <time>2014-05-31T13:01:53.000Z</time>
      </trkpt>
      <trkpt lat="48.7049" lon="1.76581">
        <ele>178.39999389648</ele>
        <time>2014-05-31T13:02:00.000Z</time>
      </trkpt>
      <trkpt lat="48.70491" lon="1.76588">
        <ele>178.39999389648</ele>
        <time>2014-05-31T13:02:04.000Z</time>
      </trkpt>
      <trkpt lat="48.70491" lon="1.76588">
        <ele>178.39999389648</ele>
        <time>2014-05-31T13:02:06.000Z</time>
      </trkpt>
      <trkpt lat="48.70483" lon="1.76592">
        <ele>178.80000305176</ele>
        <time>2014-05-31T13:02:12.000Z</time>
      </trkpt>
      <trkpt lat="48.70479" lon="1.76598">
        <ele>179</ele>
        <time>2014-05-31T13:02:17.000Z</time>
      </trkpt>
      <trkpt lat="48.70477" lon="1.76601">
        <ele>179</ele>
        <time>2014-05-31T13:02:19.000Z</time>
      </trkpt>
      <trkpt lat="48.70475" lon="1.76605">
        <ele>179.19999694824</ele>
        <time>2014-05-31T13:02:25.000Z</time>
      </trkpt>
      <trkpt lat="48.70475" lon="1.766">
        <ele>179.19999694824</ele>
        <time>2014-05-31T13:02:34.000Z</time>
      </trkpt>
      <trkpt lat="48.70462" lon="1.76591">
        <ele>179.80000305176</ele>
        <time>2014-05-31T13:02:47.000Z</time>
      </trkpt>
      <trkpt lat="48.70462" lon="1.76591">
        <ele>179.80000305176</ele>
        <time>2014-05-31T13:02:54.000Z</time>
      </trkpt>
      <trkpt lat="48.7046" lon="1.76588">
        <ele>179.80000305176</ele>
        <time>2014-05-31T13:03:00.000Z</time>
      </trkpt>
      <trkpt lat="48.70455" lon="1.76587">
        <ele>180.19999694824</ele>
        <time>2014-05-31T13:03:14.000Z</time>
      </trkpt>
      <trkpt lat="48.70448" lon="1.7659">
        <ele>180.39999389648</ele>
        <time>2014-05-31T13:03:20.000Z</time>
      </trkpt>
      <trkpt lat="48.70442" lon="1.76591">
        <ele>180.60000610352</ele>
        <time>2014-05-31T13:03:25.000Z</time>
      </trkpt>
      <trkpt lat="48.70424" lon="1.76601">
        <ele>180.19999694824</ele>
        <time>2014-05-31T13:03:38.000Z</time>
      </trkpt>
      <trkpt lat="48.70414" lon="1.76601">
        <ele>179.80000305176</ele>
        <time>2014-05-31T13:03:46.000Z</time>
      </trkpt>
      <trkpt lat="48.7041" lon="1.76601">
        <ele>179.60000610352</ele>
        <time>2014-05-31T13:03:50.000Z</time>
      </trkpt>
      <trkpt lat="48.70408" lon="1.76603">
        <ele>179.60000610352</ele>
        <time>2014-05-31T13:03:55.000Z</time>
      </trkpt>
      <trkpt lat="48.70401" lon="1.76605">
        <ele>179.39999389648</ele>
        <time>2014-05-31T13:04:00.000Z</time>
      </trkpt>
      <trkpt lat="48.70377" lon="1.76614">
        <ele>178.60000610352</ele>
        <time>2014-05-31T13:04:28.000Z</time>
      </trkpt>
      <trkpt lat="48.70367" lon="1.76614">
        <ele>178.39999389648</ele>
        <time>2014-05-31T13:04:35.000Z</time>
      </trkpt>
      <trkpt lat="48.70357" lon="1.76614">
        <ele>178</ele>
        <time>2014-05-31T13:04:41.000Z</time>
      </trkpt>
      <trkpt lat="48.70349" lon="1.76614">
        <ele>178</ele>
        <time>2014-05-31T13:04:46.000Z</time>
      </trkpt>
      <trkpt lat="48.70344" lon="1.76622">
        <ele>178.19999694824</ele>
        <time>2014-05-31T13:04:54.000Z</time>
      </trkpt>
      <trkpt lat="48.70337" lon="1.76625">
        <ele>178.39999389648</ele>
        <time>2014-05-31T13:04:59.000Z</time>
      </trkpt>
      <trkpt lat="48.70327" lon="1.76622">
        <ele>178.60000610352</ele>
        <time>2014-05-31T13:05:05.000Z</time>
      </trkpt>
      <trkpt lat="48.70322" lon="1.76617">
        <ele>178.80000305176</ele>
        <time>2014-05-31T13:05:09.000Z</time>
      </trkpt>
      <trkpt lat="48.7032" lon="1.76616">
        <ele>178.80000305176</ele>
        <time>2014-05-31T13:05:14.000Z</time>
      </trkpt>
      <trkpt lat="48.70315" lon="1.76611">
        <ele>179</ele>
        <time>2014-05-31T13:05:25.000Z</time>
      </trkpt>
      <trkpt lat="48.70314" lon="1.7661">
        <ele>179</ele>
        <time>2014-05-31T13:05:26.000Z</time>
      </trkpt>
      <trkpt lat="48.70309" lon="1.76603">
        <ele>179</ele>
        <time>2014-05-31T13:05:38.000Z</time>
      </trkpt>
      <trkpt lat="48.7031" lon="1.76597">
        <ele>179</ele>
        <time>2014-05-31T13:05:44.000Z</time>
      </trkpt>
      <trkpt lat="48.70311" lon="1.76597">
        <ele>179</ele>
        <time>2014-05-31T13:05:46.000Z</time>
      </trkpt>
      <trkpt lat="48.70312" lon="1.76596">
        <ele>179</ele>
        <time>2014-05-31T13:05:54.000Z</time>
      </trkpt>
      <trkpt lat="48.70314" lon="1.76586">
        <ele>179</ele>
        <time>2014-05-31T13:06:14.000Z</time>
      </trkpt>
      <trkpt lat="48.70323" lon="1.7659">
        <ele>178.80000305176</ele>
        <time>2014-05-31T13:06:57.000Z</time>
      </trkpt>
      <trkpt lat="48.70337" lon="1.76617">
        <ele>178.39999389648</ele>
        <time>2014-05-31T13:07:03.000Z</time>
      </trkpt>
      <trkpt lat="48.7034" lon="1.76624">
        <ele>178.39999389648</ele>
        <time>2014-05-31T13:07:08.000Z</time>
      </trkpt>
      <trkpt lat="48.70336" lon="1.76631">
        <ele>178.39999389648</ele>
        <time>2014-05-31T13:07:16.000Z</time>
      </trkpt>
      <trkpt lat="48.70332" lon="1.76636">
        <ele>178.60000610352</ele>
        <time>2014-05-31T13:07:20.000Z</time>
      </trkpt>
      <trkpt lat="48.7033" lon="1.76641">
        <ele>178.60000610352</ele>
        <time>2014-05-31T13:07:23.000Z</time>
      </trkpt>
      <trkpt lat="48.70328" lon="1.76645">
        <ele>178.60000610352</ele>
        <time>2014-05-31T13:07:26.000Z</time>
      </trkpt>
      <trkpt lat="48.70326" lon="1.76654">
        <ele>178.60000610352</ele>
        <time>2014-05-31T13:07:30.000Z</time>
      </trkpt>
      <trkpt lat="48.70327" lon="1.76661">
        <ele>178.60000610352</ele>
        <time>2014-05-31T13:07:33.000Z</time>
      </trkpt>
      <trkpt lat="48.70328" lon="1.76673">
        <ele>178.60000610352</ele>
        <time>2014-05-31T13:07:39.000Z</time>
      </trkpt>
      <trkpt lat="48.70328" lon="1.76678">
        <ele>178.60000610352</ele>
        <time>2014-05-31T13:07:43.000Z</time>
      </trkpt>
      <trkpt lat="48.70327" lon="1.76696">
        <ele>178.60000610352</ele>
        <time>2014-05-31T13:07:52.000Z</time>
      </trkpt>
      <trkpt lat="48.70329" lon="1.76712">
        <ele>178.60000610352</ele>
        <time>2014-05-31T13:07:59.000Z</time>
      </trkpt>
      <trkpt lat="48.70329" lon="1.76723">
        <ele>178.60000610352</ele>
        <time>2014-05-31T13:08:06.000Z</time>
      </trkpt>
      <trkpt lat="48.70329" lon="1.76735">
        <ele>178.60000610352</ele>
        <time>2014-05-31T13:08:13.000Z</time>
      </trkpt>
      <trkpt lat="48.70329" lon="1.76738">
        <ele>178.60000610352</ele>
        <time>2014-05-31T13:08:15.000Z</time>
      </trkpt>
      <trkpt lat="48.70328" lon="1.76743">
        <ele>178.60000610352</ele>
        <time>2014-05-31T13:08:18.000Z</time>
      </trkpt>
      <trkpt lat="48.70326" lon="1.76753">
        <ele>178.80000305176</ele>
        <time>2014-05-31T13:08:24.000Z</time>
      </trkpt>
      <trkpt lat="48.70326" lon="1.76756">
        <ele>178.80000305176</ele>
        <time>2014-05-31T13:08:26.000Z</time>
      </trkpt>
      <trkpt lat="48.70327" lon="1.76765">
        <ele>179</ele>
        <time>2014-05-31T13:08:30.000Z</time>
      </trkpt>
      <trkpt lat="48.70328" lon="1.7678">
        <ele>179.19999694824</ele>
        <time>2014-05-31T13:08:39.000Z</time>
      </trkpt>
      <trkpt lat="48.70329" lon="1.76784">
        <ele>179.19999694824</ele>
        <time>2014-05-31T13:08:41.000Z</time>
      </trkpt>
      <trkpt lat="48.70327" lon="1.76792">
        <ele>179.19999694824</ele>
        <time>2014-05-31T13:08:45.000Z</time>
      </trkpt>
      <trkpt lat="48.70327" lon="1.76804">
        <ele>179.19999694824</ele>
        <time>2014-05-31T13:08:52.000Z</time>
      </trkpt>
      <trkpt lat="48.70328" lon="1.76811">
        <ele>179.19999694824</ele>
        <time>2014-05-31T13:08:56.000Z</time>
      </trkpt>
      <trkpt lat="48.70328" lon="1.76817">
        <ele>179</ele>
        <time>2014-05-31T13:08:59.000Z</time>
      </trkpt>
      <trkpt lat="48.7033" lon="1.76825">
        <ele>179</ele>
        <time>2014-05-31T13:09:03.000Z</time>
      </trkpt>
      <trkpt lat="48.70331" lon="1.76842">
        <ele>179.19999694824</ele>
        <time>2014-05-31T13:09:11.000Z</time>
      </trkpt>
      <trkpt lat="48.70331" lon="1.76857">
        <ele>179.39999389648</ele>
        <time>2014-05-31T13:09:18.000Z</time>
      </trkpt>
      <trkpt lat="48.70333" lon="1.76868">
        <ele>179.60000610352</ele>
        <time>2014-05-31T13:09:24.000Z</time>
      </trkpt>
      <trkpt lat="48.70333" lon="1.7687">
        <ele>179.60000610352</ele>
        <time>2014-05-31T13:09:25.000Z</time>
      </trkpt>
      <trkpt lat="48.70333" lon="1.76887">
        <ele>179.80000305176</ele>
        <time>2014-05-31T13:09:34.000Z</time>
      </trkpt>
      <trkpt lat="48.70334" lon="1.76899">
        <ele>180</ele>
        <time>2014-05-31T13:09:40.000Z</time>
      </trkpt>
      <trkpt lat="48.70336" lon="1.76911">
        <ele>180.39999389648</ele>
        <time>2014-05-31T13:09:46.000Z</time>
      </trkpt>
      <trkpt lat="48.70335" lon="1.76922">
        <ele>180.60000610352</ele>
        <time>2014-05-31T13:09:52.000Z</time>
      </trkpt>
      <trkpt lat="48.70335" lon="1.76927">
        <ele>180.80000305176</ele>
        <time>2014-05-31T13:09:55.000Z</time>
      </trkpt>
      <trkpt lat="48.70335" lon="1.76936">
        <ele>181</ele>
        <time>2014-05-31T13:10:00.000Z</time>
      </trkpt>
      <trkpt lat="48.70335" lon="1.76949">
        <ele>181.19999694824</ele>
        <time>2014-05-31T13:10:07.000Z</time>
      </trkpt>
      <trkpt lat="48.70335" lon="1.7696">
        <ele>181.60000610352</ele>
        <time>2014-05-31T13:10:14.000Z</time>
      </trkpt>
      <trkpt lat="48.70336" lon="1.76971">
        <ele>181.80000305176</ele>
        <time>2014-05-31T13:10:20.000Z</time>
      </trkpt>
      <trkpt lat="48.70337" lon="1.76977">
        <ele>182</ele>
        <time>2014-05-31T13:10:23.000Z</time>
      </trkpt>
      <trkpt lat="48.70336" lon="1.76982">
        <ele>182</ele>
        <time>2014-05-31T13:10:26.000Z</time>
      </trkpt>
      <trkpt lat="48.70339" lon="1.76998">
        <ele>182.19999694824</ele>
        <time>2014-05-31T13:10:35.000Z</time>
      </trkpt>
      <trkpt lat="48.70339" lon="1.77011">
        <ele>182.19999694824</ele>
        <time>2014-05-31T13:10:41.000Z</time>
      </trkpt>
      <trkpt lat="48.70337" lon="1.77016">
        <ele>182.19999694824</ele>
        <time>2014-05-31T13:10:44.000Z</time>
      </trkpt>
      <trkpt lat="48.70338" lon="1.77029">
        <ele>182.19999694824</ele>
        <time>2014-05-31T13:10:51.000Z</time>
      </trkpt>
      <trkpt lat="48.7034" lon="1.77045">
        <ele>182.19999694824</ele>
        <time>2014-05-31T13:10:59.000Z</time>
      </trkpt>
      <trkpt lat="48.70344" lon="1.77056">
        <ele>182.19999694824</ele>
        <time>2014-05-31T13:11:05.000Z</time>
      </trkpt>
      <trkpt lat="48.70345" lon="1.77064">
        <ele>182.19999694824</ele>
        <time>2014-05-31T13:11:09.000Z</time>
      </trkpt>
      <trkpt lat="48.70347" lon="1.77076">
        <ele>182.19999694824</ele>
        <time>2014-05-31T13:11:15.000Z</time>
      </trkpt>
      <trkpt lat="48.70347" lon="1.77084">
        <ele>182.19999694824</ele>
        <time>2014-05-31T13:11:20.000Z</time>
      </trkpt>
      <trkpt lat="48.70348" lon="1.77095">
        <ele>182.19999694824</ele>
        <time>2014-05-31T13:11:26.000Z</time>
      </trkpt>
      <trkpt lat="48.70348" lon="1.77108">
        <ele>182.19999694824</ele>
        <time>2014-05-31T13:11:33.000Z</time>
      </trkpt>
      <trkpt lat="48.70348" lon="1.77113">
        <ele>182.19999694824</ele>
        <time>2014-05-31T13:11:36.000Z</time>
      </trkpt>
      <trkpt lat="48.70349" lon="1.77125">
        <ele>182.19999694824</ele>
        <time>2014-05-31T13:11:42.000Z</time>
      </trkpt>
      <trkpt lat="48.70349" lon="1.77139">
        <ele>182.19999694824</ele>
        <time>2014-05-31T13:11:49.000Z</time>
      </trkpt>
      <trkpt lat="48.70351" lon="1.7715">
        <ele>182</ele>
        <time>2014-05-31T13:11:55.000Z</time>
      </trkpt>
      <trkpt lat="48.70352" lon="1.77153">
        <ele>182</ele>
        <time>2014-05-31T13:11:57.000Z</time>
      </trkpt>
      <trkpt lat="48.70354" lon="1.77176">
        <ele>181.39999389648</ele>
        <time>2014-05-31T13:12:09.000Z</time>
      </trkpt>
      <trkpt lat="48.70355" lon="1.77186">
        <ele>181.19999694824</ele>
        <time>2014-05-31T13:12:15.000Z</time>
      </trkpt>
      <trkpt lat="48.70358" lon="1.77202">
        <ele>181</ele>
        <time>2014-05-31T13:12:24.000Z</time>
      </trkpt>
      <trkpt lat="48.7036" lon="1.77215">
        <ele>180.60000610352</ele>
        <time>2014-05-31T13:12:31.000Z</time>
      </trkpt>
      <trkpt lat="48.70361" lon="1.77226">
        <ele>180.39999389648</ele>
        <time>2014-05-31T13:12:37.000Z</time>
      </trkpt>
      <trkpt lat="48.70362" lon="1.7724">
        <ele>180.19999694824</ele>
        <time>2014-05-31T13:12:45.000Z</time>
      </trkpt>
      <trkpt lat="48.70362" lon="1.77242">
        <ele>180.19999694824</ele>
        <time>2014-05-31T13:12:46.000Z</time>
      </trkpt>
      <trkpt lat="48.70363" lon="1.77256">
        <ele>180.39999389648</ele>
        <time>2014-05-31T13:12:53.000Z</time>
      </trkpt>
      <trkpt lat="48.70363" lon="1.77261">
        <ele>180.60000610352</ele>
        <time>2014-05-31T13:12:56.000Z</time>
      </trkpt>
      <trkpt lat="48.70364" lon="1.77268">
        <ele>180.60000610352</ele>
        <time>2014-05-31T13:13:01.000Z</time>
      </trkpt>
      <trkpt lat="48.70369" lon="1.77286">
        <ele>181</ele>
        <time>2014-05-31T13:13:11.000Z</time>
      </trkpt>
      <trkpt lat="48.70371" lon="1.77297">
        <ele>181.19999694824</ele>
        <time>2014-05-31T13:13:17.000Z</time>
      </trkpt>
      <trkpt lat="48.70369" lon="1.7731">
        <ele>181.19999694824</ele>
        <time>2014-05-31T13:13:25.000Z</time>
      </trkpt>
      <trkpt lat="48.7037" lon="1.77317">
        <ele>181.39999389648</ele>
        <time>2014-05-31T13:13:29.000Z</time>
      </trkpt>
      <trkpt lat="48.7037" lon="1.77319">
        <ele>181.39999389648</ele>
        <time>2014-05-31T13:13:30.000Z</time>
      </trkpt>
      <trkpt lat="48.70375" lon="1.77334">
        <ele>181.60000610352</ele>
        <time>2014-05-31T13:13:37.000Z</time>
      </trkpt>
      <trkpt lat="48.70374" lon="1.77342">
        <ele>181.80000305176</ele>
        <time>2014-05-31T13:13:41.000Z</time>
      </trkpt>
      <trkpt lat="48.70371" lon="1.77346">
        <ele>182</ele>
        <time>2014-05-31T13:13:44.000Z</time>
      </trkpt>
      <trkpt lat="48.70365" lon="1.77359">
        <ele>183</ele>
        <time>2014-05-31T13:13:50.000Z</time>
      </trkpt>
      <trkpt lat="48.70364" lon="1.7736">
        <ele>183</ele>
        <time>2014-05-31T13:13:51.000Z</time>
      </trkpt>
      <trkpt lat="48.70357" lon="1.77368">
        <ele>183.80000305176</ele>
        <time>2014-05-31T13:13:58.000Z</time>
      </trkpt>
      <trkpt lat="48.70351" lon="1.77376">
        <ele>184.19999694824</ele>
        <time>2014-05-31T13:14:04.000Z</time>
      </trkpt>
      <trkpt lat="48.70346" lon="1.77383">
        <ele>184.39999389648</ele>
        <time>2014-05-31T13:14:09.000Z</time>
      </trkpt>
      <trkpt lat="48.70342" lon="1.77396">
        <ele>185</ele>
        <time>2014-05-31T13:14:16.000Z</time>
      </trkpt>
      <trkpt lat="48.70341" lon="1.77403">
        <ele>185.39999389648</ele>
        <time>2014-05-31T13:14:20.000Z</time>
      </trkpt>
      <trkpt lat="48.70342" lon="1.77408">
        <ele>185.60000610352</ele>
        <time>2014-05-31T13:14:22.000Z</time>
      </trkpt>
      <trkpt lat="48.70343" lon="1.77422">
        <ele>186</ele>
        <time>2014-05-31T13:14:28.000Z</time>
      </trkpt>
      <trkpt lat="48.7034" lon="1.77436">
        <ele>186.19999694824</ele>
        <time>2014-05-31T13:14:35.000Z</time>
      </trkpt>
      <trkpt lat="48.7034" lon="1.77446">
        <ele>186.39999389648</ele>
        <time>2014-05-31T13:14:39.000Z</time>
      </trkpt>
      <trkpt lat="48.70341" lon="1.77452">
        <ele>186.60000610352</ele>
        <time>2014-05-31T13:14:42.000Z</time>
      </trkpt>
      <trkpt lat="48.7034" lon="1.77457">
        <ele>186.60000610352</ele>
        <time>2014-05-31T13:14:48.000Z</time>
      </trkpt>
      <trkpt lat="48.70342" lon="1.77462">
        <ele>186.80000305176</ele>
        <time>2014-05-31T13:14:52.000Z</time>
      </trkpt>
      <trkpt lat="48.70342" lon="1.77464">
        <ele>186.80000305176</ele>
        <time>2014-05-31T13:14:53.000Z</time>
      </trkpt>
      <trkpt lat="48.70344" lon="1.77487">
        <ele>187.80000305176</ele>
        <time>2014-05-31T13:15:01.000Z</time>
      </trkpt>
      <trkpt lat="48.70342" lon="1.77514">
        <ele>188</ele>
        <time>2014-05-31T13:15:07.000Z</time>
      </trkpt>
      <trkpt lat="48.70352" lon="1.77548">
        <ele>188.60000610352</ele>
        <time>2014-05-31T13:15:13.000Z</time>
      </trkpt>
      <trkpt lat="48.70356" lon="1.77561">
        <ele>188.80000305176</ele>
        <time>2014-05-31T13:15:17.000Z</time>
      </trkpt>
      <trkpt lat="48.70357" lon="1.77563">
        <ele>188.80000305176</ele>
        <time>2014-05-31T13:15:18.000Z</time>
      </trkpt>
      <trkpt lat="48.70363" lon="1.7758">
        <ele>188.80000305176</ele>
        <time>2014-05-31T13:15:26.000Z</time>
      </trkpt>
      <trkpt lat="48.70364" lon="1.77587">
        <ele>188.80000305176</ele>
        <time>2014-05-31T13:15:30.000Z</time>
      </trkpt>
      <trkpt lat="48.70366" lon="1.77592">
        <ele>188.80000305176</ele>
        <time>2014-05-31T13:15:32.000Z</time>
      </trkpt>
      <trkpt lat="48.70373" lon="1.7761">
        <ele>188.60000610352</ele>
        <time>2014-05-31T13:15:39.000Z</time>
      </trkpt>
      <trkpt lat="48.70374" lon="1.77617">
        <ele>188.60000610352</ele>
        <time>2014-05-31T13:15:43.000Z</time>
      </trkpt>
      <trkpt lat="48.70374" lon="1.77624">
        <ele>188.60000610352</ele>
        <time>2014-05-31T13:15:47.000Z</time>
      </trkpt>
      <trkpt lat="48.70373" lon="1.77635">
        <ele>188.60000610352</ele>
        <time>2014-05-31T13:15:52.000Z</time>
      </trkpt>
      <trkpt lat="48.70374" lon="1.77643">
        <ele>188.60000610352</ele>
        <time>2014-05-31T13:15:57.000Z</time>
      </trkpt>
      <trkpt lat="48.70374" lon="1.77645">
        <ele>188.60000610352</ele>
        <time>2014-05-31T13:15:58.000Z</time>
      </trkpt>
      <trkpt lat="48.70374" lon="1.77659">
        <ele>188.60000610352</ele>
        <time>2014-05-31T13:16:05.000Z</time>
      </trkpt>
      <trkpt lat="48.70374" lon="1.77669">
        <ele>188.39999389648</ele>
        <time>2014-05-31T13:16:10.000Z</time>
      </trkpt>
      <trkpt lat="48.70375" lon="1.77678">
        <ele>188.39999389648</ele>
        <time>2014-05-31T13:16:16.000Z</time>
      </trkpt>
      <trkpt lat="48.70377" lon="1.77686">
        <ele>188.39999389648</ele>
        <time>2014-05-31T13:16:20.000Z</time>
      </trkpt>
      <trkpt lat="48.70378" lon="1.77694">
        <ele>188.39999389648</ele>
        <time>2014-05-31T13:16:24.000Z</time>
      </trkpt>
      <trkpt lat="48.70381" lon="1.77704">
        <ele>188.39999389648</ele>
        <time>2014-05-31T13:16:30.000Z</time>
      </trkpt>
      <trkpt lat="48.70383" lon="1.77713">
        <ele>188.19999694824</ele>
        <time>2014-05-31T13:16:36.000Z</time>
      </trkpt>
      <trkpt lat="48.70383" lon="1.77722">
        <ele>188.19999694824</ele>
        <time>2014-05-31T13:16:41.000Z</time>
      </trkpt>
      <trkpt lat="48.70385" lon="1.77727">
        <ele>188.19999694824</ele>
        <time>2014-05-31T13:16:44.000Z</time>
      </trkpt>
      <trkpt lat="48.70386" lon="1.77736">
        <ele>188.19999694824</ele>
        <time>2014-05-31T13:16:49.000Z</time>
      </trkpt>
      <trkpt lat="48.70386" lon="1.77743">
        <ele>188.19999694824</ele>
        <time>2014-05-31T13:16:53.000Z</time>
      </trkpt>
      <trkpt lat="48.70389" lon="1.77749">
        <ele>188.19999694824</ele>
        <time>2014-05-31T13:16:56.000Z</time>
      </trkpt>
      <trkpt lat="48.70392" lon="1.77756">
        <ele>188.39999389648</ele>
        <time>2014-05-31T13:17:01.000Z</time>
      </trkpt>
      <trkpt lat="48.70393" lon="1.77762">
        <ele>188.39999389648</ele>
        <time>2014-05-31T13:17:06.000Z</time>
      </trkpt>
      <trkpt lat="48.70392" lon="1.77771">
        <ele>188.39999389648</ele>
        <time>2014-05-31T13:17:10.000Z</time>
      </trkpt>
      <trkpt lat="48.70392" lon="1.77774">
        <ele>188.60000610352</ele>
        <time>2014-05-31T13:17:12.000Z</time>
      </trkpt>
      <trkpt lat="48.70382" lon="1.77782">
        <ele>188.60000610352</ele>
        <time>2014-05-31T13:17:19.000Z</time>
      </trkpt>
      <trkpt lat="48.70378" lon="1.77786">
        <ele>188.80000305176</ele>
        <time>2014-05-31T13:17:22.000Z</time>
      </trkpt>
      <trkpt lat="48.70373" lon="1.77792">
        <ele>188.80000305176</ele>
        <time>2014-05-31T13:17:27.000Z</time>
      </trkpt>
      <trkpt lat="48.70366" lon="1.77794">
        <ele>188.80000305176</ele>
        <time>2014-05-31T13:17:31.000Z</time>
      </trkpt>
      <trkpt lat="48.70357" lon="1.77796">
        <ele>189</ele>
        <time>2014-05-31T13:17:39.000Z</time>
      </trkpt>
      <trkpt lat="48.70353" lon="1.77799">
        <ele>189</ele>
        <time>2014-05-31T13:17:44.000Z</time>
      </trkpt>
      <trkpt lat="48.70339" lon="1.77798">
        <ele>189</ele>
        <time>2014-05-31T13:17:50.000Z</time>
      </trkpt>
      <trkpt lat="48.70333" lon="1.778">
        <ele>189</ele>
        <time>2014-05-31T13:17:55.000Z</time>
      </trkpt>
      <trkpt lat="48.70326" lon="1.77801">
        <ele>189</ele>
        <time>2014-05-31T13:17:59.000Z</time>
      </trkpt>
      <trkpt lat="48.70321" lon="1.77801">
        <ele>189</ele>
        <time>2014-05-31T13:18:03.000Z</time>
      </trkpt>
      <trkpt lat="48.70313" lon="1.77802">
        <ele>189</ele>
        <time>2014-05-31T13:18:10.000Z</time>
      </trkpt>
      <trkpt lat="48.70305" lon="1.77804">
        <ele>189</ele>
        <time>2014-05-31T13:18:16.000Z</time>
      </trkpt>
      <trkpt lat="48.70299" lon="1.77804">
        <ele>189</ele>
        <time>2014-05-31T13:18:20.000Z</time>
      </trkpt>
      <trkpt lat="48.70293" lon="1.77803">
        <ele>189</ele>
        <time>2014-05-31T13:18:24.000Z</time>
      </trkpt>
      <trkpt lat="48.70289" lon="1.77802">
        <ele>189</ele>
        <time>2014-05-31T13:18:26.000Z</time>
      </trkpt>
      <trkpt lat="48.70282" lon="1.77806">
        <ele>189</ele>
        <time>2014-05-31T13:18:30.000Z</time>
      </trkpt>
      <trkpt lat="48.70276" lon="1.77806">
        <ele>189</ele>
        <time>2014-05-31T13:18:34.000Z</time>
      </trkpt>
      <trkpt lat="48.70272" lon="1.77811">
        <ele>189</ele>
        <time>2014-05-31T13:18:39.000Z</time>
      </trkpt>
      <trkpt lat="48.70263" lon="1.77811">
        <ele>188.60000610352</ele>
        <time>2014-05-31T13:18:44.000Z</time>
      </trkpt>
      <trkpt lat="48.70254" lon="1.77807">
        <ele>188</ele>
        <time>2014-05-31T13:18:50.000Z</time>
      </trkpt>
      <trkpt lat="48.70249" lon="1.77808">
        <ele>187.60000610352</ele>
        <time>2014-05-31T13:18:55.000Z</time>
      </trkpt>
      <trkpt lat="48.70241" lon="1.7781">
        <ele>186.80000305176</ele>
        <time>2014-05-31T13:19:00.000Z</time>
      </trkpt>
      <trkpt lat="48.70231" lon="1.77813">
        <ele>185.80000305176</ele>
        <time>2014-05-31T13:19:05.000Z</time>
      </trkpt>
      <trkpt lat="48.70223" lon="1.77815">
        <ele>185.19999694824</ele>
        <time>2014-05-31T13:19:10.000Z</time>
      </trkpt>
      <trkpt lat="48.70218" lon="1.77816">
        <ele>184.80000305176</ele>
        <time>2014-05-31T13:19:14.000Z</time>
      </trkpt>
      <trkpt lat="48.7021" lon="1.77817">
        <ele>184</ele>
        <time>2014-05-31T13:19:19.000Z</time>
      </trkpt>
      <trkpt lat="48.70208" lon="1.7782">
        <ele>183.80000305176</ele>
        <time>2014-05-31T13:19:23.000Z</time>
      </trkpt>
      <trkpt lat="48.70208" lon="1.77822">
        <ele>183.80000305176</ele>
        <time>2014-05-31T13:19:25.000Z</time>
      </trkpt>
      <trkpt lat="48.70211" lon="1.77827">
        <ele>184</ele>
        <time>2014-05-31T13:19:29.000Z</time>
      </trkpt>
      <trkpt lat="48.70214" lon="1.77833">
        <ele>184.19999694824</ele>
        <time>2014-05-31T13:19:32.000Z</time>
      </trkpt>
      <trkpt lat="48.70215" lon="1.77842">
        <ele>184.19999694824</ele>
        <time>2014-05-31T13:19:37.000Z</time>
      </trkpt>
      <trkpt lat="48.70213" lon="1.77853">
        <ele>183.80000305176</ele>
        <time>2014-05-31T13:19:44.000Z</time>
      </trkpt>
      <trkpt lat="48.70212" lon="1.77861">
        <ele>183.80000305176</ele>
        <time>2014-05-31T13:19:48.000Z</time>
      </trkpt>
      <trkpt lat="48.70211" lon="1.77869">
        <ele>183.80000305176</ele>
        <time>2014-05-31T13:19:52.000Z</time>
      </trkpt>
      <trkpt lat="48.70208" lon="1.77877">
        <ele>183.60000610352</ele>
        <time>2014-05-31T13:19:56.000Z</time>
      </trkpt>
      <trkpt lat="48.7021" lon="1.77882">
        <ele>183.60000610352</ele>
        <time>2014-05-31T13:19:58.000Z</time>
      </trkpt>
      <trkpt lat="48.70212" lon="1.77886">
        <ele>183.80000305176</ele>
        <time>2014-05-31T13:20:00.000Z</time>
      </trkpt>
      <trkpt lat="48.70214" lon="1.77896">
        <ele>184</ele>
        <time>2014-05-31T13:20:05.000Z</time>
      </trkpt>
      <trkpt lat="48.70212" lon="1.77905">
        <ele>183.80000305176</ele>
        <time>2014-05-31T13:20:11.000Z</time>
      </trkpt>
      <trkpt lat="48.70214" lon="1.77915">
        <ele>183.80000305176</ele>
        <time>2014-05-31T13:20:16.000Z</time>
      </trkpt>
      <trkpt lat="48.70219" lon="1.77927">
        <ele>184</ele>
        <time>2014-05-31T13:20:22.000Z</time>
      </trkpt>
      <trkpt lat="48.70221" lon="1.77935">
        <ele>184.19999694824</ele>
        <time>2014-05-31T13:20:26.000Z</time>
      </trkpt>
      <trkpt lat="48.70219" lon="1.77942">
        <ele>183.60000610352</ele>
        <time>2014-05-31T13:20:32.000Z</time>
      </trkpt>
      <trkpt lat="48.70217" lon="1.7795">
        <ele>183.19999694824</ele>
        <time>2014-05-31T13:20:37.000Z</time>
      </trkpt>
      <trkpt lat="48.70221" lon="1.77957">
        <ele>183.19999694824</ele>
        <time>2014-05-31T13:20:42.000Z</time>
      </trkpt>
      <trkpt lat="48.70227" lon="1.77968">
        <ele>183.39999389648</ele>
        <time>2014-05-31T13:20:47.000Z</time>
      </trkpt>
      <trkpt lat="48.70231" lon="1.7798">
        <ele>183.19999694824</ele>
        <time>2014-05-31T13:20:53.000Z</time>
      </trkpt>
      <trkpt lat="48.70228" lon="1.77994">
        <ele>182.39999389648</ele>
        <time>2014-05-31T13:21:01.000Z</time>
      </trkpt>
      <trkpt lat="48.70233" lon="1.78003">
        <ele>183</ele>
        <time>2014-05-31T13:21:05.000Z</time>
      </trkpt>
      <trkpt lat="48.70236" lon="1.78012">
        <ele>183.39999389648</ele>
        <time>2014-05-31T13:21:11.000Z</time>
      </trkpt>
      <trkpt lat="48.70239" lon="1.78027">
        <ele>183.60000610352</ele>
        <time>2014-05-31T13:21:17.000Z</time>
      </trkpt>
      <trkpt lat="48.70239" lon="1.7803">
        <ele>183.60000610352</ele>
        <time>2014-05-31T13:21:19.000Z</time>
      </trkpt>
      <trkpt lat="48.70241" lon="1.78042">
        <ele>183.80000305176</ele>
        <time>2014-05-31T13:21:26.000Z</time>
      </trkpt>
      <trkpt lat="48.70243" lon="1.7805">
        <ele>184.19999694824</ele>
        <time>2014-05-31T13:21:30.000Z</time>
      </trkpt>
      <trkpt lat="48.70243" lon="1.78052">
        <ele>184.19999694824</ele>
        <time>2014-05-31T13:21:31.000Z</time>
      </trkpt>
      <trkpt lat="48.70241" lon="1.78065">
        <ele>184.19999694824</ele>
        <time>2014-05-31T13:21:38.000Z</time>
      </trkpt>
      <trkpt lat="48.70245" lon="1.78077">
        <ele>184.60000610352</ele>
        <time>2014-05-31T13:21:44.000Z</time>
      </trkpt>
      <trkpt lat="48.70245" lon="1.78083">
        <ele>184.60000610352</ele>
        <time>2014-05-31T13:21:49.000Z</time>
      </trkpt>
      <trkpt lat="48.70244" lon="1.78091">
        <ele>184.60000610352</ele>
        <time>2014-05-31T13:21:54.000Z</time>
      </trkpt>
      <trkpt lat="48.70246" lon="1.78101">
        <ele>184.60000610352</ele>
        <time>2014-05-31T13:21:59.000Z</time>
      </trkpt>
      <trkpt lat="48.70243" lon="1.78108">
        <ele>184.39999389648</ele>
        <time>2014-05-31T13:22:03.000Z</time>
      </trkpt>
      <trkpt lat="48.70243" lon="1.78119">
        <ele>184.39999389648</ele>
        <time>2014-05-31T13:22:08.000Z</time>
      </trkpt>
      <trkpt lat="48.70244" lon="1.78132">
        <ele>184.39999389648</ele>
        <time>2014-05-31T13:22:13.000Z</time>
      </trkpt>
      <trkpt lat="48.70245" lon="1.78138">
        <ele>184.60000610352</ele>
        <time>2014-05-31T13:22:16.000Z</time>
      </trkpt>
      <trkpt lat="48.70248" lon="1.78142">
        <ele>184.80000305176</ele>
        <time>2014-05-31T13:22:18.000Z</time>
      </trkpt>
      <trkpt lat="48.70253" lon="1.78157">
        <ele>185.19999694824</ele>
        <time>2014-05-31T13:22:24.000Z</time>
      </trkpt>
      <trkpt lat="48.70253" lon="1.78164">
        <ele>185.19999694824</ele>
        <time>2014-05-31T13:22:27.000Z</time>
      </trkpt>
      <trkpt lat="48.70252" lon="1.78174">
        <ele>185.19999694824</ele>
        <time>2014-05-31T13:22:32.000Z</time>
      </trkpt>
      <trkpt lat="48.70256" lon="1.78183">
        <ele>185.80000305176</ele>
        <time>2014-05-31T13:22:38.000Z</time>
      </trkpt>
      <trkpt lat="48.70259" lon="1.78186">
        <ele>186.19999694824</ele>
        <time>2014-05-31T13:22:40.000Z</time>
      </trkpt>
      <trkpt lat="48.70265" lon="1.78199">
        <ele>187</ele>
        <time>2014-05-31T13:22:46.000Z</time>
      </trkpt>
      <trkpt lat="48.70272" lon="1.78216">
        <ele>187.80000305176</ele>
        <time>2014-05-31T13:22:53.000Z</time>
      </trkpt>
      <trkpt lat="48.70272" lon="1.78223">
        <ele>187.80000305176</ele>
        <time>2014-05-31T13:22:58.000Z</time>
      </trkpt>
      <trkpt lat="48.7027" lon="1.78234">
        <ele>187.80000305176</ele>
        <time>2014-05-31T13:23:04.000Z</time>
      </trkpt>
      <trkpt lat="48.70272" lon="1.78239">
        <ele>188</ele>
        <time>2014-05-31T13:23:07.000Z</time>
      </trkpt>
      <trkpt lat="48.70274" lon="1.78255">
        <ele>188.19999694824</ele>
        <time>2014-05-31T13:23:14.000Z</time>
      </trkpt>
      <trkpt lat="48.70277" lon="1.7827">
        <ele>188.19999694824</ele>
        <time>2014-05-31T13:23:21.000Z</time>
      </trkpt>
      <trkpt lat="48.70277" lon="1.78274">
        <ele>188.19999694824</ele>
        <time>2014-05-31T13:23:23.000Z</time>
      </trkpt>
      <trkpt lat="48.70275" lon="1.7828">
        <ele>188.19999694824</ele>
        <time>2014-05-31T13:23:26.000Z</time>
      </trkpt>
      <trkpt lat="48.70274" lon="1.78292">
        <ele>188.19999694824</ele>
        <time>2014-05-31T13:23:31.000Z</time>
      </trkpt>
      <trkpt lat="48.70274" lon="1.78306">
        <ele>188.19999694824</ele>
        <time>2014-05-31T13:23:38.000Z</time>
      </trkpt>
      <trkpt lat="48.70279" lon="1.78316">
        <ele>188.39999389648</ele>
        <time>2014-05-31T13:23:43.000Z</time>
      </trkpt>
      <trkpt lat="48.70278" lon="1.7833">
        <ele>188.19999694824</ele>
        <time>2014-05-31T13:23:49.000Z</time>
      </trkpt>
      <trkpt lat="48.70281" lon="1.78342">
        <ele>188</ele>
        <time>2014-05-31T13:23:54.000Z</time>
      </trkpt>
      <trkpt lat="48.70282" lon="1.78347">
        <ele>187.80000305176</ele>
        <time>2014-05-31T13:23:56.000Z</time>
      </trkpt>
      <trkpt lat="48.70287" lon="1.78361">
        <ele>187.60000610352</ele>
        <time>2014-05-31T13:24:03.000Z</time>
      </trkpt>
      <trkpt lat="48.70291" lon="1.78376">
        <ele>187.19999694824</ele>
        <time>2014-05-31T13:24:09.000Z</time>
      </trkpt>
      <trkpt lat="48.70294" lon="1.78385">
        <ele>187</ele>
        <time>2014-05-31T13:24:15.000Z</time>
      </trkpt>
      <trkpt lat="48.70296" lon="1.78396">
        <ele>186.60000610352</ele>
        <time>2014-05-31T13:24:21.000Z</time>
      </trkpt>
      <trkpt lat="48.70296" lon="1.78404">
        <ele>186.19999694824</ele>
        <time>2014-05-31T13:24:26.000Z</time>
      </trkpt>
      <trkpt lat="48.70297" lon="1.7842">
        <ele>186</ele>
        <time>2014-05-31T13:24:33.000Z</time>
      </trkpt>
      <trkpt lat="48.70297" lon="1.78422">
        <ele>186</ele>
        <time>2014-05-31T13:24:34.000Z</time>
      </trkpt>
      <trkpt lat="48.703" lon="1.78437">
        <ele>186.19999694824</ele>
        <time>2014-05-31T13:24:41.000Z</time>
      </trkpt>
      <trkpt lat="48.703" lon="1.78442">
        <ele>186.19999694824</ele>
        <time>2014-05-31T13:24:43.000Z</time>
      </trkpt>
      <trkpt lat="48.70307" lon="1.78449">
        <ele>186.80000305176</ele>
        <time>2014-05-31T13:24:47.000Z</time>
      </trkpt>
      <trkpt lat="48.70307" lon="1.78459">
        <ele>186.80000305176</ele>
        <time>2014-05-31T13:24:51.000Z</time>
      </trkpt>
      <trkpt lat="48.70306" lon="1.78468">
        <ele>187</ele>
        <time>2014-05-31T13:24:54.000Z</time>
      </trkpt>
      <trkpt lat="48.7031" lon="1.78482">
        <ele>187.39999389648</ele>
        <time>2014-05-31T13:25:01.000Z</time>
      </trkpt>
      <trkpt lat="48.70315" lon="1.78491">
        <ele>187.60000610352</ele>
        <time>2014-05-31T13:25:06.000Z</time>
      </trkpt>
      <trkpt lat="48.70322" lon="1.78505">
        <ele>187.60000610352</ele>
        <time>2014-05-31T13:25:13.000Z</time>
      </trkpt>
      <trkpt lat="48.70322" lon="1.78507">
        <ele>187.60000610352</ele>
        <time>2014-05-31T13:25:14.000Z</time>
      </trkpt>
      <trkpt lat="48.70326" lon="1.78526">
        <ele>187.39999389648</ele>
        <time>2014-05-31T13:25:23.000Z</time>
      </trkpt>
      <trkpt lat="48.70325" lon="1.78537">
        <ele>187.19999694824</ele>
        <time>2014-05-31T13:25:28.000Z</time>
      </trkpt>
      <trkpt lat="48.70326" lon="1.78545">
        <ele>187</ele>
        <time>2014-05-31T13:25:31.000Z</time>
      </trkpt>
      <trkpt lat="48.70324" lon="1.78549">
        <ele>187</ele>
        <time>2014-05-31T13:25:33.000Z</time>
      </trkpt>
      <trkpt lat="48.70318" lon="1.78554">
        <ele>187</ele>
        <time>2014-05-31T13:25:37.000Z</time>
      </trkpt>
      <trkpt lat="48.7031" lon="1.78555">
        <ele>186.80000305176</ele>
        <time>2014-05-31T13:25:42.000Z</time>
      </trkpt>
      <trkpt lat="48.70303" lon="1.78552">
        <ele>186.60000610352</ele>
        <time>2014-05-31T13:25:46.000Z</time>
      </trkpt>
      <trkpt lat="48.703" lon="1.78553">
        <ele>186.60000610352</ele>
        <time>2014-05-31T13:25:50.000Z</time>
      </trkpt>
      <trkpt lat="48.70299" lon="1.78553">
        <ele>186.39999389648</ele>
        <time>2014-05-31T13:25:53.000Z</time>
      </trkpt>
      <trkpt lat="48.70292" lon="1.78554">
        <ele>186.39999389648</ele>
        <time>2014-05-31T13:25:57.000Z</time>
      </trkpt>
      <trkpt lat="48.70285" lon="1.78558">
        <ele>186.19999694824</ele>
        <time>2014-05-31T13:26:03.000Z</time>
      </trkpt>
      <trkpt lat="48.70278" lon="1.78561">
        <ele>186</ele>
        <time>2014-05-31T13:26:08.000Z</time>
      </trkpt>
      <trkpt lat="48.70267" lon="1.78562">
        <ele>185.80000305176</ele>
        <time>2014-05-31T13:26:14.000Z</time>
      </trkpt>
      <trkpt lat="48.70258" lon="1.7856">
        <ele>185.39999389648</ele>
        <time>2014-05-31T13:26:20.000Z</time>
      </trkpt>
      <trkpt lat="48.70254" lon="1.78554">
        <ele>185.19999694824</ele>
        <time>2014-05-31T13:26:25.000Z</time>
      </trkpt>
      <trkpt lat="48.70249" lon="1.78557">
        <ele>185.19999694824</ele>
        <time>2014-05-31T13:26:29.000Z</time>
      </trkpt>
      <trkpt lat="48.70248" lon="1.78559">
        <ele>185.19999694824</ele>
        <time>2014-05-31T13:26:31.000Z</time>
      </trkpt>
      <trkpt lat="48.70242" lon="1.78565">
        <ele>185.19999694824</ele>
        <time>2014-05-31T13:26:37.000Z</time>
      </trkpt>
      <trkpt lat="48.70241" lon="1.78572">
        <ele>185.39999389648</ele>
        <time>2014-05-31T13:26:41.000Z</time>
      </trkpt>
      <trkpt lat="48.70239" lon="1.78578">
        <ele>185.39999389648</ele>
        <time>2014-05-31T13:26:46.000Z</time>
      </trkpt>
      <trkpt lat="48.70238" lon="1.78584">
        <ele>185.60000610352</ele>
        <time>2014-05-31T13:26:50.000Z</time>
      </trkpt>
      <trkpt lat="48.70238" lon="1.78591">
        <ele>185.80000305176</ele>
        <time>2014-05-31T13:26:54.000Z</time>
      </trkpt>
      <trkpt lat="48.70242" lon="1.786">
        <ele>186</ele>
        <time>2014-05-31T13:26:58.000Z</time>
      </trkpt>
      <trkpt lat="48.70241" lon="1.78609">
        <ele>186.19999694824</ele>
        <time>2014-05-31T13:27:03.000Z</time>
      </trkpt>
      <trkpt lat="48.7024" lon="1.78618">
        <ele>186.39999389648</ele>
        <time>2014-05-31T13:27:07.000Z</time>
      </trkpt>
      <trkpt lat="48.70241" lon="1.78631">
        <ele>186.60000610352</ele>
        <time>2014-05-31T13:27:13.000Z</time>
      </trkpt>
      <trkpt lat="48.70243" lon="1.78639">
        <ele>186.80000305176</ele>
        <time>2014-05-31T13:27:17.000Z</time>
      </trkpt>
      <trkpt lat="48.70244" lon="1.78648">
        <ele>186.80000305176</ele>
        <time>2014-05-31T13:27:22.000Z</time>
      </trkpt>
      <trkpt lat="48.70244" lon="1.78657">
        <ele>186.80000305176</ele>
        <time>2014-05-31T13:27:26.000Z</time>
      </trkpt>
      <trkpt lat="48.70244" lon="1.78663">
        <ele>186.60000610352</ele>
        <time>2014-05-31T13:27:31.000Z</time>
      </trkpt>
      <trkpt lat="48.70244" lon="1.78674">
        <ele>186.19999694824</ele>
        <time>2014-05-31T13:27:36.000Z</time>
      </trkpt>
      <trkpt lat="48.70243" lon="1.78678">
        <ele>186.19999694824</ele>
        <time>2014-05-31T13:27:39.000Z</time>
      </trkpt>
      <trkpt lat="48.70244" lon="1.78689">
        <ele>186</ele>
        <time>2014-05-31T13:27:43.000Z</time>
      </trkpt>
      <trkpt lat="48.70242" lon="1.78699">
        <ele>185.60000610352</ele>
        <time>2014-05-31T13:27:48.000Z</time>
      </trkpt>
      <trkpt lat="48.7024" lon="1.78705">
        <ele>185.39999389648</ele>
        <time>2014-05-31T13:27:52.000Z</time>
      </trkpt>
      <trkpt lat="48.70239" lon="1.78724">
        <ele>185.19999694824</ele>
        <time>2014-05-31T13:28:00.000Z</time>
      </trkpt>
      <trkpt lat="48.7024" lon="1.78733">
        <ele>185.19999694824</ele>
        <time>2014-05-31T13:28:04.000Z</time>
      </trkpt>
      <trkpt lat="48.70242" lon="1.78737">
        <ele>185.39999389648</ele>
        <time>2014-05-31T13:28:06.000Z</time>
      </trkpt>
      <trkpt lat="48.70242" lon="1.78742">
        <ele>185.39999389648</ele>
        <time>2014-05-31T13:28:08.000Z</time>
      </trkpt>
      <trkpt lat="48.70245" lon="1.78757">
        <ele>185.60000610352</ele>
        <time>2014-05-31T13:28:14.000Z</time>
      </trkpt>
      <trkpt lat="48.70245" lon="1.7877">
        <ele>185.80000305176</ele>
        <time>2014-05-31T13:28:20.000Z</time>
      </trkpt>
      <trkpt lat="48.70246" lon="1.78788">
        <ele>186</ele>
        <time>2014-05-31T13:28:26.000Z</time>
      </trkpt>
      <trkpt lat="48.70246" lon="1.78797">
        <ele>186.19999694824</ele>
        <time>2014-05-31T13:28:30.000Z</time>
      </trkpt>
      <trkpt lat="48.70247" lon="1.78805">
        <ele>186.39999389648</ele>
        <time>2014-05-31T13:28:34.000Z</time>
      </trkpt>
      <trkpt lat="48.70249" lon="1.78816">
        <ele>186.60000610352</ele>
        <time>2014-05-31T13:28:39.000Z</time>
      </trkpt>
      <trkpt lat="48.70249" lon="1.78818">
        <ele>186.60000610352</ele>
        <time>2014-05-31T13:28:40.000Z</time>
      </trkpt>
      <trkpt lat="48.7025" lon="1.78823">
        <ele>186.80000305176</ele>
        <time>2014-05-31T13:28:46.000Z</time>
      </trkpt>
      <trkpt lat="48.70248" lon="1.78828">
        <ele>186.80000305176</ele>
        <time>2014-05-31T13:28:50.000Z</time>
      </trkpt>
      <trkpt lat="48.70248" lon="1.78833">
        <ele>187</ele>
        <time>2014-05-31T13:28:53.000Z</time>
      </trkpt>
      <trkpt lat="48.70245" lon="1.78844">
        <ele>187.19999694824</ele>
        <time>2014-05-31T13:28:58.000Z</time>
      </trkpt>
      <trkpt lat="48.70244" lon="1.78851">
        <ele>187.39999389648</ele>
        <time>2014-05-31T13:29:01.000Z</time>
      </trkpt>
      <trkpt lat="48.70244" lon="1.78854">
        <ele>187.39999389648</ele>
        <time>2014-05-31T13:29:03.000Z</time>
      </trkpt>
      <trkpt lat="48.70246" lon="1.78863">
        <ele>187.80000305176</ele>
        <time>2014-05-31T13:29:08.000Z</time>
      </trkpt>
      <trkpt lat="48.70247" lon="1.78877">
        <ele>188</ele>
        <time>2014-05-31T13:29:15.000Z</time>
      </trkpt>
      <trkpt lat="48.70249" lon="1.78883">
        <ele>188.19999694824</ele>
        <time>2014-05-31T13:29:18.000Z</time>
      </trkpt>
      <trkpt lat="48.70253" lon="1.78895">
        <ele>188.80000305176</ele>
        <time>2014-05-31T13:29:24.000Z</time>
      </trkpt>
      <trkpt lat="48.70255" lon="1.78901">
        <ele>189</ele>
        <time>2014-05-31T13:29:27.000Z</time>
      </trkpt>
      <trkpt lat="48.70255" lon="1.78916">
        <ele>189.39999389648</ele>
        <time>2014-05-31T13:29:33.000Z</time>
      </trkpt>
      <trkpt lat="48.70256" lon="1.78925">
        <ele>189.39999389648</ele>
        <time>2014-05-31T13:29:37.000Z</time>
      </trkpt>
      <trkpt lat="48.70258" lon="1.7894">
        <ele>189.60000610352</ele>
        <time>2014-05-31T13:29:43.000Z</time>
      </trkpt>
      <trkpt lat="48.70258" lon="1.78954">
        <ele>189.80000305176</ele>
        <time>2014-05-31T13:29:49.000Z</time>
      </trkpt>
      <trkpt lat="48.7026" lon="1.78968">
        <ele>189.80000305176</ele>
        <time>2014-05-31T13:29:55.000Z</time>
      </trkpt>
      <trkpt lat="48.70261" lon="1.78989">
        <ele>190</ele>
        <time>2014-05-31T13:30:00.000Z</time>
      </trkpt>
      <trkpt lat="48.7026" lon="1.79003">
        <ele>190</ele>
        <time>2014-05-31T13:30:03.000Z</time>
      </trkpt>
      <trkpt lat="48.70258" lon="1.79027">
        <ele>190</ele>
        <time>2014-05-31T13:30:09.000Z</time>
      </trkpt>
      <trkpt lat="48.70261" lon="1.79052">
        <ele>190</ele>
        <time>2014-05-31T13:30:14.000Z</time>
      </trkpt>
      <trkpt lat="48.70262" lon="1.79067">
        <ele>190</ele>
        <time>2014-05-31T13:30:18.000Z</time>
      </trkpt>
      <trkpt lat="48.70261" lon="1.79078">
        <ele>190.19999694824</ele>
        <time>2014-05-31T13:30:23.000Z</time>
      </trkpt>
      <trkpt lat="48.70262" lon="1.7909">
        <ele>190.39999389648</ele>
        <time>2014-05-31T13:30:28.000Z</time>
      </trkpt>
      <trkpt lat="48.70263" lon="1.79098">
        <ele>190.60000610352</ele>
        <time>2014-05-31T13:30:32.000Z</time>
      </trkpt>
      <trkpt lat="48.70262" lon="1.79113">
        <ele>191</ele>
        <time>2014-05-31T13:30:39.000Z</time>
      </trkpt>
      <trkpt lat="48.70265" lon="1.79124">
        <ele>191.19999694824</ele>
        <time>2014-05-31T13:30:44.000Z</time>
      </trkpt>
      <trkpt lat="48.70266" lon="1.79127">
        <ele>191.39999389648</ele>
        <time>2014-05-31T13:30:46.000Z</time>
      </trkpt>
      <trkpt lat="48.70267" lon="1.79132">
        <ele>191.39999389648</ele>
        <time>2014-05-31T13:30:49.000Z</time>
      </trkpt>
      <trkpt lat="48.70267" lon="1.7914">
        <ele>191.60000610352</ele>
        <time>2014-05-31T13:30:53.000Z</time>
      </trkpt>
      <trkpt lat="48.70268" lon="1.79149">
        <ele>191.80000305176</ele>
        <time>2014-05-31T13:30:57.000Z</time>
      </trkpt>
      <trkpt lat="48.70267" lon="1.79157">
        <ele>191.80000305176</ele>
        <time>2014-05-31T13:31:01.000Z</time>
      </trkpt>
      <trkpt lat="48.70271" lon="1.7917">
        <ele>191.60000610352</ele>
        <time>2014-05-31T13:31:07.000Z</time>
      </trkpt>
      <trkpt lat="48.70274" lon="1.79184">
        <ele>191.19999694824</ele>
        <time>2014-05-31T13:31:13.000Z</time>
      </trkpt>
      <trkpt lat="48.70275" lon="1.79186">
        <ele>191.19999694824</ele>
        <time>2014-05-31T13:31:14.000Z</time>
      </trkpt>
      <trkpt lat="48.70273" lon="1.79203">
        <ele>190.80000305176</ele>
        <time>2014-05-31T13:31:22.000Z</time>
      </trkpt>
      <trkpt lat="48.70274" lon="1.79216">
        <ele>190.60000610352</ele>
        <time>2014-05-31T13:31:27.000Z</time>
      </trkpt>
      <trkpt lat="48.70271" lon="1.79226">
        <ele>190.39999389648</ele>
        <time>2014-05-31T13:31:32.000Z</time>
      </trkpt>
      <trkpt lat="48.70272" lon="1.79237">
        <ele>190</ele>
        <time>2014-05-31T13:31:37.000Z</time>
      </trkpt>
      <trkpt lat="48.70274" lon="1.79243">
        <ele>190</ele>
        <time>2014-05-31T13:31:40.000Z</time>
      </trkpt>
      <trkpt lat="48.70267" lon="1.79254">
        <ele>190.19999694824</ele>
        <time>2014-05-31T13:31:46.000Z</time>
      </trkpt>
      <trkpt lat="48.70265" lon="1.79257">
        <ele>190.19999694824</ele>
        <time>2014-05-31T13:31:48.000Z</time>
      </trkpt>
      <trkpt lat="48.70258" lon="1.79271">
        <ele>190.60000610352</ele>
        <time>2014-05-31T13:31:55.000Z</time>
      </trkpt>
      <trkpt lat="48.70253" lon="1.79273">
        <ele>190.60000610352</ele>
        <time>2014-05-31T13:31:58.000Z</time>
      </trkpt>
      <trkpt lat="48.70246" lon="1.7928">
        <ele>190.80000305176</ele>
        <time>2014-05-31T13:32:04.000Z</time>
      </trkpt>
      <trkpt lat="48.70236" lon="1.79284">
        <ele>191</ele>
        <time>2014-05-31T13:32:11.000Z</time>
      </trkpt>
      <trkpt lat="48.7023" lon="1.7929">
        <ele>190.80000305176</ele>
        <time>2014-05-31T13:32:17.000Z</time>
      </trkpt>
      <trkpt lat="48.70221" lon="1.79296">
        <ele>190.80000305176</ele>
        <time>2014-05-31T13:32:22.000Z</time>
      </trkpt>
      <trkpt lat="48.70217" lon="1.79304">
        <ele>190.60000610352</ele>
        <time>2014-05-31T13:32:27.000Z</time>
      </trkpt>
      <trkpt lat="48.70208" lon="1.79315">
        <ele>190.39999389648</ele>
        <time>2014-05-31T13:32:33.000Z</time>
      </trkpt>
      <trkpt lat="48.70206" lon="1.79318">
        <ele>190.19999694824</ele>
        <time>2014-05-31T13:32:35.000Z</time>
      </trkpt>
      <trkpt lat="48.70198" lon="1.79322">
        <ele>190.19999694824</ele>
        <time>2014-05-31T13:32:40.000Z</time>
      </trkpt>
      <trkpt lat="48.70193" lon="1.79329">
        <ele>190</ele>
        <time>2014-05-31T13:32:47.000Z</time>
      </trkpt>
      <trkpt lat="48.70185" lon="1.79333">
        <ele>189.80000305176</ele>
        <time>2014-05-31T13:32:52.000Z</time>
      </trkpt>
      <trkpt lat="48.70182" lon="1.79336">
        <ele>189.80000305176</ele>
        <time>2014-05-31T13:32:55.000Z</time>
      </trkpt>
      <trkpt lat="48.70172" lon="1.79345">
        <ele>189.60000610352</ele>
        <time>2014-05-31T13:33:02.000Z</time>
      </trkpt>
      <trkpt lat="48.70165" lon="1.79352">
        <ele>189.39999389648</ele>
        <time>2014-05-31T13:33:08.000Z</time>
      </trkpt>
      <trkpt lat="48.7016" lon="1.79359">
        <ele>189.19999694824</ele>
        <time>2014-05-31T13:33:12.000Z</time>
      </trkpt>
      <trkpt lat="48.70147" lon="1.79369">
        <ele>189</ele>
        <time>2014-05-31T13:33:21.000Z</time>
      </trkpt>
      <trkpt lat="48.70143" lon="1.79371">
        <ele>189</ele>
        <time>2014-05-31T13:33:24.000Z</time>
      </trkpt>
      <trkpt lat="48.70137" lon="1.79375">
        <ele>189</ele>
        <time>2014-05-31T13:33:28.000Z</time>
      </trkpt>
      <trkpt lat="48.70127" lon="1.79383">
        <ele>189</ele>
        <time>2014-05-31T13:33:36.000Z</time>
      </trkpt>
      <trkpt lat="48.70125" lon="1.79386">
        <ele>189</ele>
        <time>2014-05-31T13:33:38.000Z</time>
      </trkpt>
      <trkpt lat="48.70121" lon="1.79391">
        <ele>189</ele>
        <time>2014-05-31T13:33:42.000Z</time>
      </trkpt>
      <trkpt lat="48.70118" lon="1.79396">
        <ele>189</ele>
        <time>2014-05-31T13:33:45.000Z</time>
      </trkpt>
      <trkpt lat="48.70108" lon="1.79408">
        <ele>189</ele>
        <time>2014-05-31T13:33:52.000Z</time>
      </trkpt>
      <trkpt lat="48.70103" lon="1.79412">
        <ele>189</ele>
        <time>2014-05-31T13:33:56.000Z</time>
      </trkpt>
      <trkpt lat="48.70096" lon="1.79414">
        <ele>188.80000305176</ele>
        <time>2014-05-31T13:34:03.000Z</time>
      </trkpt>
      <trkpt lat="48.7009" lon="1.7942">
        <ele>188.60000610352</ele>
        <time>2014-05-31T13:34:08.000Z</time>
      </trkpt>
      <trkpt lat="48.70085" lon="1.79425">
        <ele>188.60000610352</ele>
        <time>2014-05-31T13:34:13.000Z</time>
      </trkpt>
      <trkpt lat="48.70083" lon="1.79429">
        <ele>188.39999389648</ele>
        <time>2014-05-31T13:34:16.000Z</time>
      </trkpt>
      <trkpt lat="48.70074" lon="1.79436">
        <ele>188.19999694824</ele>
        <time>2014-05-31T13:34:22.000Z</time>
      </trkpt>
      <trkpt lat="48.70062" lon="1.79442">
        <ele>188</ele>
        <time>2014-05-31T13:34:26.000Z</time>
      </trkpt>
      <trkpt lat="48.7005" lon="1.79451">
        <ele>188</ele>
        <time>2014-05-31T13:34:30.000Z</time>
      </trkpt>
      <trkpt lat="48.70032" lon="1.79469">
        <ele>188</ele>
        <time>2014-05-31T13:34:36.000Z</time>
      </trkpt>
      <trkpt lat="48.70024" lon="1.7948">
        <ele>188</ele>
        <time>2014-05-31T13:34:40.000Z</time>
      </trkpt>
      <trkpt lat="48.70011" lon="1.79493">
        <ele>187.60000610352</ele>
        <time>2014-05-31T13:34:44.000Z</time>
      </trkpt>
      <trkpt lat="48.69991" lon="1.79508">
        <ele>186.39999389648</ele>
        <time>2014-05-31T13:34:50.000Z</time>
      </trkpt>
      <trkpt lat="48.69978" lon="1.79526">
        <ele>186</ele>
        <time>2014-05-31T13:34:55.000Z</time>
      </trkpt>
      <trkpt lat="48.69962" lon="1.79536">
        <ele>185.39999389648</ele>
        <time>2014-05-31T13:35:00.000Z</time>
      </trkpt>
      <trkpt lat="48.69948" lon="1.79544">
        <ele>185</ele>
        <time>2014-05-31T13:35:04.000Z</time>
      </trkpt>
      <trkpt lat="48.69931" lon="1.7956">
        <ele>184.60000610352</ele>
        <time>2014-05-31T13:35:10.000Z</time>
      </trkpt>
      <trkpt lat="48.6992" lon="1.79569">
        <ele>184.60000610352</ele>
        <time>2014-05-31T13:35:14.000Z</time>
      </trkpt>
      <trkpt lat="48.69908" lon="1.79582">
        <ele>184.60000610352</ele>
        <time>2014-05-31T13:35:18.000Z</time>
      </trkpt>
      <trkpt lat="48.69891" lon="1.79595">
        <ele>184.80000305176</ele>
        <time>2014-05-31T13:35:23.000Z</time>
      </trkpt>
      <trkpt lat="48.69876" lon="1.79611">
        <ele>184.60000610352</ele>
        <time>2014-05-31T13:35:28.000Z</time>
      </trkpt>
      <trkpt lat="48.69852" lon="1.79632">
        <ele>183.80000305176</ele>
        <time>2014-05-31T13:35:36.000Z</time>
      </trkpt>
      <trkpt lat="48.69832" lon="1.79649">
        <ele>183.60000610352</ele>
        <time>2014-05-31T13:35:42.000Z</time>
      </trkpt>
      <trkpt lat="48.69816" lon="1.79664">
        <ele>183.80000305176</ele>
        <time>2014-05-31T13:35:47.000Z</time>
      </trkpt>
      <trkpt lat="48.69803" lon="1.79677">
        <ele>184</ele>
        <time>2014-05-31T13:35:51.000Z</time>
      </trkpt>
      <trkpt lat="48.69784" lon="1.79696">
        <ele>183.80000305176</ele>
        <time>2014-05-31T13:35:57.000Z</time>
      </trkpt>
      <trkpt lat="48.69762" lon="1.79714">
        <ele>183.60000610352</ele>
        <time>2014-05-31T13:36:04.000Z</time>
      </trkpt>
      <trkpt lat="48.69741" lon="1.79734">
        <ele>183.39999389648</ele>
        <time>2014-05-31T13:36:11.000Z</time>
      </trkpt>
      <trkpt lat="48.69725" lon="1.79748">
        <ele>183.19999694824</ele>
        <time>2014-05-31T13:36:16.000Z</time>
      </trkpt>
      <trkpt lat="48.69708" lon="1.79756">
        <ele>183</ele>
        <time>2014-05-31T13:36:21.000Z</time>
      </trkpt>
      <trkpt lat="48.69695" lon="1.79763">
        <ele>183.19999694824</ele>
        <time>2014-05-31T13:36:26.000Z</time>
      </trkpt>
      <trkpt lat="48.6968" lon="1.79771">
        <ele>183.80000305176</ele>
        <time>2014-05-31T13:36:31.000Z</time>
      </trkpt>
      <trkpt lat="48.69661" lon="1.7978">
        <ele>184.60000610352</ele>
        <time>2014-05-31T13:36:37.000Z</time>
      </trkpt>
      <trkpt lat="48.69643" lon="1.79788">
        <ele>185.19999694824</ele>
        <time>2014-05-31T13:36:42.000Z</time>
      </trkpt>
      <trkpt lat="48.69614" lon="1.79801">
        <ele>185.60000610352</ele>
        <time>2014-05-31T13:36:50.000Z</time>
      </trkpt>
      <trkpt lat="48.69597" lon="1.79809">
        <ele>186.19999694824</ele>
        <time>2014-05-31T13:36:56.000Z</time>
      </trkpt>
      <trkpt lat="48.69591" lon="1.79812">
        <ele>186.60000610352</ele>
        <time>2014-05-31T13:37:01.000Z</time>
      </trkpt>
      <trkpt lat="48.69582" lon="1.79817">
        <ele>187</ele>
        <time>2014-05-31T13:37:09.000Z</time>
      </trkpt>
      <trkpt lat="48.69581" lon="1.79817">
        <ele>187</ele>
        <time>2014-05-31T13:37:10.000Z</time>
      </trkpt>
      <trkpt lat="48.69577" lon="1.79817">
        <ele>187.19999694824</ele>
        <time>2014-05-31T13:37:14.000Z</time>
      </trkpt>
      <trkpt lat="48.69571" lon="1.79819">
        <ele>187.60000610352</ele>
        <time>2014-05-31T13:37:20.000Z</time>
      </trkpt>
      <trkpt lat="48.69563" lon="1.79822">
        <ele>188</ele>
        <time>2014-05-31T13:37:26.000Z</time>
      </trkpt>
      <trkpt lat="48.69552" lon="1.7983">
        <ele>188.60000610352</ele>
        <time>2014-05-31T13:37:31.000Z</time>
      </trkpt>
      <trkpt lat="48.69537" lon="1.79839">
        <ele>189.39999389648</ele>
        <time>2014-05-31T13:37:36.000Z</time>
      </trkpt>
      <trkpt lat="48.69523" lon="1.79844">
        <ele>189</ele>
        <time>2014-05-31T13:37:40.000Z</time>
      </trkpt>
      <trkpt lat="48.69503" lon="1.79857">
        <ele>187.80000305176</ele>
        <time>2014-05-31T13:37:45.000Z</time>
      </trkpt>
      <trkpt lat="48.6949" lon="1.79866">
        <ele>187.19999694824</ele>
        <time>2014-05-31T13:37:48.000Z</time>
      </trkpt>
      <trkpt lat="48.69483" lon="1.79872">
        <ele>186.80000305176</ele>
        <time>2014-05-31T13:37:50.000Z</time>
      </trkpt>
      <trkpt lat="48.69468" lon="1.79877">
        <ele>186.39999389648</ele>
        <time>2014-05-31T13:37:54.000Z</time>
      </trkpt>
      <trkpt lat="48.69451" lon="1.79876">
        <ele>186.19999694824</ele>
        <time>2014-05-31T13:37:59.000Z</time>
      </trkpt>
      <trkpt lat="48.69434" lon="1.79881">
        <ele>185.80000305176</ele>
        <time>2014-05-31T13:38:04.000Z</time>
      </trkpt>
      <trkpt lat="48.69418" lon="1.79888">
        <ele>185</ele>
        <time>2014-05-31T13:38:09.000Z</time>
      </trkpt>
      <trkpt lat="48.69404" lon="1.79897">
        <ele>183.80000305176</ele>
        <time>2014-05-31T13:38:14.000Z</time>
      </trkpt>
      <trkpt lat="48.69391" lon="1.79909">
        <ele>182.60000610352</ele>
        <time>2014-05-31T13:38:20.000Z</time>
      </trkpt>
      <trkpt lat="48.69375" lon="1.79912">
        <ele>181.80000305176</ele>
        <time>2014-05-31T13:38:25.000Z</time>
      </trkpt>
      <trkpt lat="48.69363" lon="1.79917">
        <ele>180.80000305176</ele>
        <time>2014-05-31T13:38:29.000Z</time>
      </trkpt>
      <trkpt lat="48.69347" lon="1.79926">
        <ele>180.39999389648</ele>
        <time>2014-05-31T13:38:33.000Z</time>
      </trkpt>
      <trkpt lat="48.69328" lon="1.79939">
        <ele>180.60000610352</ele>
        <time>2014-05-31T13:38:37.000Z</time>
      </trkpt>
      <trkpt lat="48.69308" lon="1.79948">
        <ele>181</ele>
        <time>2014-05-31T13:38:41.000Z</time>
      </trkpt>
      <trkpt lat="48.69272" lon="1.79957">
        <ele>182</ele>
        <time>2014-05-31T13:38:47.000Z</time>
      </trkpt>
      <trkpt lat="48.6926" lon="1.79964">
        <ele>182.60000610352</ele>
        <time>2014-05-31T13:38:49.000Z</time>
      </trkpt>
      <trkpt lat="48.69245" lon="1.79974">
        <ele>183.60000610352</ele>
        <time>2014-05-31T13:38:52.000Z</time>
      </trkpt>
      <trkpt lat="48.6922" lon="1.79982">
        <ele>185.39999389648</ele>
        <time>2014-05-31T13:38:57.000Z</time>
      </trkpt>
      <trkpt lat="48.6919" lon="1.79995">
        <ele>187.39999389648</ele>
        <time>2014-05-31T13:39:02.000Z</time>
      </trkpt>
      <trkpt lat="48.69169" lon="1.80004">
        <ele>187.60000610352</ele>
        <time>2014-05-31T13:39:06.000Z</time>
      </trkpt>
      <trkpt lat="48.69158" lon="1.8001">
        <ele>187.60000610352</ele>
        <time>2014-05-31T13:39:08.000Z</time>
      </trkpt>
      <trkpt lat="48.69141" lon="1.80017">
        <ele>187.60000610352</ele>
        <time>2014-05-31T13:39:11.000Z</time>
      </trkpt>
      <trkpt lat="48.6913" lon="1.80024">
        <ele>187.39999389648</ele>
        <time>2014-05-31T13:39:13.000Z</time>
      </trkpt>
      <trkpt lat="48.69113" lon="1.80031">
        <ele>187.39999389648</ele>
        <time>2014-05-31T13:39:16.000Z</time>
      </trkpt>
      <trkpt lat="48.69094" lon="1.80039">
        <ele>187.19999694824</ele>
        <time>2014-05-31T13:39:19.000Z</time>
      </trkpt>
      <trkpt lat="48.69069" lon="1.80054">
        <ele>186.60000610352</ele>
        <time>2014-05-31T13:39:24.000Z</time>
      </trkpt>
      <trkpt lat="48.69041" lon="1.80066">
        <ele>186.19999694824</ele>
        <time>2014-05-31T13:39:30.000Z</time>
      </trkpt>
      <trkpt lat="48.6903" lon="1.80072">
        <ele>186</ele>
        <time>2014-05-31T13:39:32.000Z</time>
      </trkpt>
      <trkpt lat="48.69013" lon="1.80078">
        <ele>186.39999389648</ele>
        <time>2014-05-31T13:39:35.000Z</time>
      </trkpt>
      <trkpt lat="48.68992" lon="1.80087">
        <ele>187.39999389648</ele>
        <time>2014-05-31T13:39:39.000Z</time>
      </trkpt>
      <trkpt lat="48.6896" lon="1.80103">
        <ele>188.80000305176</ele>
        <time>2014-05-31T13:39:45.000Z</time>
      </trkpt>
      <trkpt lat="48.68948" lon="1.80107">
        <ele>188.80000305176</ele>
        <time>2014-05-31T13:39:47.000Z</time>
      </trkpt>
      <trkpt lat="48.68932" lon="1.80115">
        <ele>189</ele>
        <time>2014-05-31T13:39:50.000Z</time>
      </trkpt>
      <trkpt lat="48.68913" lon="1.80124">
        <ele>189</ele>
        <time>2014-05-31T13:39:53.000Z</time>
      </trkpt>
      <trkpt lat="48.68887" lon="1.80138">
        <ele>188.60000610352</ele>
        <time>2014-05-31T13:39:57.000Z</time>
      </trkpt>
      <trkpt lat="48.68871" lon="1.80147">
        <ele>188.19999694824</ele>
        <time>2014-05-31T13:40:00.000Z</time>
      </trkpt>
      <trkpt lat="48.68839" lon="1.80162">
        <ele>187.80000305176</ele>
        <time>2014-05-31T13:40:07.000Z</time>
      </trkpt>
      <trkpt lat="48.68811" lon="1.80175">
        <ele>187.19999694824</ele>
        <time>2014-05-31T13:40:13.000Z</time>
      </trkpt>
      <trkpt lat="48.6879" lon="1.8018">
        <ele>186.80000305176</ele>
        <time>2014-05-31T13:40:18.000Z</time>
      </trkpt>
      <trkpt lat="48.68786" lon="1.80182">
        <ele>186.80000305176</ele>
        <time>2014-05-31T13:40:19.000Z</time>
      </trkpt>
      <trkpt lat="48.68764" lon="1.80195">
        <ele>187</ele>
        <time>2014-05-31T13:40:26.000Z</time>
      </trkpt>
      <trkpt lat="48.68748" lon="1.80202">
        <ele>187.60000610352</ele>
        <time>2014-05-31T13:40:30.000Z</time>
      </trkpt>
      <trkpt lat="48.68733" lon="1.80215">
        <ele>187.80000305176</ele>
        <time>2014-05-31T13:40:35.000Z</time>
      </trkpt>
      <trkpt lat="48.68715" lon="1.80221">
        <ele>187.60000610352</ele>
        <time>2014-05-31T13:40:40.000Z</time>
      </trkpt>
      <trkpt lat="48.68703" lon="1.80224">
        <ele>187.39999389648</ele>
        <time>2014-05-31T13:40:45.000Z</time>
      </trkpt>
      <trkpt lat="48.68691" lon="1.80229">
        <ele>187.19999694824</ele>
        <time>2014-05-31T13:40:50.000Z</time>
      </trkpt>
      <trkpt lat="48.68673" lon="1.80234">
        <ele>186.80000305176</ele>
        <time>2014-05-31T13:40:55.000Z</time>
      </trkpt>
      <trkpt lat="48.6866" lon="1.80239">
        <ele>186.39999389648</ele>
        <time>2014-05-31T13:41:01.000Z</time>
      </trkpt>
      <trkpt lat="48.68657" lon="1.80241">
        <ele>186.39999389648</ele>
        <time>2014-05-31T13:41:04.000Z</time>
      </trkpt>
      <trkpt lat="48.68646" lon="1.80243">
        <ele>186.19999694824</ele>
        <time>2014-05-31T13:41:12.000Z</time>
      </trkpt>
      <trkpt lat="48.68641" lon="1.80245">
        <ele>186.19999694824</ele>
        <time>2014-05-31T13:41:16.000Z</time>
      </trkpt>
      <trkpt lat="48.68634" lon="1.80252">
        <ele>186.19999694824</ele>
        <time>2014-05-31T13:41:21.000Z</time>
      </trkpt>
      <trkpt lat="48.68633" lon="1.80253">
        <ele>186.19999694824</ele>
        <time>2014-05-31T13:41:22.000Z</time>
      </trkpt>
      <trkpt lat="48.68629" lon="1.80257">
        <ele>186.19999694824</ele>
        <time>2014-05-31T13:41:25.000Z</time>
      </trkpt>
      <trkpt lat="48.6862" lon="1.80261">
        <ele>186.19999694824</ele>
        <time>2014-05-31T13:41:30.000Z</time>
      </trkpt>
      <trkpt lat="48.68605" lon="1.80261">
        <ele>185.39999389648</ele>
        <time>2014-05-31T13:41:39.000Z</time>
      </trkpt>
      <trkpt lat="48.68605" lon="1.80257">
        <ele>185.19999694824</ele>
        <time>2014-05-31T13:41:46.000Z</time>
      </trkpt>
      <trkpt lat="48.68599" lon="1.80263">
        <ele>185.39999389648</ele>
        <time>2014-05-31T13:42:06.000Z</time>
      </trkpt>
      <trkpt lat="48.68599" lon="1.80279">
        <ele>185.60000610352</ele>
        <time>2014-05-31T13:42:12.000Z</time>
      </trkpt>
      <trkpt lat="48.68602" lon="1.80286">
        <ele>185.60000610352</ele>
        <time>2014-05-31T13:42:16.000Z</time>
      </trkpt>
      <trkpt lat="48.68608" lon="1.80297">
        <ele>186</ele>
        <time>2014-05-31T13:42:22.000Z</time>
      </trkpt>
      <trkpt lat="48.68607" lon="1.80302">
        <ele>186</ele>
        <time>2014-05-31T13:42:24.000Z</time>
      </trkpt>
      <trkpt lat="48.68602" lon="1.80319">
        <ele>186</ele>
        <time>2014-05-31T13:42:32.000Z</time>
      </trkpt>
      <trkpt lat="48.686" lon="1.80325">
        <ele>186</ele>
        <time>2014-05-31T13:42:35.000Z</time>
      </trkpt>
      <trkpt lat="48.68599" lon="1.80338">
        <ele>185.60000610352</ele>
        <time>2014-05-31T13:42:41.000Z</time>
      </trkpt>
      <trkpt lat="48.68597" lon="1.80348">
        <ele>185.39999389648</ele>
        <time>2014-05-31T13:42:45.000Z</time>
      </trkpt>
      <trkpt lat="48.68596" lon="1.80351">
        <ele>185.19999694824</ele>
        <time>2014-05-31T13:42:49.000Z</time>
      </trkpt>
      <trkpt lat="48.68594" lon="1.8036">
        <ele>185</ele>
        <time>2014-05-31T13:42:59.000Z</time>
      </trkpt>
      <trkpt lat="48.68592" lon="1.8037">
        <ele>184.80000305176</ele>
        <time>2014-05-31T13:43:03.000Z</time>
      </trkpt>
      <trkpt lat="48.6859" lon="1.80389">
        <ele>184.39999389648</ele>
        <time>2014-05-31T13:43:12.000Z</time>
      </trkpt>
      <trkpt lat="48.68588" lon="1.80403">
        <ele>184.39999389648</ele>
        <time>2014-05-31T13:43:20.000Z</time>
      </trkpt>
      <trkpt lat="48.68588" lon="1.80409">
        <ele>184.39999389648</ele>
        <time>2014-05-31T13:43:24.000Z</time>
      </trkpt>
      <trkpt lat="48.68587" lon="1.8042">
        <ele>184.39999389648</ele>
        <time>2014-05-31T13:43:29.000Z</time>
      </trkpt>
      <trkpt lat="48.68587" lon="1.80426">
        <ele>184.39999389648</ele>
        <time>2014-05-31T13:43:33.000Z</time>
      </trkpt>
      <trkpt lat="48.68588" lon="1.80438">
        <ele>184.39999389648</ele>
        <time>2014-05-31T13:43:39.000Z</time>
      </trkpt>
      <trkpt lat="48.68589" lon="1.80449">
        <ele>184.39999389648</ele>
        <time>2014-05-31T13:43:46.000Z</time>
      </trkpt>
      <trkpt lat="48.68589" lon="1.80451">
        <ele>184.39999389648</ele>
        <time>2014-05-31T13:43:47.000Z</time>
      </trkpt>
      <trkpt lat="48.68587" lon="1.80464">
        <ele>184.39999389648</ele>
        <time>2014-05-31T13:43:54.000Z</time>
      </trkpt>
      <trkpt lat="48.68587" lon="1.80466">
        <ele>184.39999389648</ele>
        <time>2014-05-31T13:43:55.000Z</time>
      </trkpt>
      <trkpt lat="48.68584" lon="1.8048">
        <ele>184.19999694824</ele>
        <time>2014-05-31T13:44:02.000Z</time>
      </trkpt>
      <trkpt lat="48.68584" lon="1.80492">
        <ele>184</ele>
        <time>2014-05-31T13:44:08.000Z</time>
      </trkpt>
      <trkpt lat="48.68583" lon="1.80504">
        <ele>184.39999389648</ele>
        <time>2014-05-31T13:44:14.000Z</time>
      </trkpt>
      <trkpt lat="48.68583" lon="1.80513">
        <ele>184.60000610352</ele>
        <time>2014-05-31T13:44:18.000Z</time>
      </trkpt>
      <trkpt lat="48.68583" lon="1.80521">
        <ele>184.80000305176</ele>
        <time>2014-05-31T13:44:22.000Z</time>
      </trkpt>
      <trkpt lat="48.68582" lon="1.80536">
        <ele>185.19999694824</ele>
        <time>2014-05-31T13:44:29.000Z</time>
      </trkpt>
      <trkpt lat="48.68582" lon="1.80538">
        <ele>185.19999694824</ele>
        <time>2014-05-31T13:44:30.000Z</time>
      </trkpt>
      <trkpt lat="48.68585" lon="1.8055">
        <ele>185.39999389648</ele>
        <time>2014-05-31T13:44:37.000Z</time>
      </trkpt>
      <trkpt lat="48.68583" lon="1.8056">
        <ele>185.39999389648</ele>
        <time>2014-05-31T13:44:42.000Z</time>
      </trkpt>
      <trkpt lat="48.68581" lon="1.80575">
        <ele>184.80000305176</ele>
        <time>2014-05-31T13:44:50.000Z</time>
      </trkpt>
      <trkpt lat="48.6858" lon="1.80583">
        <ele>184.80000305176</ele>
        <time>2014-05-31T13:44:54.000Z</time>
      </trkpt>
      <trkpt lat="48.68579" lon="1.8059">
        <ele>184.60000610352</ele>
        <time>2014-05-31T13:45:00.000Z</time>
      </trkpt>
      <trkpt lat="48.68576" lon="1.80599">
        <ele>184.39999389648</ele>
        <time>2014-05-31T13:45:07.000Z</time>
      </trkpt>
      <trkpt lat="48.68576" lon="1.80602">
        <ele>184.39999389648</ele>
        <time>2014-05-31T13:45:08.000Z</time>
      </trkpt>
      <trkpt lat="48.68577" lon="1.80613">
        <ele>184.19999694824</ele>
        <time>2014-05-31T13:45:15.000Z</time>
      </trkpt>
      <trkpt lat="48.68578" lon="1.80626">
        <ele>184.19999694824</ele>
        <time>2014-05-31T13:45:21.000Z</time>
      </trkpt>
      <trkpt lat="48.68578" lon="1.80636">
        <ele>184</ele>
        <time>2014-05-31T13:45:26.000Z</time>
      </trkpt>
      <trkpt lat="48.68576" lon="1.80659">
        <ele>184</ele>
        <time>2014-05-31T13:45:36.000Z</time>
      </trkpt>
      <trkpt lat="48.68573" lon="1.80676">
        <ele>183.60000610352</ele>
        <time>2014-05-31T13:45:44.000Z</time>
      </trkpt>
      <trkpt lat="48.68571" lon="1.80689">
        <ele>183.39999389648</ele>
        <time>2014-05-31T13:45:50.000Z</time>
      </trkpt>
      <trkpt lat="48.68568" lon="1.80706">
        <ele>183.19999694824</ele>
        <time>2014-05-31T13:45:58.000Z</time>
      </trkpt>
      <trkpt lat="48.68564" lon="1.80723">
        <ele>182.39999389648</ele>
        <time>2014-05-31T13:46:06.000Z</time>
      </trkpt>
      <trkpt lat="48.68562" lon="1.80736">
        <ele>182</ele>
        <time>2014-05-31T13:46:11.000Z</time>
      </trkpt>
      <trkpt lat="48.68559" lon="1.80753">
        <ele>181.80000305176</ele>
        <time>2014-05-31T13:46:19.000Z</time>
      </trkpt>
      <trkpt lat="48.68559" lon="1.80769">
        <ele>181.60000610352</ele>
        <time>2014-05-31T13:46:27.000Z</time>
      </trkpt>
      <trkpt lat="48.68559" lon="1.80776">
        <ele>181.39999389648</ele>
        <time>2014-05-31T13:46:33.000Z</time>
      </trkpt>
      <trkpt lat="48.68561" lon="1.80783">
        <ele>181.39999389648</ele>
        <time>2014-05-31T13:46:39.000Z</time>
      </trkpt>
      <trkpt lat="48.68558" lon="1.80801">
        <ele>180.39999389648</ele>
        <time>2014-05-31T13:46:49.000Z</time>
      </trkpt>
      <trkpt lat="48.68556" lon="1.80815">
        <ele>179.80000305176</ele>
        <time>2014-05-31T13:46:56.000Z</time>
      </trkpt>
      <trkpt lat="48.68554" lon="1.80827">
        <ele>179.39999389648</ele>
        <time>2014-05-31T13:47:02.000Z</time>
      </trkpt>
      <trkpt lat="48.68555" lon="1.80836">
        <ele>179.39999389648</ele>
        <time>2014-05-31T13:47:07.000Z</time>
      </trkpt>
      <trkpt lat="48.68552" lon="1.80852">
        <ele>179</ele>
        <time>2014-05-31T13:47:15.000Z</time>
      </trkpt>
      <trkpt lat="48.6855" lon="1.80866">
        <ele>178.80000305176</ele>
        <time>2014-05-31T13:47:22.000Z</time>
      </trkpt>
      <trkpt lat="48.6855" lon="1.80882">
        <ele>178.80000305176</ele>
        <time>2014-05-31T13:47:29.000Z</time>
      </trkpt>
      <trkpt lat="48.68549" lon="1.80894">
        <ele>178.80000305176</ele>
        <time>2014-05-31T13:47:35.000Z</time>
      </trkpt>
      <trkpt lat="48.68549" lon="1.80907">
        <ele>178.80000305176</ele>
        <time>2014-05-31T13:47:41.000Z</time>
      </trkpt>
      <trkpt lat="48.68546" lon="1.80923">
        <ele>178.80000305176</ele>
        <time>2014-05-31T13:47:48.000Z</time>
      </trkpt>
      <trkpt lat="48.68544" lon="1.80943">
        <ele>178.60000610352</ele>
        <time>2014-05-31T13:47:57.000Z</time>
      </trkpt>
      <trkpt lat="48.68546" lon="1.80959">
        <ele>178.60000610352</ele>
        <time>2014-05-31T13:48:04.000Z</time>
      </trkpt>
      <trkpt lat="48.68543" lon="1.80974">
        <ele>178.19999694824</ele>
        <time>2014-05-31T13:48:12.000Z</time>
      </trkpt>
      <trkpt lat="48.68541" lon="1.80992">
        <ele>177.80000305176</ele>
        <time>2014-05-31T13:48:22.000Z</time>
      </trkpt>
      <trkpt lat="48.68537" lon="1.81006">
        <ele>177.39999389648</ele>
        <time>2014-05-31T13:48:29.000Z</time>
      </trkpt>
      <trkpt lat="48.68537" lon="1.81017">
        <ele>177.39999389648</ele>
        <time>2014-05-31T13:48:35.000Z</time>
      </trkpt>
      <trkpt lat="48.68536" lon="1.81031">
        <ele>177.39999389648</ele>
        <time>2014-05-31T13:48:42.000Z</time>
      </trkpt>
      <trkpt lat="48.68534" lon="1.81046">
        <ele>177.19999694824</ele>
        <time>2014-05-31T13:48:50.000Z</time>
      </trkpt>
      <trkpt lat="48.68533" lon="1.81051">
        <ele>177</ele>
        <time>2014-05-31T13:48:52.000Z</time>
      </trkpt>
      <trkpt lat="48.68532" lon="1.8106">
        <ele>177</ele>
        <time>2014-05-31T13:48:56.000Z</time>
      </trkpt>
      <trkpt lat="48.68533" lon="1.81071">
        <ele>177.19999694824</ele>
        <time>2014-05-31T13:49:03.000Z</time>
      </trkpt>
      <trkpt lat="48.68534" lon="1.81087">
        <ele>176.80000305176</ele>
        <time>2014-05-31T13:49:10.000Z</time>
      </trkpt>
      <trkpt lat="48.68532" lon="1.81099">
        <ele>176.80000305176</ele>
        <time>2014-05-31T13:49:16.000Z</time>
      </trkpt>
      <trkpt lat="48.68531" lon="1.81111">
        <ele>176.80000305176</ele>
        <time>2014-05-31T13:49:22.000Z</time>
      </trkpt>
      <trkpt lat="48.68532" lon="1.81113">
        <ele>176.80000305176</ele>
        <time>2014-05-31T13:49:23.000Z</time>
      </trkpt>
      <trkpt lat="48.68533" lon="1.81118">
        <ele>176.80000305176</ele>
        <time>2014-05-31T13:49:25.000Z</time>
      </trkpt>
      <trkpt lat="48.68536" lon="1.81134">
        <ele>177</ele>
        <time>2014-05-31T13:49:32.000Z</time>
      </trkpt>
      <trkpt lat="48.68535" lon="1.81136">
        <ele>177</ele>
        <time>2014-05-31T13:49:33.000Z</time>
      </trkpt>
      <trkpt lat="48.68532" lon="1.81154">
        <ele>176.80000305176</ele>
        <time>2014-05-31T13:49:41.000Z</time>
      </trkpt>
      <trkpt lat="48.68533" lon="1.81165">
        <ele>177.19999694824</ele>
        <time>2014-05-31T13:49:46.000Z</time>
      </trkpt>
      <trkpt lat="48.68528" lon="1.81177">
        <ele>177.60000610352</ele>
        <time>2014-05-31T13:49:53.000Z</time>
      </trkpt>
      <trkpt lat="48.68524" lon="1.81188">
        <ele>178</ele>
        <time>2014-05-31T13:49:59.000Z</time>
      </trkpt>
      <trkpt lat="48.68524" lon="1.81198">
        <ele>178.80000305176</ele>
        <time>2014-05-31T13:50:04.000Z</time>
      </trkpt>
      <trkpt lat="48.68523" lon="1.81205">
        <ele>179</ele>
        <time>2014-05-31T13:50:07.000Z</time>
      </trkpt>
      <trkpt lat="48.68522" lon="1.8122">
        <ele>180</ele>
        <time>2014-05-31T13:50:15.000Z</time>
      </trkpt>
      <trkpt lat="48.68522" lon="1.81228">
        <ele>180.39999389648</ele>
        <time>2014-05-31T13:50:19.000Z</time>
      </trkpt>
      <trkpt lat="48.68521" lon="1.8124">
        <ele>181</ele>
        <time>2014-05-31T13:50:25.000Z</time>
      </trkpt>
      <trkpt lat="48.68519" lon="1.81246">
        <ele>181.19999694824</ele>
        <time>2014-05-31T13:50:28.000Z</time>
      </trkpt>
      <trkpt lat="48.68512" lon="1.8126">
        <ele>181.39999389648</ele>
        <time>2014-05-31T13:50:36.000Z</time>
      </trkpt>
      <trkpt lat="48.6851" lon="1.81263">
        <ele>181.39999389648</ele>
        <time>2014-05-31T13:50:38.000Z</time>
      </trkpt>
      <trkpt lat="48.68502" lon="1.81263">
        <ele>181.39999389648</ele>
        <time>2014-05-31T13:50:44.000Z</time>
      </trkpt>
      <trkpt lat="48.68494" lon="1.81257">
        <ele>181.19999694824</ele>
        <time>2014-05-31T13:50:50.000Z</time>
      </trkpt>
      <trkpt lat="48.6849" lon="1.81251">
        <ele>181</ele>
        <time>2014-05-31T13:50:55.000Z</time>
      </trkpt>
      <trkpt lat="48.68485" lon="1.81235">
        <ele>180.39999389648</ele>
        <time>2014-05-31T13:51:03.000Z</time>
      </trkpt>
      <trkpt lat="48.68482" lon="1.8122">
        <ele>179.80000305176</ele>
        <time>2014-05-31T13:51:10.000Z</time>
      </trkpt>
      <trkpt lat="48.6848" lon="1.81214">
        <ele>179.60000610352</ele>
        <time>2014-05-31T13:51:14.000Z</time>
      </trkpt>
      <trkpt lat="48.68476" lon="1.81206">
        <ele>179.19999694824</ele>
        <time>2014-05-31T13:51:19.000Z</time>
      </trkpt>
      <trkpt lat="48.68465" lon="1.81196">
        <ele>178.80000305176</ele>
        <time>2014-05-31T13:51:26.000Z</time>
      </trkpt>
      <trkpt lat="48.68456" lon="1.81192">
        <ele>178.60000610352</ele>
        <time>2014-05-31T13:51:31.000Z</time>
      </trkpt>
      <trkpt lat="48.68451" lon="1.81196">
        <ele>178.60000610352</ele>
        <time>2014-05-31T13:51:34.000Z</time>
      </trkpt>
      <trkpt lat="48.68443" lon="1.81206">
        <ele>178.80000305176</ele>
        <time>2014-05-31T13:51:42.000Z</time>
      </trkpt>
      <trkpt lat="48.68441" lon="1.81207">
        <ele>179</ele>
        <time>2014-05-31T13:51:46.000Z</time>
      </trkpt>
      <trkpt lat="48.68428" lon="1.81213">
        <ele>179</ele>
        <time>2014-05-31T13:51:59.000Z</time>
      </trkpt>
      <trkpt lat="48.68428" lon="1.81213">
        <ele>179</ele>
        <time>2014-05-31T13:52:00.000Z</time>
      </trkpt>
      <trkpt lat="48.68421" lon="1.81216">
        <ele>179.19999694824</ele>
        <time>2014-05-31T13:52:07.000Z</time>
      </trkpt>
      <trkpt lat="48.6841" lon="1.81223">
        <ele>179.60000610352</ele>
        <time>2014-05-31T13:52:15.000Z</time>
      </trkpt>
      <trkpt lat="48.68401" lon="1.8123">
        <ele>180</ele>
        <time>2014-05-31T13:52:20.000Z</time>
      </trkpt>
      <trkpt lat="48.68396" lon="1.8123">
        <ele>180</ele>
        <time>2014-05-31T13:52:24.000Z</time>
      </trkpt>
      <trkpt lat="48.68387" lon="1.81234">
        <ele>180.39999389648</ele>
        <time>2014-05-31T13:52:31.000Z</time>
      </trkpt>
      <trkpt lat="48.6838" lon="1.81243">
        <ele>180.80000305176</ele>
        <time>2014-05-31T13:52:38.000Z</time>
      </trkpt>
      <trkpt lat="48.68371" lon="1.81252">
        <ele>181.19999694824</ele>
        <time>2014-05-31T13:52:46.000Z</time>
      </trkpt>
      <trkpt lat="48.68366" lon="1.81244">
        <ele>181</ele>
        <time>2014-05-31T13:52:53.000Z</time>
      </trkpt>
      <trkpt lat="48.68365" lon="1.81243">
        <ele>181</ele>
        <time>2014-05-31T13:52:54.000Z</time>
      </trkpt>
      <trkpt lat="48.68364" lon="1.81237">
        <ele>180.80000305176</ele>
        <time>2014-05-31T13:53:00.000Z</time>
      </trkpt>
      <trkpt lat="48.68359" lon="1.81232">
        <ele>180.60000610352</ele>
        <time>2014-05-31T13:53:07.000Z</time>
      </trkpt>
      <trkpt lat="48.68353" lon="1.81231">
        <ele>180.60000610352</ele>
        <time>2014-05-31T13:53:12.000Z</time>
      </trkpt>
      <trkpt lat="48.68349" lon="1.81231">
        <ele>180.60000610352</ele>
        <time>2014-05-31T13:53:15.000Z</time>
      </trkpt>
      <trkpt lat="48.68341" lon="1.81232">
        <ele>180.19999694824</ele>
        <time>2014-05-31T13:53:22.000Z</time>
      </trkpt>
      <trkpt lat="48.6834" lon="1.81233">
        <ele>180.19999694824</ele>
        <time>2014-05-31T13:53:23.000Z</time>
      </trkpt>
      <trkpt lat="48.6833" lon="1.81241">
        <ele>180</ele>
        <time>2014-05-31T13:53:31.000Z</time>
      </trkpt>
      <trkpt lat="48.68328" lon="1.81243">
        <ele>179.80000305176</ele>
        <time>2014-05-31T13:53:32.000Z</time>
      </trkpt>
      <trkpt lat="48.68321" lon="1.81247">
        <ele>179.39999389648</ele>
        <time>2014-05-31T13:53:36.000Z</time>
      </trkpt>
      <trkpt lat="48.6831" lon="1.81252">
        <ele>179</ele>
        <time>2014-05-31T13:53:43.000Z</time>
      </trkpt>
      <trkpt lat="48.68303" lon="1.81252">
        <ele>178.60000610352</ele>
        <time>2014-05-31T13:53:48.000Z</time>
      </trkpt>
      <trkpt lat="48.68298" lon="1.81253">
        <ele>178.39999389648</ele>
        <time>2014-05-31T13:53:52.000Z</time>
      </trkpt>
      <trkpt lat="48.68293" lon="1.81257">
        <ele>178.19999694824</ele>
        <time>2014-05-31T13:53:56.000Z</time>
      </trkpt>
      <trkpt lat="48.68283" lon="1.81263">
        <ele>178.19999694824</ele>
        <time>2014-05-31T13:54:02.000Z</time>
      </trkpt>
      <trkpt lat="48.68273" lon="1.8127">
        <ele>178.60000610352</ele>
        <time>2014-05-31T13:54:09.000Z</time>
      </trkpt>
      <trkpt lat="48.68267" lon="1.81271">
        <ele>178.60000610352</ele>
        <time>2014-05-31T13:54:15.000Z</time>
      </trkpt>
      <trkpt lat="48.68261" lon="1.81269">
        <ele>178.39999389648</ele>
        <time>2014-05-31T13:54:19.000Z</time>
      </trkpt>
      <trkpt lat="48.68253" lon="1.81269">
        <ele>178.19999694824</ele>
        <time>2014-05-31T13:54:26.000Z</time>
      </trkpt>
      <trkpt lat="48.6825" lon="1.81268">
        <ele>178.19999694824</ele>
        <time>2014-05-31T13:54:29.000Z</time>
      </trkpt>
      <trkpt lat="48.68243" lon="1.81271">
        <ele>178.19999694824</ele>
        <time>2014-05-31T13:54:35.000Z</time>
      </trkpt>
      <trkpt lat="48.68239" lon="1.81271">
        <ele>178.19999694824</ele>
        <time>2014-05-31T13:54:39.000Z</time>
      </trkpt>
      <trkpt lat="48.68233" lon="1.8127">
        <ele>178</ele>
        <time>2014-05-31T13:54:43.000Z</time>
      </trkpt>
      <trkpt lat="48.6823" lon="1.81268">
        <ele>178</ele>
        <time>2014-05-31T13:54:46.000Z</time>
      </trkpt>
      <trkpt lat="48.68222" lon="1.81266">
        <ele>177.80000305176</ele>
        <time>2014-05-31T13:54:52.000Z</time>
      </trkpt>
      <trkpt lat="48.68208" lon="1.81266">
        <ele>177.60000610352</ele>
        <time>2014-05-31T13:55:00.000Z</time>
      </trkpt>
      <trkpt lat="48.68197" lon="1.81273">
        <ele>177.60000610352</ele>
        <time>2014-05-31T13:55:07.000Z</time>
      </trkpt>
      <trkpt lat="48.68187" lon="1.81281">
        <ele>177.60000610352</ele>
        <time>2014-05-31T13:55:13.000Z</time>
      </trkpt>
      <trkpt lat="48.68179" lon="1.81286">
        <ele>177.60000610352</ele>
        <time>2014-05-31T13:55:18.000Z</time>
      </trkpt>
      <trkpt lat="48.68172" lon="1.81286">
        <ele>177.60000610352</ele>
        <time>2014-05-31T13:55:23.000Z</time>
      </trkpt>
      <trkpt lat="48.6816" lon="1.81291">
        <ele>177.60000610352</ele>
        <time>2014-05-31T13:55:30.000Z</time>
      </trkpt>
      <trkpt lat="48.68149" lon="1.81294">
        <ele>177.39999389648</ele>
        <time>2014-05-31T13:55:38.000Z</time>
      </trkpt>
      <trkpt lat="48.68146" lon="1.81296">
        <ele>177.39999389648</ele>
        <time>2014-05-31T13:55:42.000Z</time>
      </trkpt>
      <trkpt lat="48.68135" lon="1.81292">
        <ele>177</ele>
        <time>2014-05-31T13:55:48.000Z</time>
      </trkpt>
      <trkpt lat="48.68127" lon="1.81292">
        <ele>176.80000305176</ele>
        <time>2014-05-31T13:55:53.000Z</time>
      </trkpt>
      <trkpt lat="48.6812" lon="1.81294">
        <ele>176.80000305176</ele>
        <time>2014-05-31T13:55:59.000Z</time>
      </trkpt>
      <trkpt lat="48.68116" lon="1.81297">
        <ele>176.80000305176</ele>
        <time>2014-05-31T13:56:02.000Z</time>
      </trkpt>
      <trkpt lat="48.68104" lon="1.81303">
        <ele>176.60000610352</ele>
        <time>2014-05-31T13:56:12.000Z</time>
      </trkpt>
      <trkpt lat="48.68097" lon="1.81306">
        <ele>176.60000610352</ele>
        <time>2014-05-31T13:56:18.000Z</time>
      </trkpt>
      <trkpt lat="48.68095" lon="1.81306">
        <ele>176.60000610352</ele>
        <time>2014-05-31T13:56:19.000Z</time>
      </trkpt>
      <trkpt lat="48.68087" lon="1.813">
        <ele>176.39999389648</ele>
        <time>2014-05-31T13:56:27.000Z</time>
      </trkpt>
      <trkpt lat="48.68083" lon="1.81298">
        <ele>176.39999389648</ele>
        <time>2014-05-31T13:56:31.000Z</time>
      </trkpt>
      <trkpt lat="48.68076" lon="1.81302">
        <ele>176.60000610352</ele>
        <time>2014-05-31T13:56:36.000Z</time>
      </trkpt>
      <trkpt lat="48.68068" lon="1.81306">
        <ele>176.60000610352</ele>
        <time>2014-05-31T13:56:40.000Z</time>
      </trkpt>
      <trkpt lat="48.68064" lon="1.81306">
        <ele>176.60000610352</ele>
        <time>2014-05-31T13:56:43.000Z</time>
      </trkpt>
      <trkpt lat="48.68061" lon="1.81305">
        <ele>176.60000610352</ele>
        <time>2014-05-31T13:56:45.000Z</time>
      </trkpt>
      <trkpt lat="48.68054" lon="1.81306">
        <ele>176.60000610352</ele>
        <time>2014-05-31T13:56:49.000Z</time>
      </trkpt>
      <trkpt lat="48.68044" lon="1.81307">
        <ele>176.60000610352</ele>
        <time>2014-05-31T13:56:56.000Z</time>
      </trkpt>
      <trkpt lat="48.68043" lon="1.81306">
        <ele>176.60000610352</ele>
        <time>2014-05-31T13:56:58.000Z</time>
      </trkpt>
      <trkpt lat="48.6804" lon="1.81307">
        <ele>176.60000610352</ele>
        <time>2014-05-31T13:57:00.000Z</time>
      </trkpt>
      <trkpt lat="48.68033" lon="1.81304">
        <ele>176.60000610352</ele>
        <time>2014-05-31T13:57:07.000Z</time>
      </trkpt>
      <trkpt lat="48.68025" lon="1.81298">
        <ele>176.39999389648</ele>
        <time>2014-05-31T13:57:13.000Z</time>
      </trkpt>
      <trkpt lat="48.68016" lon="1.81293">
        <ele>176.39999389648</ele>
        <time>2014-05-31T13:57:21.000Z</time>
      </trkpt>
      <trkpt lat="48.68006" lon="1.81293">
        <ele>176.60000610352</ele>
        <time>2014-05-31T13:57:27.000Z</time>
      </trkpt>
      <trkpt lat="48.67998" lon="1.81292">
        <ele>176.80000305176</ele>
        <time>2014-05-31T13:57:33.000Z</time>
      </trkpt>
      <trkpt lat="48.67988" lon="1.81291">
        <ele>177</ele>
        <time>2014-05-31T13:57:39.000Z</time>
      </trkpt>
      <trkpt lat="48.67981" lon="1.8129">
        <ele>177.39999389648</ele>
        <time>2014-05-31T13:57:44.000Z</time>
      </trkpt>
      <trkpt lat="48.67975" lon="1.81284">
        <ele>177.39999389648</ele>
        <time>2014-05-31T13:57:49.000Z</time>
      </trkpt>
      <trkpt lat="48.67976" lon="1.81272">
        <ele>176.80000305176</ele>
        <time>2014-05-31T13:57:54.000Z</time>
      </trkpt>
      <trkpt lat="48.67979" lon="1.81256">
        <ele>176.39999389648</ele>
        <time>2014-05-31T13:58:00.000Z</time>
      </trkpt>
      <trkpt lat="48.67985" lon="1.81241">
        <ele>175.80000305176</ele>
        <time>2014-05-31T13:58:07.000Z</time>
      </trkpt>
      <trkpt lat="48.67987" lon="1.81227">
        <ele>175.39999389648</ele>
        <time>2014-05-31T13:58:13.000Z</time>
      </trkpt>
      <trkpt lat="48.67992" lon="1.81212">
        <ele>175</ele>
        <time>2014-05-31T13:58:20.000Z</time>
      </trkpt>
      <trkpt lat="48.67993" lon="1.81198">
        <ele>174.80000305176</ele>
        <time>2014-05-31T13:58:28.000Z</time>
      </trkpt>
      <trkpt lat="48.67984" lon="1.81191">
        <ele>174.80000305176</ele>
        <time>2014-05-31T13:58:37.000Z</time>
      </trkpt>
      <trkpt lat="48.67977" lon="1.81189">
        <ele>175</ele>
        <time>2014-05-31T13:58:42.000Z</time>
      </trkpt>
      <trkpt lat="48.67966" lon="1.81188">
        <ele>175</ele>
        <time>2014-05-31T13:58:49.000Z</time>
      </trkpt>
      <trkpt lat="48.67963" lon="1.81187">
        <ele>175.19999694824</ele>
        <time>2014-05-31T13:58:51.000Z</time>
      </trkpt>
      <trkpt lat="48.67951" lon="1.81183">
        <ele>175.19999694824</ele>
        <time>2014-05-31T13:58:59.000Z</time>
      </trkpt>
      <trkpt lat="48.67946" lon="1.81183">
        <ele>175.39999389648</ele>
        <time>2014-05-31T13:59:03.000Z</time>
      </trkpt>
      <trkpt lat="48.6794" lon="1.81184">
        <ele>175.60000610352</ele>
        <time>2014-05-31T13:59:08.000Z</time>
      </trkpt>
      <trkpt lat="48.67937" lon="1.81183">
        <ele>175.60000610352</ele>
        <time>2014-05-31T13:59:11.000Z</time>
      </trkpt>
      <trkpt lat="48.67931" lon="1.81178">
        <ele>175.80000305176</ele>
        <time>2014-05-31T13:59:17.000Z</time>
      </trkpt>
      <trkpt lat="48.67923" lon="1.8117">
        <ele>176</ele>
        <time>2014-05-31T13:59:23.000Z</time>
      </trkpt>
      <trkpt lat="48.6792" lon="1.81169">
        <ele>176.19999694824</ele>
        <time>2014-05-31T13:59:25.000Z</time>
      </trkpt>
      <trkpt lat="48.67915" lon="1.8117">
        <ele>176.39999389648</ele>
        <time>2014-05-31T13:59:28.000Z</time>
      </trkpt>
      <trkpt lat="48.67906" lon="1.81167">
        <ele>176.80000305176</ele>
        <time>2014-05-31T13:59:34.000Z</time>
      </trkpt>
      <trkpt lat="48.67898" lon="1.81163">
        <ele>177</ele>
        <time>2014-05-31T13:59:40.000Z</time>
      </trkpt>
      <trkpt lat="48.67896" lon="1.81163">
        <ele>177.19999694824</ele>
        <time>2014-05-31T13:59:41.000Z</time>
      </trkpt>
      <trkpt lat="48.67884" lon="1.8116">
        <ele>177.60000610352</ele>
        <time>2014-05-31T13:59:47.000Z</time>
      </trkpt>
      <trkpt lat="48.67876" lon="1.81153">
        <ele>178</ele>
        <time>2014-05-31T13:59:53.000Z</time>
      </trkpt>
      <trkpt lat="48.67872" lon="1.81151">
        <ele>178.19999694824</ele>
        <time>2014-05-31T13:59:56.000Z</time>
      </trkpt>
      <trkpt lat="48.67872" lon="1.81146">
        <ele>178.60000610352</ele>
        <time>2014-05-31T13:59:58.000Z</time>
      </trkpt>
      <trkpt lat="48.67872" lon="1.81128">
        <ele>179.39999389648</ele>
        <time>2014-05-31T14:00:05.000Z</time>
      </trkpt>
      <trkpt lat="48.67874" lon="1.81117">
        <ele>179.80000305176</ele>
        <time>2014-05-31T14:00:10.000Z</time>
      </trkpt>
      <trkpt lat="48.67877" lon="1.81101">
        <ele>180.39999389648</ele>
        <time>2014-05-31T14:00:18.000Z</time>
      </trkpt>
      <trkpt lat="48.67882" lon="1.81091">
        <ele>180.19999694824</ele>
        <time>2014-05-31T14:00:23.000Z</time>
      </trkpt>
      <trkpt lat="48.67884" lon="1.8108">
        <ele>180</ele>
        <time>2014-05-31T14:00:29.000Z</time>
      </trkpt>
      <trkpt lat="48.67881" lon="1.81068">
        <ele>180.19999694824</ele>
        <time>2014-05-31T14:00:35.000Z</time>
      </trkpt>
      <trkpt lat="48.6788" lon="1.8106">
        <ele>180.19999694824</ele>
        <time>2014-05-31T14:00:39.000Z</time>
      </trkpt>
      <trkpt lat="48.67878" lon="1.81054">
        <ele>180.39999389648</ele>
        <time>2014-05-31T14:00:42.000Z</time>
      </trkpt>
      <trkpt lat="48.67876" lon="1.81041">
        <ele>180.39999389648</ele>
        <time>2014-05-31T14:00:48.000Z</time>
      </trkpt>
      <trkpt lat="48.67874" lon="1.8103">
        <ele>180.60000610352</ele>
        <time>2014-05-31T14:00:53.000Z</time>
      </trkpt>
      <trkpt lat="48.67876" lon="1.81007">
        <ele>180</ele>
        <time>2014-05-31T14:01:03.000Z</time>
      </trkpt>
      <trkpt lat="48.6788" lon="1.80995">
        <ele>179.19999694824</ele>
        <time>2014-05-31T14:01:09.000Z</time>
      </trkpt>
      <trkpt lat="48.67885" lon="1.80984">
        <ele>178.60000610352</ele>
        <time>2014-05-31T14:01:15.000Z</time>
      </trkpt>
      <trkpt lat="48.67887" lon="1.80974">
        <ele>178.39999389648</ele>
        <time>2014-05-31T14:01:21.000Z</time>
      </trkpt>
      <trkpt lat="48.67883" lon="1.80974">
        <ele>178.80000305176</ele>
        <time>2014-05-31T14:01:24.000Z</time>
      </trkpt>
      <trkpt lat="48.6788" lon="1.80976">
        <ele>179</ele>
        <time>2014-05-31T14:01:28.000Z</time>
      </trkpt>
      <trkpt lat="48.67879" lon="1.80977">
        <ele>179.19999694824</ele>
        <time>2014-05-31T14:01:31.000Z</time>
      </trkpt>
      <trkpt lat="48.67876" lon="1.80978">
        <ele>179.39999389648</ele>
        <time>2014-05-31T14:01:37.000Z</time>
      </trkpt>
      <trkpt lat="48.67876" lon="1.80976">
        <ele>179.39999389648</ele>
        <time>2014-05-31T14:01:41.000Z</time>
      </trkpt>
      <trkpt lat="48.67873" lon="1.80969">
        <ele>179.80000305176</ele>
        <time>2014-05-31T14:01:47.000Z</time>
      </trkpt>
      <trkpt lat="48.67873" lon="1.80968">
        <ele>179.80000305176</ele>
        <time>2014-05-31T14:01:48.000Z</time>
      </trkpt>
      <trkpt lat="48.67873" lon="1.8097">
        <ele>179.80000305176</ele>
        <time>2014-05-31T14:01:51.000Z</time>
      </trkpt>
      <trkpt lat="48.67871" lon="1.80971">
        <ele>180</ele>
        <time>2014-05-31T14:01:54.000Z</time>
      </trkpt>
      <trkpt lat="48.67871" lon="1.8097">
        <ele>180</ele>
        <time>2014-05-31T14:01:55.000Z</time>
      </trkpt>
      <trkpt lat="48.67867" lon="1.80961">
        <ele>180.60000610352</ele>
        <time>2014-05-31T14:02:04.000Z</time>
      </trkpt>
      <trkpt lat="48.67861" lon="1.80956">
        <ele>181.19999694824</ele>
        <time>2014-05-31T14:02:08.000Z</time>
      </trkpt>
      <trkpt lat="48.67862" lon="1.80946">
        <ele>181</ele>
        <time>2014-05-31T14:02:14.000Z</time>
      </trkpt>
      <trkpt lat="48.67863" lon="1.80942">
        <ele>180.80000305176</ele>
        <time>2014-05-31T14:02:16.000Z</time>
      </trkpt>
      <trkpt lat="48.67865" lon="1.80923">
        <ele>180.60000610352</ele>
        <time>2014-05-31T14:02:23.000Z</time>
      </trkpt>
      <trkpt lat="48.67866" lon="1.80909">
        <ele>180.80000305176</ele>
        <time>2014-05-31T14:02:29.000Z</time>
      </trkpt>
      <trkpt lat="48.67868" lon="1.80896">
        <ele>180.39999389648</ele>
        <time>2014-05-31T14:02:35.000Z</time>
      </trkpt>
      <trkpt lat="48.67869" lon="1.80886">
        <ele>180</ele>
        <time>2014-05-31T14:02:40.000Z</time>
      </trkpt>
      <trkpt lat="48.6787" lon="1.80881">
        <ele>179.80000305176</ele>
        <time>2014-05-31T14:02:42.000Z</time>
      </trkpt>
      <trkpt lat="48.67875" lon="1.80867">
        <ele>178.80000305176</ele>
        <time>2014-05-31T14:02:47.000Z</time>
      </trkpt>
      <trkpt lat="48.67879" lon="1.80853">
        <ele>178</ele>
        <time>2014-05-31T14:02:53.000Z</time>
      </trkpt>
      <trkpt lat="48.67882" lon="1.80841">
        <ele>177.39999389648</ele>
        <time>2014-05-31T14:02:58.000Z</time>
      </trkpt>
      <trkpt lat="48.67884" lon="1.80827">
        <ele>177.19999694824</ele>
        <time>2014-05-31T14:03:04.000Z</time>
      </trkpt>
      <trkpt lat="48.67882" lon="1.80816">
        <ele>177.19999694824</ele>
        <time>2014-05-31T14:03:08.000Z</time>
      </trkpt>
      <trkpt lat="48.67888" lon="1.80799">
        <ele>177</ele>
        <time>2014-05-31T14:03:15.000Z</time>
      </trkpt>
      <trkpt lat="48.67892" lon="1.80786">
        <ele>176.60000610352</ele>
        <time>2014-05-31T14:03:22.000Z</time>
      </trkpt>
      <trkpt lat="48.67896" lon="1.80771">
        <ele>176.80000305176</ele>
        <time>2014-05-31T14:03:29.000Z</time>
      </trkpt>
      <trkpt lat="48.67899" lon="1.80758">
        <ele>177.19999694824</ele>
        <time>2014-05-31T14:03:35.000Z</time>
      </trkpt>
      <trkpt lat="48.67901" lon="1.80753">
        <ele>177.39999389648</ele>
        <time>2014-05-31T14:03:37.000Z</time>
      </trkpt>
      <trkpt lat="48.67904" lon="1.80741">
        <ele>177.60000610352</ele>
        <time>2014-05-31T14:03:42.000Z</time>
      </trkpt>
      <trkpt lat="48.67907" lon="1.8073">
        <ele>177.80000305176</ele>
        <time>2014-05-31T14:03:47.000Z</time>
      </trkpt>
      <trkpt lat="48.67908" lon="1.80727">
        <ele>177.80000305176</ele>
        <time>2014-05-31T14:03:49.000Z</time>
      </trkpt>
      <trkpt lat="48.67916" lon="1.80719">
        <ele>177.80000305176</ele>
        <time>2014-05-31T14:03:54.000Z</time>
      </trkpt>
      <trkpt lat="48.67919" lon="1.80715">
        <ele>178</ele>
        <time>2014-05-31T14:03:57.000Z</time>
      </trkpt>
      <trkpt lat="48.67924" lon="1.80707">
        <ele>178.39999389648</ele>
        <time>2014-05-31T14:04:02.000Z</time>
      </trkpt>
      <trkpt lat="48.67926" lon="1.80706">
        <ele>178.39999389648</ele>
        <time>2014-05-31T14:04:03.000Z</time>
      </trkpt>
      <trkpt lat="48.67933" lon="1.80694">
        <ele>179.19999694824</ele>
        <time>2014-05-31T14:04:09.000Z</time>
      </trkpt>
      <trkpt lat="48.67938" lon="1.80682">
        <ele>179.60000610352</ele>
        <time>2014-05-31T14:04:15.000Z</time>
      </trkpt>
      <trkpt lat="48.67939" lon="1.8068">
        <ele>179.80000305176</ele>
        <time>2014-05-31T14:04:16.000Z</time>
      </trkpt>
      <trkpt lat="48.67944" lon="1.80668">
        <ele>180</ele>
        <time>2014-05-31T14:04:22.000Z</time>
      </trkpt>
      <trkpt lat="48.6795" lon="1.80657">
        <ele>180.19999694824</ele>
        <time>2014-05-31T14:04:28.000Z</time>
      </trkpt>
      <trkpt lat="48.6796" lon="1.80645">
        <ele>179.60000610352</ele>
        <time>2014-05-31T14:04:36.000Z</time>
      </trkpt>
      <trkpt lat="48.67963" lon="1.80636">
        <ele>179.60000610352</ele>
        <time>2014-05-31T14:04:40.000Z</time>
      </trkpt>
      <trkpt lat="48.67968" lon="1.80628">
        <ele>179.39999389648</ele>
        <time>2014-05-31T14:04:45.000Z</time>
      </trkpt>
      <trkpt lat="48.67972" lon="1.80624">
        <ele>179.19999694824</ele>
        <time>2014-05-31T14:04:49.000Z</time>
      </trkpt>
      <trkpt lat="48.67978" lon="1.80615">
        <ele>179</ele>
        <time>2014-05-31T14:04:54.000Z</time>
      </trkpt>
      <trkpt lat="48.67986" lon="1.80604">
        <ele>179.19999694824</ele>
        <time>2014-05-31T14:05:00.000Z</time>
      </trkpt>
      <trkpt lat="48.67993" lon="1.80595">
        <ele>179.60000610352</ele>
        <time>2014-05-31T14:05:05.000Z</time>
      </trkpt>
      <trkpt lat="48.68" lon="1.80587">
        <ele>179.80000305176</ele>
        <time>2014-05-31T14:05:11.000Z</time>
      </trkpt>
      <trkpt lat="48.68011" lon="1.80587">
        <ele>179.39999389648</ele>
        <time>2014-05-31T14:05:18.000Z</time>
      </trkpt>
      <trkpt lat="48.68012" lon="1.80586">
        <ele>179.39999389648</ele>
        <time>2014-05-31T14:05:19.000Z</time>
      </trkpt>
      <trkpt lat="48.68024" lon="1.8057">
        <ele>180</ele>
        <time>2014-05-31T14:05:28.000Z</time>
      </trkpt>
      <trkpt lat="48.68032" lon="1.80559">
        <ele>180.19999694824</ele>
        <time>2014-05-31T14:05:35.000Z</time>
      </trkpt>
      <trkpt lat="48.68039" lon="1.80552">
        <ele>180.19999694824</ele>
        <time>2014-05-31T14:05:41.000Z</time>
      </trkpt>
      <trkpt lat="48.68047" lon="1.80544">
        <ele>180.39999389648</ele>
        <time>2014-05-31T14:05:46.000Z</time>
      </trkpt>
      <trkpt lat="48.68055" lon="1.80535">
        <ele>180.39999389648</ele>
        <time>2014-05-31T14:05:52.000Z</time>
      </trkpt>
      <trkpt lat="48.6806" lon="1.80526">
        <ele>180.60000610352</ele>
        <time>2014-05-31T14:05:57.000Z</time>
      </trkpt>
      <trkpt lat="48.68072" lon="1.80518">
        <ele>180.60000610352</ele>
        <time>2014-05-31T14:06:05.000Z</time>
      </trkpt>
      <trkpt lat="48.68082" lon="1.80508">
        <ele>180.80000305176</ele>
        <time>2014-05-31T14:06:13.000Z</time>
      </trkpt>
      <trkpt lat="48.68088" lon="1.80493">
        <ele>181</ele>
        <time>2014-05-31T14:06:20.000Z</time>
      </trkpt>
      <trkpt lat="48.68091" lon="1.80476">
        <ele>181.19999694824</ele>
        <time>2014-05-31T14:06:27.000Z</time>
      </trkpt>
      <trkpt lat="48.68093" lon="1.8046">
        <ele>181</ele>
        <time>2014-05-31T14:06:33.000Z</time>
      </trkpt>
      <trkpt lat="48.68094" lon="1.80442">
        <ele>180.80000305176</ele>
        <time>2014-05-31T14:06:40.000Z</time>
      </trkpt>
      <trkpt lat="48.68095" lon="1.80423">
        <ele>180.60000610352</ele>
        <time>2014-05-31T14:06:48.000Z</time>
      </trkpt>
      <trkpt lat="48.68096" lon="1.80406">
        <ele>180.19999694824</ele>
        <time>2014-05-31T14:06:54.000Z</time>
      </trkpt>
      <trkpt lat="48.68097" lon="1.80379">
        <ele>180.19999694824</ele>
        <time>2014-05-31T14:06:59.000Z</time>
      </trkpt>
      <trkpt lat="48.68097" lon="1.80341">
        <ele>180.19999694824</ele>
        <time>2014-05-31T14:07:06.000Z</time>
      </trkpt>
      <trkpt lat="48.68099" lon="1.80305">
        <ele>180.80000305176</ele>
        <time>2014-05-31T14:07:12.000Z</time>
      </trkpt>
      <trkpt lat="48.68099" lon="1.80277">
        <ele>182.19999694824</ele>
        <time>2014-05-31T14:07:17.000Z</time>
      </trkpt>
      <trkpt lat="48.68101" lon="1.80248">
        <ele>183.39999389648</ele>
        <time>2014-05-31T14:07:22.000Z</time>
      </trkpt>
      <trkpt lat="48.68102" lon="1.80221">
        <ele>184.19999694824</ele>
        <time>2014-05-31T14:07:27.000Z</time>
      </trkpt>
      <trkpt lat="48.68105" lon="1.80191">
        <ele>184.60000610352</ele>
        <time>2014-05-31T14:07:33.000Z</time>
      </trkpt>
      <trkpt lat="48.68105" lon="1.8018">
        <ele>184.60000610352</ele>
        <time>2014-05-31T14:07:38.000Z</time>
      </trkpt>
      <trkpt lat="48.68105" lon="1.80178">
        <ele>184.80000305176</ele>
        <time>2014-05-31T14:07:39.000Z</time>
      </trkpt>
      <trkpt lat="48.68108" lon="1.80162">
        <ele>185</ele>
        <time>2014-05-31T14:07:45.000Z</time>
      </trkpt>
      <trkpt lat="48.6811" lon="1.80147">
        <ele>185</ele>
        <time>2014-05-31T14:07:51.000Z</time>
      </trkpt>
      <trkpt lat="48.6811" lon="1.8013">
        <ele>184.60000610352</ele>
        <time>2014-05-31T14:07:57.000Z</time>
      </trkpt>
      <trkpt lat="48.68113" lon="1.80112">
        <ele>184.39999389648</ele>
        <time>2014-05-31T14:08:04.000Z</time>
      </trkpt>
      <trkpt lat="48.68115" lon="1.80097">
        <ele>184</ele>
        <time>2014-05-31T14:08:11.000Z</time>
      </trkpt>
      <trkpt lat="48.68115" lon="1.80084">
        <ele>183.80000305176</ele>
        <time>2014-05-31T14:08:16.000Z</time>
      </trkpt>
      <trkpt lat="48.68115" lon="1.8008">
        <ele>183.60000610352</ele>
        <time>2014-05-31T14:08:18.000Z</time>
      </trkpt>
      <trkpt lat="48.68119" lon="1.80065">
        <ele>183.80000305176</ele>
        <time>2014-05-31T14:08:24.000Z</time>
      </trkpt>
      <trkpt lat="48.6812" lon="1.80049">
        <ele>184</ele>
        <time>2014-05-31T14:08:31.000Z</time>
      </trkpt>
      <trkpt lat="48.6812" lon="1.80037">
        <ele>184.19999694824</ele>
        <time>2014-05-31T14:08:36.000Z</time>
      </trkpt>
      <trkpt lat="48.68118" lon="1.80021">
        <ele>184.39999389648</ele>
        <time>2014-05-31T14:08:42.000Z</time>
      </trkpt>
      <trkpt lat="48.68116" lon="1.80008">
        <ele>184.39999389648</ele>
        <time>2014-05-31T14:08:47.000Z</time>
      </trkpt>
      <trkpt lat="48.68115" lon="1.79995">
        <ele>184.39999389648</ele>
        <time>2014-05-31T14:08:52.000Z</time>
      </trkpt>
      <trkpt lat="48.68117" lon="1.79977">
        <ele>184.60000610352</ele>
        <time>2014-05-31T14:08:59.000Z</time>
      </trkpt>
      <trkpt lat="48.6812" lon="1.7996">
        <ele>185</ele>
        <time>2014-05-31T14:09:06.000Z</time>
      </trkpt>
      <trkpt lat="48.68119" lon="1.7995">
        <ele>185</ele>
        <time>2014-05-31T14:09:10.000Z</time>
      </trkpt>
      <trkpt lat="48.68116" lon="1.79936">
        <ele>185.19999694824</ele>
        <time>2014-05-31T14:09:16.000Z</time>
      </trkpt>
      <trkpt lat="48.68117" lon="1.79931">
        <ele>185.19999694824</ele>
        <time>2014-05-31T14:09:18.000Z</time>
      </trkpt>
      <trkpt lat="48.68119" lon="1.79915">
        <ele>185.39999389648</ele>
        <time>2014-05-31T14:09:25.000Z</time>
      </trkpt>
      <trkpt lat="48.68118" lon="1.79907">
        <ele>185.39999389648</ele>
        <time>2014-05-31T14:09:29.000Z</time>
      </trkpt>
      <trkpt lat="48.68121" lon="1.79903">
        <ele>185.39999389648</ele>
        <time>2014-05-31T14:09:31.000Z</time>
      </trkpt>
      <trkpt lat="48.68122" lon="1.79886">
        <ele>184.80000305176</ele>
        <time>2014-05-31T14:09:38.000Z</time>
      </trkpt>
      <trkpt lat="48.68124" lon="1.79875">
        <ele>184.39999389648</ele>
        <time>2014-05-31T14:09:42.000Z</time>
      </trkpt>
      <trkpt lat="48.68126" lon="1.79863">
        <ele>184</ele>
        <time>2014-05-31T14:09:47.000Z</time>
      </trkpt>
      <trkpt lat="48.68124" lon="1.79851">
        <ele>183.60000610352</ele>
        <time>2014-05-31T14:09:53.000Z</time>
      </trkpt>
      <trkpt lat="48.68123" lon="1.79844">
        <ele>183.19999694824</ele>
        <time>2014-05-31T14:09:56.000Z</time>
      </trkpt>
      <trkpt lat="48.68126" lon="1.79829">
        <ele>183.19999694824</ele>
        <time>2014-05-31T14:10:02.000Z</time>
      </trkpt>
      <trkpt lat="48.68128" lon="1.79815">
        <ele>183.19999694824</ele>
        <time>2014-05-31T14:10:08.000Z</time>
      </trkpt>
      <trkpt lat="48.6813" lon="1.798">
        <ele>183</ele>
        <time>2014-05-31T14:10:14.000Z</time>
      </trkpt>
      <trkpt lat="48.68135" lon="1.79781">
        <ele>183</ele>
        <time>2014-05-31T14:10:21.000Z</time>
      </trkpt>
      <trkpt lat="48.68134" lon="1.79755">
        <ele>182.60000610352</ele>
        <time>2014-05-31T14:10:26.000Z</time>
      </trkpt>
      <trkpt lat="48.68137" lon="1.79726">
        <ele>181.60000610352</ele>
        <time>2014-05-31T14:10:32.000Z</time>
      </trkpt>
      <trkpt lat="48.68134" lon="1.79696">
        <ele>179.60000610352</ele>
        <time>2014-05-31T14:10:37.000Z</time>
      </trkpt>
      <trkpt lat="48.68134" lon="1.7969">
        <ele>179.19999694824</ele>
        <time>2014-05-31T14:10:38.000Z</time>
      </trkpt>
      <trkpt lat="48.68125" lon="1.7967">
        <ele>177.80000305176</ele>
        <time>2014-05-31T14:10:42.000Z</time>
      </trkpt>
      <trkpt lat="48.68123" lon="1.79659">
        <ele>177.39999389648</ele>
        <time>2014-05-31T14:10:44.000Z</time>
      </trkpt>
      <trkpt lat="48.68126" lon="1.79628">
        <ele>176</ele>
        <time>2014-05-31T14:10:49.000Z</time>
      </trkpt>
      <trkpt lat="48.68128" lon="1.79622">
        <ele>176</ele>
        <time>2014-05-31T14:10:50.000Z</time>
      </trkpt>
      <trkpt lat="48.68131" lon="1.79609">
        <ele>175.39999389648</ele>
        <time>2014-05-31T14:10:52.000Z</time>
      </trkpt>
      <trkpt lat="48.68135" lon="1.79569">
        <ele>174.80000305176</ele>
        <time>2014-05-31T14:10:58.000Z</time>
      </trkpt>
      <trkpt lat="48.68139" lon="1.79548">
        <ele>175.80000305176</ele>
        <time>2014-05-31T14:11:01.000Z</time>
      </trkpt>
      <trkpt lat="48.6814" lon="1.79535">
        <ele>176.39999389648</ele>
        <time>2014-05-31T14:11:03.000Z</time>
      </trkpt>
      <trkpt lat="48.68141" lon="1.79512">
        <ele>177.19999694824</ele>
        <time>2014-05-31T14:11:07.000Z</time>
      </trkpt>
      <trkpt lat="48.68143" lon="1.79475">
        <ele>177.60000610352</ele>
        <time>2014-05-31T14:11:13.000Z</time>
      </trkpt>
      <trkpt lat="48.68146" lon="1.79421">
        <ele>178</ele>
        <time>2014-05-31T14:11:21.000Z</time>
      </trkpt>
      <trkpt lat="48.68147" lon="1.7939">
        <ele>178.19999694824</ele>
        <time>2014-05-31T14:11:26.000Z</time>
      </trkpt>
      <trkpt lat="48.68148" lon="1.79378">
        <ele>178.39999389648</ele>
        <time>2014-05-31T14:11:28.000Z</time>
      </trkpt>
      <trkpt lat="48.68149" lon="1.79367">
        <ele>178.39999389648</ele>
        <time>2014-05-31T14:11:30.000Z</time>
      </trkpt>
      <trkpt lat="48.6815" lon="1.79334">
        <ele>179.19999694824</ele>
        <time>2014-05-31T14:11:36.000Z</time>
      </trkpt>
      <trkpt lat="48.68153" lon="1.79309">
        <ele>180.19999694824</ele>
        <time>2014-05-31T14:11:41.000Z</time>
      </trkpt>
      <trkpt lat="48.68157" lon="1.79276">
        <ele>180.39999389648</ele>
        <time>2014-05-31T14:11:47.000Z</time>
      </trkpt>
      <trkpt lat="48.68157" lon="1.79248">
        <ele>179.80000305176</ele>
        <time>2014-05-31T14:11:52.000Z</time>
      </trkpt>
      <trkpt lat="48.68158" lon="1.79221">
        <ele>179.60000610352</ele>
        <time>2014-05-31T14:11:57.000Z</time>
      </trkpt>
      <trkpt lat="48.68161" lon="1.79187">
        <ele>179.80000305176</ele>
        <time>2014-05-31T14:12:03.000Z</time>
      </trkpt>
      <trkpt lat="48.68163" lon="1.79153">
        <ele>180</ele>
        <time>2014-05-31T14:12:09.000Z</time>
      </trkpt>
      <trkpt lat="48.68164" lon="1.79121">
        <ele>179.19999694824</ele>
        <time>2014-05-31T14:12:15.000Z</time>
      </trkpt>
      <trkpt lat="48.68165" lon="1.79104">
        <ele>179</ele>
        <time>2014-05-31T14:12:19.000Z</time>
      </trkpt>
      <trkpt lat="48.68166" lon="1.79081">
        <ele>178.39999389648</ele>
        <time>2014-05-31T14:12:24.000Z</time>
      </trkpt>
      <trkpt lat="48.68167" lon="1.79051">
        <ele>178</ele>
        <time>2014-05-31T14:12:29.000Z</time>
      </trkpt>
      <trkpt lat="48.68169" lon="1.79008">
        <ele>177.60000610352</ele>
        <time>2014-05-31T14:12:37.000Z</time>
      </trkpt>
      <trkpt lat="48.68172" lon="1.78978">
        <ele>177.60000610352</ele>
        <time>2014-05-31T14:12:43.000Z</time>
      </trkpt>
      <trkpt lat="48.6817" lon="1.78961">
        <ele>177.19999694824</ele>
        <time>2014-05-31T14:12:49.000Z</time>
      </trkpt>
      <trkpt lat="48.68174" lon="1.78946">
        <ele>177.39999389648</ele>
        <time>2014-05-31T14:12:55.000Z</time>
      </trkpt>
      <trkpt lat="48.68176" lon="1.78932">
        <ele>177.39999389648</ele>
        <time>2014-05-31T14:13:00.000Z</time>
      </trkpt>
      <trkpt lat="48.68177" lon="1.78912">
        <ele>177.39999389648</ele>
        <time>2014-05-31T14:13:08.000Z</time>
      </trkpt>
      <trkpt lat="48.68179" lon="1.78896">
        <ele>177.39999389648</ele>
        <time>2014-05-31T14:13:15.000Z</time>
      </trkpt>
      <trkpt lat="48.68179" lon="1.78891">
        <ele>177.39999389648</ele>
        <time>2014-05-31T14:13:18.000Z</time>
      </trkpt>
      <trkpt lat="48.68173" lon="1.78883">
        <ele>177</ele>
        <time>2014-05-31T14:13:24.000Z</time>
      </trkpt>
      <trkpt lat="48.68176" lon="1.78876">
        <ele>177</ele>
        <time>2014-05-31T14:13:30.000Z</time>
      </trkpt>
      <trkpt lat="48.68179" lon="1.78867">
        <ele>176.80000305176</ele>
        <time>2014-05-31T14:13:34.000Z</time>
      </trkpt>
      <trkpt lat="48.68186" lon="1.78852">
        <ele>176.80000305176</ele>
        <time>2014-05-31T14:13:41.000Z</time>
      </trkpt>
      <trkpt lat="48.68192" lon="1.78837">
        <ele>176.80000305176</ele>
        <time>2014-05-31T14:13:48.000Z</time>
      </trkpt>
      <trkpt lat="48.68199" lon="1.78825">
        <ele>176.80000305176</ele>
        <time>2014-05-31T14:13:55.000Z</time>
      </trkpt>
      <trkpt lat="48.68203" lon="1.78812">
        <ele>176.80000305176</ele>
        <time>2014-05-31T14:14:00.000Z</time>
      </trkpt>
      <trkpt lat="48.68205" lon="1.78807">
        <ele>176.80000305176</ele>
        <time>2014-05-31T14:14:02.000Z</time>
      </trkpt>
      <trkpt lat="48.68207" lon="1.788">
        <ele>176.80000305176</ele>
        <time>2014-05-31T14:14:06.000Z</time>
      </trkpt>
      <trkpt lat="48.68215" lon="1.78782">
        <ele>176.80000305176</ele>
        <time>2014-05-31T14:14:15.000Z</time>
      </trkpt>
      <trkpt lat="48.68223" lon="1.78764">
        <ele>176.60000610352</ele>
        <time>2014-05-31T14:14:24.000Z</time>
      </trkpt>
      <trkpt lat="48.68232" lon="1.78746">
        <ele>176.39999389648</ele>
        <time>2014-05-31T14:14:33.000Z</time>
      </trkpt>
      <trkpt lat="48.68237" lon="1.78737">
        <ele>176.39999389648</ele>
        <time>2014-05-31T14:14:38.000Z</time>
      </trkpt>
      <trkpt lat="48.68245" lon="1.7872">
        <ele>176.19999694824</ele>
        <time>2014-05-31T14:14:46.000Z</time>
      </trkpt>
      <trkpt lat="48.6825" lon="1.78703">
        <ele>175.39999389648</ele>
        <time>2014-05-31T14:14:54.000Z</time>
      </trkpt>
      <trkpt lat="48.68257" lon="1.7869">
        <ele>174.80000305176</ele>
        <time>2014-05-31T14:15:01.000Z</time>
      </trkpt>
      <trkpt lat="48.6826" lon="1.7868">
        <ele>174.19999694824</ele>
        <time>2014-05-31T14:15:05.000Z</time>
      </trkpt>
      <trkpt lat="48.68265" lon="1.78668">
        <ele>173.60000610352</ele>
        <time>2014-05-31T14:15:11.000Z</time>
      </trkpt>
      <trkpt lat="48.68269" lon="1.78658">
        <ele>173.19999694824</ele>
        <time>2014-05-31T14:15:17.000Z</time>
      </trkpt>
      <trkpt lat="48.68277" lon="1.78642">
        <ele>172.80000305176</ele>
        <time>2014-05-31T14:15:26.000Z</time>
      </trkpt>
      <trkpt lat="48.6828" lon="1.78632">
        <ele>172.60000610352</ele>
        <time>2014-05-31T14:15:32.000Z</time>
      </trkpt>
      <trkpt lat="48.68287" lon="1.78614">
        <ele>172.19999694824</ele>
        <time>2014-05-31T14:15:41.000Z</time>
      </trkpt>
      <trkpt lat="48.68293" lon="1.78605">
        <ele>172.19999694824</ele>
        <time>2014-05-31T14:15:46.000Z</time>
      </trkpt>
      <trkpt lat="48.68299" lon="1.78589">
        <ele>172.39999389648</ele>
        <time>2014-05-31T14:15:54.000Z</time>
      </trkpt>
      <trkpt lat="48.68303" lon="1.7858">
        <ele>173</ele>
        <time>2014-05-31T14:15:59.000Z</time>
      </trkpt>
      <trkpt lat="48.68311" lon="1.78565">
        <ele>173.80000305176</ele>
        <time>2014-05-31T14:16:08.000Z</time>
      </trkpt>
      <trkpt lat="48.68316" lon="1.78554">
        <ele>174.60000610352</ele>
        <time>2014-05-31T14:16:14.000Z</time>
      </trkpt>
      <trkpt lat="48.6832" lon="1.78541">
        <ele>175.19999694824</ele>
        <time>2014-05-31T14:16:20.000Z</time>
      </trkpt>
      <trkpt lat="48.68327" lon="1.78525">
        <ele>176</ele>
        <time>2014-05-31T14:16:27.000Z</time>
      </trkpt>
      <trkpt lat="48.68332" lon="1.78513">
        <ele>176.39999389648</ele>
        <time>2014-05-31T14:16:33.000Z</time>
      </trkpt>
      <trkpt lat="48.68337" lon="1.78499">
        <ele>177</ele>
        <time>2014-05-31T14:16:41.000Z</time>
      </trkpt>
      <trkpt lat="48.68341" lon="1.78489">
        <ele>177.39999389648</ele>
        <time>2014-05-31T14:16:47.000Z</time>
      </trkpt>
      <trkpt lat="48.68346" lon="1.78475">
        <ele>178</ele>
        <time>2014-05-31T14:16:54.000Z</time>
      </trkpt>
      <trkpt lat="48.68351" lon="1.78463">
        <ele>178</ele>
        <time>2014-05-31T14:17:00.000Z</time>
      </trkpt>
      <trkpt lat="48.68352" lon="1.7846">
        <ele>178</ele>
        <time>2014-05-31T14:17:02.000Z</time>
      </trkpt>
      <trkpt lat="48.68356" lon="1.78448">
        <ele>177.80000305176</ele>
        <time>2014-05-31T14:17:08.000Z</time>
      </trkpt>
      <trkpt lat="48.68361" lon="1.78441">
        <ele>177.80000305176</ele>
        <time>2014-05-31T14:17:12.000Z</time>
      </trkpt>
      <trkpt lat="48.68363" lon="1.78437">
        <ele>177.80000305176</ele>
        <time>2014-05-31T14:17:14.000Z</time>
      </trkpt>
      <trkpt lat="48.68365" lon="1.78429">
        <ele>177.60000610352</ele>
        <time>2014-05-31T14:17:18.000Z</time>
      </trkpt>
      <trkpt lat="48.68373" lon="1.78412">
        <ele>177.80000305176</ele>
        <time>2014-05-31T14:17:27.000Z</time>
      </trkpt>
      <trkpt lat="48.6838" lon="1.78397">
        <ele>178.19999694824</ele>
        <time>2014-05-31T14:17:34.000Z</time>
      </trkpt>
      <trkpt lat="48.68386" lon="1.78381">
        <ele>178.60000610352</ele>
        <time>2014-05-31T14:17:41.000Z</time>
      </trkpt>
      <trkpt lat="48.68389" lon="1.78365">
        <ele>178.60000610352</ele>
        <time>2014-05-31T14:17:47.000Z</time>
      </trkpt>
      <trkpt lat="48.68392" lon="1.78354">
        <ele>178.39999389648</ele>
        <time>2014-05-31T14:17:52.000Z</time>
      </trkpt>
      <trkpt lat="48.68396" lon="1.78349">
        <ele>178.39999389648</ele>
        <time>2014-05-31T14:17:57.000Z</time>
      </trkpt>
      <trkpt lat="48.68399" lon="1.78343">
        <ele>178.19999694824</ele>
        <time>2014-05-31T14:18:02.000Z</time>
      </trkpt>
      <trkpt lat="48.68406" lon="1.78332">
        <ele>178</ele>
        <time>2014-05-31T14:18:08.000Z</time>
      </trkpt>
      <trkpt lat="48.6841" lon="1.78322">
        <ele>177.80000305176</ele>
        <time>2014-05-31T14:18:15.000Z</time>
      </trkpt>
      <trkpt lat="48.68415" lon="1.7832">
        <ele>177.80000305176</ele>
        <time>2014-05-31T14:18:37.000Z</time>
      </trkpt>
      <trkpt lat="48.68422" lon="1.78311">
        <ele>177.60000610352</ele>
        <time>2014-05-31T14:18:42.000Z</time>
      </trkpt>
      <trkpt lat="48.68428" lon="1.78304">
        <ele>177.39999389648</ele>
        <time>2014-05-31T14:18:47.000Z</time>
      </trkpt>
      <trkpt lat="48.68429" lon="1.78302">
        <ele>177.39999389648</ele>
        <time>2014-05-31T14:18:48.000Z</time>
      </trkpt>
      <trkpt lat="48.68434" lon="1.78296">
        <ele>177.39999389648</ele>
        <time>2014-05-31T14:18:53.000Z</time>
      </trkpt>
      <trkpt lat="48.68435" lon="1.78294">
        <ele>177.19999694824</ele>
        <time>2014-05-31T14:18:54.000Z</time>
      </trkpt>
      <trkpt lat="48.6844" lon="1.78282">
        <ele>176.60000610352</ele>
        <time>2014-05-31T14:19:01.000Z</time>
      </trkpt>
      <trkpt lat="48.68447" lon="1.78277">
        <ele>176</ele>
        <time>2014-05-31T14:19:07.000Z</time>
      </trkpt>
      <trkpt lat="48.68452" lon="1.78273">
        <ele>175.80000305176</ele>
        <time>2014-05-31T14:19:11.000Z</time>
      </trkpt>
      <trkpt lat="48.68455" lon="1.78268">
        <ele>175.39999389648</ele>
        <time>2014-05-31T14:19:14.000Z</time>
      </trkpt>
      <trkpt lat="48.68463" lon="1.78258">
        <ele>174.39999389648</ele>
        <time>2014-05-31T14:19:21.000Z</time>
      </trkpt>
      <trkpt lat="48.6847" lon="1.78248">
        <ele>173.39999389648</ele>
        <time>2014-05-31T14:19:28.000Z</time>
      </trkpt>
      <trkpt lat="48.68473" lon="1.78243">
        <ele>173</ele>
        <time>2014-05-31T14:19:31.000Z</time>
      </trkpt>
      <trkpt lat="48.68482" lon="1.78231">
        <ele>171.60000610352</ele>
        <time>2014-05-31T14:19:39.000Z</time>
      </trkpt>
      <trkpt lat="48.6849" lon="1.78223">
        <ele>170.39999389648</ele>
        <time>2014-05-31T14:19:45.000Z</time>
      </trkpt>
      <trkpt lat="48.68499" lon="1.7821">
        <ele>169.19999694824</ele>
        <time>2014-05-31T14:19:52.000Z</time>
      </trkpt>
      <trkpt lat="48.68504" lon="1.78201">
        <ele>169.19999694824</ele>
        <time>2014-05-31T14:19:57.000Z</time>
      </trkpt>
      <trkpt lat="48.68511" lon="1.7819">
        <ele>169</ele>
        <time>2014-05-31T14:20:03.000Z</time>
      </trkpt>
      <trkpt lat="48.68516" lon="1.78183">
        <ele>168.80000305176</ele>
        <time>2014-05-31T14:20:08.000Z</time>
      </trkpt>
      <trkpt lat="48.68523" lon="1.78173">
        <ele>168.60000610352</ele>
        <time>2014-05-31T14:20:13.000Z</time>
      </trkpt>
      <trkpt lat="48.68528" lon="1.78164">
        <ele>168.39999389648</ele>
        <time>2014-05-31T14:20:18.000Z</time>
      </trkpt>
      <trkpt lat="48.68528" lon="1.78162">
        <ele>168.39999389648</ele>
        <time>2014-05-31T14:20:19.000Z</time>
      </trkpt>
      <trkpt lat="48.68538" lon="1.7815">
        <ele>169</ele>
        <time>2014-05-31T14:20:26.000Z</time>
      </trkpt>
      <trkpt lat="48.68544" lon="1.78144">
        <ele>169.39999389648</ele>
        <time>2014-05-31T14:20:30.000Z</time>
      </trkpt>
      <trkpt lat="48.68553" lon="1.78134">
        <ele>170</ele>
        <time>2014-05-31T14:20:37.000Z</time>
      </trkpt>
      <trkpt lat="48.68559" lon="1.78126">
        <ele>170.39999389648</ele>
        <time>2014-05-31T14:20:43.000Z</time>
      </trkpt>
      <trkpt lat="48.68561" lon="1.7812">
        <ele>170.39999389648</ele>
        <time>2014-05-31T14:20:47.000Z</time>
      </trkpt>
      <trkpt lat="48.6857" lon="1.78108">
        <ele>171.60000610352</ele>
        <time>2014-05-31T14:20:55.000Z</time>
      </trkpt>
      <trkpt lat="48.68574" lon="1.781">
        <ele>172.60000610352</ele>
        <time>2014-05-31T14:21:01.000Z</time>
      </trkpt>
      <trkpt lat="48.6858" lon="1.78092">
        <ele>173.60000610352</ele>
        <time>2014-05-31T14:21:07.000Z</time>
      </trkpt>
      <trkpt lat="48.68585" lon="1.78087">
        <ele>174.39999389648</ele>
        <time>2014-05-31T14:21:11.000Z</time>
      </trkpt>
      <trkpt lat="48.68592" lon="1.78078">
        <ele>175.39999389648</ele>
        <time>2014-05-31T14:21:18.000Z</time>
      </trkpt>
      <trkpt lat="48.68599" lon="1.78068">
        <ele>176.39999389648</ele>
        <time>2014-05-31T14:21:24.000Z</time>
      </trkpt>
      <trkpt lat="48.686" lon="1.78067">
        <ele>176.60000610352</ele>
        <time>2014-05-31T14:21:25.000Z</time>
      </trkpt>
      <trkpt lat="48.68604" lon="1.7806">
        <ele>176.80000305176</ele>
        <time>2014-05-31T14:21:31.000Z</time>
      </trkpt>
      <trkpt lat="48.68606" lon="1.78059">
        <ele>176.80000305176</ele>
        <time>2014-05-31T14:21:32.000Z</time>
      </trkpt>
      <trkpt lat="48.68612" lon="1.78051">
        <ele>177</ele>
        <time>2014-05-31T14:21:38.000Z</time>
      </trkpt>
      <trkpt lat="48.68619" lon="1.78039">
        <ele>177.19999694824</ele>
        <time>2014-05-31T14:21:45.000Z</time>
      </trkpt>
      <trkpt lat="48.68628" lon="1.7803">
        <ele>177.39999389648</ele>
        <time>2014-05-31T14:21:52.000Z</time>
      </trkpt>
      <trkpt lat="48.68634" lon="1.78019">
        <ele>177.60000610352</ele>
        <time>2014-05-31T14:21:58.000Z</time>
      </trkpt>
      <trkpt lat="48.68639" lon="1.78013">
        <ele>178</ele>
        <time>2014-05-31T14:22:03.000Z</time>
      </trkpt>
      <trkpt lat="48.6865" lon="1.78007">
        <ele>179</ele>
        <time>2014-05-31T14:22:12.000Z</time>
      </trkpt>
      <trkpt lat="48.68655" lon="1.78005">
        <ele>179.39999389648</ele>
        <time>2014-05-31T14:22:15.000Z</time>
      </trkpt>
      <trkpt lat="48.68667" lon="1.78004">
        <ele>180.39999389648</ele>
        <time>2014-05-31T14:22:22.000Z</time>
      </trkpt>
      <trkpt lat="48.68676" lon="1.78008">
        <ele>181</ele>
        <time>2014-05-31T14:22:28.000Z</time>
      </trkpt>
      <trkpt lat="48.68679" lon="1.78011">
        <ele>181.39999389648</ele>
        <time>2014-05-31T14:22:30.000Z</time>
      </trkpt>
      <trkpt lat="48.68691" lon="1.7802">
        <ele>182</ele>
        <time>2014-05-31T14:22:39.000Z</time>
      </trkpt>
      <trkpt lat="48.68696" lon="1.78024">
        <ele>182</ele>
        <time>2014-05-31T14:22:43.000Z</time>
      </trkpt>
      <trkpt lat="48.68703" lon="1.78026">
        <ele>182</ele>
        <time>2014-05-31T14:22:49.000Z</time>
      </trkpt>
      <trkpt lat="48.68706" lon="1.78026">
        <ele>182</ele>
        <time>2014-05-31T14:22:51.000Z</time>
      </trkpt>
      <trkpt lat="48.68714" lon="1.7803">
        <ele>182</ele>
        <time>2014-05-31T14:22:57.000Z</time>
      </trkpt>
      <trkpt lat="48.68716" lon="1.7803">
        <ele>182</ele>
        <time>2014-05-31T14:22:58.000Z</time>
      </trkpt>
      <trkpt lat="48.68727" lon="1.78041">
        <ele>182</ele>
        <time>2014-05-31T14:23:06.000Z</time>
      </trkpt>
      <trkpt lat="48.6873" lon="1.78041">
        <ele>182</ele>
        <time>2014-05-31T14:23:09.000Z</time>
      </trkpt>
      <trkpt lat="48.6874" lon="1.78042">
        <ele>182</ele>
        <time>2014-05-31T14:23:16.000Z</time>
      </trkpt>
      <trkpt lat="48.68748" lon="1.78051">
        <ele>182</ele>
        <time>2014-05-31T14:23:22.000Z</time>
      </trkpt>
      <trkpt lat="48.68759" lon="1.78069">
        <ele>182</ele>
        <time>2014-05-31T14:23:27.000Z</time>
      </trkpt>
      <trkpt lat="48.68769" lon="1.7808">
        <ele>181.80000305176</ele>
        <time>2014-05-31T14:23:30.000Z</time>
      </trkpt>
      <trkpt lat="48.68783" lon="1.78098">
        <ele>182</ele>
        <time>2014-05-31T14:23:35.000Z</time>
      </trkpt>
      <trkpt lat="48.68797" lon="1.78114">
        <ele>182.19999694824</ele>
        <time>2014-05-31T14:23:40.000Z</time>
      </trkpt>
      <trkpt lat="48.68806" lon="1.78128">
        <ele>182.19999694824</ele>
        <time>2014-05-31T14:23:44.000Z</time>
      </trkpt>
      <trkpt lat="48.68814" lon="1.78143">
        <ele>182.19999694824</ele>
        <time>2014-05-31T14:23:49.000Z</time>
      </trkpt>
      <trkpt lat="48.68826" lon="1.78154">
        <ele>182.39999389648</ele>
        <time>2014-05-31T14:23:53.000Z</time>
      </trkpt>
      <trkpt lat="48.6883" lon="1.78161">
        <ele>182.60000610352</ele>
        <time>2014-05-31T14:23:55.000Z</time>
      </trkpt>
      <trkpt lat="48.6884" lon="1.78173">
        <ele>183.19999694824</ele>
        <time>2014-05-31T14:23:59.000Z</time>
      </trkpt>
      <trkpt lat="48.68857" lon="1.78191">
        <ele>183.80000305176</ele>
        <time>2014-05-31T14:24:06.000Z</time>
      </trkpt>
      <trkpt lat="48.68876" lon="1.78206">
        <ele>184.19999694824</ele>
        <time>2014-05-31T14:24:11.000Z</time>
      </trkpt>
      <trkpt lat="48.68887" lon="1.78211">
        <ele>184.39999389648</ele>
        <time>2014-05-31T14:24:13.000Z</time>
      </trkpt>
      <trkpt lat="48.68903" lon="1.78223">
        <ele>184.60000610352</ele>
        <time>2014-05-31T14:24:18.000Z</time>
      </trkpt>
      <trkpt lat="48.68909" lon="1.78228">
        <ele>184.80000305176</ele>
        <time>2014-05-31T14:24:20.000Z</time>
      </trkpt>
      <trkpt lat="48.68918" lon="1.78239">
        <ele>185</ele>
        <time>2014-05-31T14:24:25.000Z</time>
      </trkpt>
      <trkpt lat="48.6892" lon="1.78245">
        <ele>185</ele>
        <time>2014-05-31T14:24:29.000Z</time>
      </trkpt>
      <trkpt lat="48.68924" lon="1.78251">
        <ele>184.80000305176</ele>
        <time>2014-05-31T14:24:35.000Z</time>
      </trkpt>
      <trkpt lat="48.68928" lon="1.78255">
        <ele>184.80000305176</ele>
        <time>2014-05-31T14:24:39.000Z</time>
      </trkpt>
      <trkpt lat="48.68931" lon="1.78255">
        <ele>184.80000305176</ele>
        <time>2014-05-31T14:24:42.000Z</time>
      </trkpt>
      <trkpt lat="48.68941" lon="1.78265">
        <ele>184.60000610352</ele>
        <time>2014-05-31T14:24:49.000Z</time>
      </trkpt>
      <trkpt lat="48.68943" lon="1.78269">
        <ele>184.60000610352</ele>
        <time>2014-05-31T14:24:52.000Z</time>
      </trkpt>
      <trkpt lat="48.6894" lon="1.78266">
        <ele>184.60000610352</ele>
        <time>2014-05-31T14:24:58.000Z</time>
      </trkpt>
      <trkpt lat="48.68938" lon="1.78263">
        <ele>184.60000610352</ele>
        <time>2014-05-31T14:25:00.000Z</time>
      </trkpt>
      <trkpt lat="48.68931" lon="1.78254">
        <ele>184.80000305176</ele>
        <time>2014-05-31T14:25:06.000Z</time>
      </trkpt>
      <trkpt lat="48.68923" lon="1.78245">
        <ele>185</ele>
        <time>2014-05-31T14:25:13.000Z</time>
      </trkpt>
      <trkpt lat="48.6892" lon="1.78243">
        <ele>185</ele>
        <time>2014-05-31T14:25:15.000Z</time>
      </trkpt>
      <trkpt lat="48.68917" lon="1.78237">
        <ele>185</ele>
        <time>2014-05-31T14:25:19.000Z</time>
      </trkpt>
      <trkpt lat="48.68908" lon="1.78227">
        <ele>184.80000305176</ele>
        <time>2014-05-31T14:25:27.000Z</time>
      </trkpt>
      <trkpt lat="48.68906" lon="1.78226">
        <ele>184.80000305176</ele>
        <time>2014-05-31T14:25:28.000Z</time>
      </trkpt>
      <trkpt lat="48.689" lon="1.78218">
        <ele>184.60000610352</ele>
        <time>2014-05-31T14:25:33.000Z</time>
      </trkpt>
      <trkpt lat="48.68898" lon="1.78205">
        <ele>184.19999694824</ele>
        <time>2014-05-31T14:25:40.000Z</time>
      </trkpt>
      <trkpt lat="48.68905" lon="1.78201">
        <ele>184</ele>
        <time>2014-05-31T14:25:45.000Z</time>
      </trkpt>
      <trkpt lat="48.68913" lon="1.78197">
        <ele>183.80000305176</ele>
        <time>2014-05-31T14:25:50.000Z</time>
      </trkpt>
      <trkpt lat="48.6893" lon="1.78183">
        <ele>183</ele>
        <time>2014-05-31T14:25:56.000Z</time>
      </trkpt>
      <trkpt lat="48.68948" lon="1.78169">
        <ele>182.19999694824</ele>
        <time>2014-05-31T14:26:02.000Z</time>
      </trkpt>
      <trkpt lat="48.68961" lon="1.78162">
        <ele>182</ele>
        <time>2014-05-31T14:26:07.000Z</time>
      </trkpt>
      <trkpt lat="48.68974" lon="1.7815">
        <ele>182</ele>
        <time>2014-05-31T14:26:12.000Z</time>
      </trkpt>
      <trkpt lat="48.68989" lon="1.7814">
        <ele>181.80000305176</ele>
        <time>2014-05-31T14:26:17.000Z</time>
      </trkpt>
      <trkpt lat="48.69003" lon="1.78129">
        <ele>181.60000610352</ele>
        <time>2014-05-31T14:26:22.000Z</time>
      </trkpt>
      <trkpt lat="48.69016" lon="1.78119">
        <ele>181.60000610352</ele>
        <time>2014-05-31T14:26:28.000Z</time>
      </trkpt>
      <trkpt lat="48.69019" lon="1.78114">
        <ele>181.60000610352</ele>
        <time>2014-05-31T14:26:30.000Z</time>
      </trkpt>
      <trkpt lat="48.69025" lon="1.78106">
        <ele>181.19999694824</ele>
        <time>2014-05-31T14:26:34.000Z</time>
      </trkpt>
      <trkpt lat="48.69026" lon="1.78102">
        <ele>181.19999694824</ele>
        <time>2014-05-31T14:26:36.000Z</time>
      </trkpt>
      <trkpt lat="48.6903" lon="1.78097">
        <ele>181</ele>
        <time>2014-05-31T14:26:41.000Z</time>
      </trkpt>
      <trkpt lat="48.69033" lon="1.78095">
        <ele>181</ele>
        <time>2014-05-31T14:26:50.000Z</time>
      </trkpt>
      <trkpt lat="48.69036" lon="1.78085">
        <ele>180.80000305176</ele>
        <time>2014-05-31T14:26:58.000Z</time>
      </trkpt>
      <trkpt lat="48.69035" lon="1.78075">
        <ele>180.80000305176</ele>
        <time>2014-05-31T14:27:01.000Z</time>
      </trkpt>
      <trkpt lat="48.69031" lon="1.78057">
        <ele>180.60000610352</ele>
        <time>2014-05-31T14:27:08.000Z</time>
      </trkpt>
      <trkpt lat="48.69028" lon="1.78042">
        <ele>180.19999694824</ele>
        <time>2014-05-31T14:27:14.000Z</time>
      </trkpt>
      <trkpt lat="48.69025" lon="1.78028">
        <ele>180</ele>
        <time>2014-05-31T14:27:20.000Z</time>
      </trkpt>
      <trkpt lat="48.69022" lon="1.78011">
        <ele>179.60000610352</ele>
        <time>2014-05-31T14:27:28.000Z</time>
      </trkpt>
      <trkpt lat="48.69019" lon="1.77997">
        <ele>179.19999694824</ele>
        <time>2014-05-31T14:27:34.000Z</time>
      </trkpt>
      <trkpt lat="48.69015" lon="1.77982">
        <ele>178.80000305176</ele>
        <time>2014-05-31T14:27:41.000Z</time>
      </trkpt>
      <trkpt lat="48.69012" lon="1.77973">
        <ele>178.60000610352</ele>
        <time>2014-05-31T14:27:45.000Z</time>
      </trkpt>
      <trkpt lat="48.6901" lon="1.77962">
        <ele>178.19999694824</ele>
        <time>2014-05-31T14:27:50.000Z</time>
      </trkpt>
      <trkpt lat="48.69006" lon="1.7795">
        <ele>178</ele>
        <time>2014-05-31T14:27:56.000Z</time>
      </trkpt>
      <trkpt lat="48.69006" lon="1.77936">
        <ele>177.60000610352</ele>
        <time>2014-05-31T14:28:02.000Z</time>
      </trkpt>
      <trkpt lat="48.69004" lon="1.7791">
        <ele>177</ele>
        <time>2014-05-31T14:28:14.000Z</time>
      </trkpt>
      <trkpt lat="48.69002" lon="1.77886">
        <ele>176.80000305176</ele>
        <time>2014-05-31T14:28:25.000Z</time>
      </trkpt>
      <trkpt lat="48.69" lon="1.7787">
        <ele>176.60000610352</ele>
        <time>2014-05-31T14:28:32.000Z</time>
      </trkpt>
      <trkpt lat="48.68997" lon="1.7785">
        <ele>176.39999389648</ele>
        <time>2014-05-31T14:28:37.000Z</time>
      </trkpt>
      <trkpt lat="48.68994" lon="1.77828">
        <ele>176</ele>
        <time>2014-05-31T14:28:45.000Z</time>
      </trkpt>
      <trkpt lat="48.68991" lon="1.77811">
        <ele>175.60000610352</ele>
        <time>2014-05-31T14:28:52.000Z</time>
      </trkpt>
      <trkpt lat="48.68988" lon="1.77796">
        <ele>175</ele>
        <time>2014-05-31T14:28:58.000Z</time>
      </trkpt>
      <trkpt lat="48.68985" lon="1.77789">
        <ele>174.80000305176</ele>
        <time>2014-05-31T14:29:01.000Z</time>
      </trkpt>
      <trkpt lat="48.68983" lon="1.77767">
        <ele>174.39999389648</ele>
        <time>2014-05-31T14:29:10.000Z</time>
      </trkpt>
      <trkpt lat="48.68979" lon="1.7775">
        <ele>174.19999694824</ele>
        <time>2014-05-31T14:29:18.000Z</time>
      </trkpt>
      <trkpt lat="48.68976" lon="1.77737">
        <ele>173.80000305176</ele>
        <time>2014-05-31T14:29:23.000Z</time>
      </trkpt>
      <trkpt lat="48.68969" lon="1.77718">
        <ele>173</ele>
        <time>2014-05-31T14:29:31.000Z</time>
      </trkpt>
      <trkpt lat="48.68963" lon="1.77707">
        <ele>172.60000610352</ele>
        <time>2014-05-31T14:29:37.000Z</time>
      </trkpt>
      <trkpt lat="48.68956" lon="1.77689">
        <ele>171.80000305176</ele>
        <time>2014-05-31T14:29:46.000Z</time>
      </trkpt>
      <trkpt lat="48.68949" lon="1.77678">
        <ele>171.19999694824</ele>
        <time>2014-05-31T14:29:52.000Z</time>
      </trkpt>
      <trkpt lat="48.6894" lon="1.77662">
        <ele>170.39999389648</ele>
        <time>2014-05-31T14:30:01.000Z</time>
      </trkpt>
      <trkpt lat="48.68933" lon="1.77649">
        <ele>169.60000610352</ele>
        <time>2014-05-31T14:30:08.000Z</time>
      </trkpt>
      <trkpt lat="48.68923" lon="1.77633">
        <ele>168.80000305176</ele>
        <time>2014-05-31T14:30:18.000Z</time>
      </trkpt>
      <trkpt lat="48.68917" lon="1.77625">
        <ele>168.19999694824</ele>
        <time>2014-05-31T14:30:23.000Z</time>
      </trkpt>
      <trkpt lat="48.68911" lon="1.77614">
        <ele>167.60000610352</ele>
        <time>2014-05-31T14:30:29.000Z</time>
      </trkpt>
      <trkpt lat="48.68903" lon="1.77603">
        <ele>167</ele>
        <time>2014-05-31T14:30:37.000Z</time>
      </trkpt>
      <trkpt lat="48.68902" lon="1.77601">
        <ele>166.80000305176</ele>
        <time>2014-05-31T14:30:38.000Z</time>
      </trkpt>
      <trkpt lat="48.68891" lon="1.77586">
        <ele>166</ele>
        <time>2014-05-31T14:30:45.000Z</time>
      </trkpt>
      <trkpt lat="48.68885" lon="1.77575">
        <ele>165.19999694824</ele>
        <time>2014-05-31T14:30:51.000Z</time>
      </trkpt>
      <trkpt lat="48.68879" lon="1.77557">
        <ele>165</ele>
        <time>2014-05-31T14:31:00.000Z</time>
      </trkpt>
      <trkpt lat="48.6887" lon="1.77534">
        <ele>164.60000610352</ele>
        <time>2014-05-31T14:31:11.000Z</time>
      </trkpt>
      <trkpt lat="48.68864" lon="1.77511">
        <ele>164.39999389648</ele>
        <time>2014-05-31T14:31:22.000Z</time>
      </trkpt>
      <trkpt lat="48.68858" lon="1.77491">
        <ele>164.19999694824</ele>
        <time>2014-05-31T14:31:31.000Z</time>
      </trkpt>
      <trkpt lat="48.68855" lon="1.77479">
        <ele>163.80000305176</ele>
        <time>2014-05-31T14:31:37.000Z</time>
      </trkpt>
      <trkpt lat="48.6885" lon="1.77461">
        <ele>163.39999389648</ele>
        <time>2014-05-31T14:31:45.000Z</time>
      </trkpt>
      <trkpt lat="48.68846" lon="1.77449">
        <ele>163</ele>
        <time>2014-05-31T14:31:50.000Z</time>
      </trkpt>
      <trkpt lat="48.68842" lon="1.77432">
        <ele>162.60000610352</ele>
        <time>2014-05-31T14:31:57.000Z</time>
      </trkpt>
      <trkpt lat="48.68838" lon="1.77416">
        <ele>162.19999694824</ele>
        <time>2014-05-31T14:32:04.000Z</time>
      </trkpt>
      <trkpt lat="48.68834" lon="1.77396">
        <ele>161.60000610352</ele>
        <time>2014-05-31T14:32:13.000Z</time>
      </trkpt>
      <trkpt lat="48.6883" lon="1.77385">
        <ele>161.19999694824</ele>
        <time>2014-05-31T14:32:18.000Z</time>
      </trkpt>
      <trkpt lat="48.68826" lon="1.77362">
        <ele>160.39999389648</ele>
        <time>2014-05-31T14:32:27.000Z</time>
      </trkpt>
      <trkpt lat="48.68822" lon="1.77348">
        <ele>160</ele>
        <time>2014-05-31T14:32:33.000Z</time>
      </trkpt>
      <trkpt lat="48.6882" lon="1.77336">
        <ele>159.60000610352</ele>
        <time>2014-05-31T14:32:39.000Z</time>
      </trkpt>
      <trkpt lat="48.68816" lon="1.77322">
        <ele>159</ele>
        <time>2014-05-31T14:32:45.000Z</time>
      </trkpt>
      <trkpt lat="48.68813" lon="1.77304">
        <ele>158.39999389648</ele>
        <time>2014-05-31T14:32:53.000Z</time>
      </trkpt>
      <trkpt lat="48.68811" lon="1.77297">
        <ele>158.19999694824</ele>
        <time>2014-05-31T14:32:56.000Z</time>
      </trkpt>
      <trkpt lat="48.68805" lon="1.77281">
        <ele>157.60000610352</ele>
        <time>2014-05-31T14:33:04.000Z</time>
      </trkpt>
      <trkpt lat="48.68798" lon="1.77265">
        <ele>157</ele>
        <time>2014-05-31T14:33:13.000Z</time>
      </trkpt>
      <trkpt lat="48.68791" lon="1.77254">
        <ele>156.80000305176</ele>
        <time>2014-05-31T14:33:20.000Z</time>
      </trkpt>
      <trkpt lat="48.68782" lon="1.77237">
        <ele>156.39999389648</ele>
        <time>2014-05-31T14:33:30.000Z</time>
      </trkpt>
      <trkpt lat="48.68774" lon="1.77225">
        <ele>155.60000610352</ele>
        <time>2014-05-31T14:33:37.000Z</time>
      </trkpt>
      <trkpt lat="48.68764" lon="1.77207">
        <ele>154.80000305176</ele>
        <time>2014-05-31T14:33:47.000Z</time>
      </trkpt>
      <trkpt lat="48.6876" lon="1.77201">
        <ele>154.39999389648</ele>
        <time>2014-05-31T14:33:51.000Z</time>
      </trkpt>
      <trkpt lat="48.68751" lon="1.77189">
        <ele>153.80000305176</ele>
        <time>2014-05-31T14:33:58.000Z</time>
      </trkpt>
      <trkpt lat="48.68743" lon="1.77181">
        <ele>153.19999694824</ele>
        <time>2014-05-31T14:34:04.000Z</time>
      </trkpt>
      <trkpt lat="48.68736" lon="1.77167">
        <ele>152.60000610352</ele>
        <time>2014-05-31T14:34:12.000Z</time>
      </trkpt>
      <trkpt lat="48.68736" lon="1.77166">
        <ele>152.60000610352</ele>
        <time>2014-05-31T14:34:14.000Z</time>
      </trkpt>
      <trkpt lat="48.68734" lon="1.77162">
        <ele>152.39999389648</ele>
        <time>2014-05-31T14:34:20.000Z</time>
      </trkpt>
      <trkpt lat="48.68725" lon="1.77146">
        <ele>152</ele>
        <time>2014-05-31T14:34:28.000Z</time>
      </trkpt>
      <trkpt lat="48.68719" lon="1.77134">
        <ele>152</ele>
        <time>2014-05-31T14:34:35.000Z</time>
      </trkpt>
      <trkpt lat="48.68713" lon="1.77119">
        <ele>152</ele>
        <time>2014-05-31T14:34:43.000Z</time>
      </trkpt>
      <trkpt lat="48.68709" lon="1.77103">
        <ele>152.19999694824</ele>
        <time>2014-05-31T14:34:51.000Z</time>
      </trkpt>
      <trkpt lat="48.68708" lon="1.77082">
        <ele>152</ele>
        <time>2014-05-31T14:35:00.000Z</time>
      </trkpt>
      <trkpt lat="48.68708" lon="1.77066">
        <ele>151.80000305176</ele>
        <time>2014-05-31T14:35:07.000Z</time>
      </trkpt>
      <trkpt lat="48.68709" lon="1.77045">
        <ele>152</ele>
        <time>2014-05-31T14:35:16.000Z</time>
      </trkpt>
      <trkpt lat="48.68711" lon="1.77032">
        <ele>152.19999694824</ele>
        <time>2014-05-31T14:35:22.000Z</time>
      </trkpt>
      <trkpt lat="48.68714" lon="1.77014">
        <ele>152.39999389648</ele>
        <time>2014-05-31T14:35:31.000Z</time>
      </trkpt>
      <trkpt lat="48.68715" lon="1.77004">
        <ele>152.39999389648</ele>
        <time>2014-05-31T14:35:35.000Z</time>
      </trkpt>
      <trkpt lat="48.68715" lon="1.76995">
        <ele>152.39999389648</ele>
        <time>2014-05-31T14:35:39.000Z</time>
      </trkpt>
      <trkpt lat="48.68716" lon="1.7698">
        <ele>152.39999389648</ele>
        <time>2014-05-31T14:35:46.000Z</time>
      </trkpt>
      <trkpt lat="48.68717" lon="1.76961">
        <ele>152.60000610352</ele>
        <time>2014-05-31T14:35:53.000Z</time>
      </trkpt>
      <trkpt lat="48.68718" lon="1.76954">
        <ele>152.60000610352</ele>
        <time>2014-05-31T14:35:57.000Z</time>
      </trkpt>
      <trkpt lat="48.68719" lon="1.76941">
        <ele>152.80000305176</ele>
        <time>2014-05-31T14:36:03.000Z</time>
      </trkpt>
      <trkpt lat="48.68719" lon="1.76937">
        <ele>152.80000305176</ele>
        <time>2014-05-31T14:36:05.000Z</time>
      </trkpt>
      <trkpt lat="48.6872" lon="1.76926">
        <ele>153</ele>
        <time>2014-05-31T14:36:10.000Z</time>
      </trkpt>
      <trkpt lat="48.68721" lon="1.76911">
        <ele>153.39999389648</ele>
        <time>2014-05-31T14:36:17.000Z</time>
      </trkpt>
      <trkpt lat="48.68723" lon="1.76902">
        <ele>153.60000610352</ele>
        <time>2014-05-31T14:36:22.000Z</time>
      </trkpt>
      <trkpt lat="48.68723" lon="1.76893">
        <ele>153.80000305176</ele>
        <time>2014-05-31T14:36:27.000Z</time>
      </trkpt>
      <trkpt lat="48.68723" lon="1.76885">
        <ele>154</ele>
        <time>2014-05-31T14:36:31.000Z</time>
      </trkpt>
      <trkpt lat="48.68725" lon="1.76867">
        <ele>154.39999389648</ele>
        <time>2014-05-31T14:36:39.000Z</time>
      </trkpt>
      <trkpt lat="48.68727" lon="1.76854">
        <ele>154.80000305176</ele>
        <time>2014-05-31T14:36:45.000Z</time>
      </trkpt>
      <trkpt lat="48.68727" lon="1.76833">
        <ele>155.19999694824</ele>
        <time>2014-05-31T14:36:53.000Z</time>
      </trkpt>
      <trkpt lat="48.68728" lon="1.76816">
        <ele>155.60000610352</ele>
        <time>2014-05-31T14:37:01.000Z</time>
      </trkpt>
      <trkpt lat="48.68728" lon="1.76814">
        <ele>155.60000610352</ele>
        <time>2014-05-31T14:37:02.000Z</time>
      </trkpt>
      <trkpt lat="48.68728" lon="1.76791">
        <ele>155.80000305176</ele>
        <time>2014-05-31T14:37:12.000Z</time>
      </trkpt>
      <trkpt lat="48.68729" lon="1.76778">
        <ele>156</ele>
        <time>2014-05-31T14:37:18.000Z</time>
      </trkpt>
      <trkpt lat="48.68731" lon="1.76767">
        <ele>156.19999694824</ele>
        <time>2014-05-31T14:37:24.000Z</time>
      </trkpt>
      <trkpt lat="48.68731" lon="1.7675">
        <ele>156.39999389648</ele>
        <time>2014-05-31T14:37:31.000Z</time>
      </trkpt>
      <trkpt lat="48.68732" lon="1.76727">
        <ele>156.39999389648</ele>
        <time>2014-05-31T14:37:39.000Z</time>
      </trkpt>
      <trkpt lat="48.68732" lon="1.76713">
        <ele>156.39999389648</ele>
        <time>2014-05-31T14:37:45.000Z</time>
      </trkpt>
      <trkpt lat="48.68732" lon="1.76703">
        <ele>156.39999389648</ele>
        <time>2014-05-31T14:37:49.000Z</time>
      </trkpt>
      <trkpt lat="48.68735" lon="1.76689">
        <ele>156.19999694824</ele>
        <time>2014-05-31T14:37:56.000Z</time>
      </trkpt>
      <trkpt lat="48.68737" lon="1.76675">
        <ele>156</ele>
        <time>2014-05-31T14:38:03.000Z</time>
      </trkpt>
      <trkpt lat="48.68736" lon="1.76664">
        <ele>156</ele>
        <time>2014-05-31T14:38:08.000Z</time>
      </trkpt>
      <trkpt lat="48.68735" lon="1.76642">
        <ele>156</ele>
        <time>2014-05-31T14:38:17.000Z</time>
      </trkpt>
      <trkpt lat="48.68738" lon="1.76623">
        <ele>156.19999694824</ele>
        <time>2014-05-31T14:38:26.000Z</time>
      </trkpt>
      <trkpt lat="48.68738" lon="1.76621">
        <ele>156.19999694824</ele>
        <time>2014-05-31T14:38:27.000Z</time>
      </trkpt>
      <trkpt lat="48.68737" lon="1.76606">
        <ele>156.60000610352</ele>
        <time>2014-05-31T14:38:33.000Z</time>
      </trkpt>
      <trkpt lat="48.68738" lon="1.76594">
        <ele>156.80000305176</ele>
        <time>2014-05-31T14:38:39.000Z</time>
      </trkpt>
      <trkpt lat="48.68738" lon="1.76574">
        <ele>157.19999694824</ele>
        <time>2014-05-31T14:38:48.000Z</time>
      </trkpt>
      <trkpt lat="48.6874" lon="1.76564">
        <ele>157.39999389648</ele>
        <time>2014-05-31T14:38:53.000Z</time>
      </trkpt>
      <trkpt lat="48.68743" lon="1.76548">
        <ele>157.60000610352</ele>
        <time>2014-05-31T14:39:01.000Z</time>
      </trkpt>
      <trkpt lat="48.68745" lon="1.76533">
        <ele>157.80000305176</ele>
        <time>2014-05-31T14:39:08.000Z</time>
      </trkpt>
      <trkpt lat="48.68746" lon="1.76521">
        <ele>157.80000305176</ele>
        <time>2014-05-31T14:39:14.000Z</time>
      </trkpt>
      <trkpt lat="48.68746" lon="1.76505">
        <ele>158</ele>
        <time>2014-05-31T14:39:20.000Z</time>
      </trkpt>
      <trkpt lat="48.68746" lon="1.76496">
        <ele>158.19999694824</ele>
        <time>2014-05-31T14:39:23.000Z</time>
      </trkpt>
      <trkpt lat="48.68748" lon="1.76488">
        <ele>158.19999694824</ele>
        <time>2014-05-31T14:39:27.000Z</time>
      </trkpt>
      <trkpt lat="48.6875" lon="1.76469">
        <ele>158.39999389648</ele>
        <time>2014-05-31T14:39:36.000Z</time>
      </trkpt>
      <trkpt lat="48.68752" lon="1.76461">
        <ele>159</ele>
        <time>2014-05-31T14:39:40.000Z</time>
      </trkpt>
      <trkpt lat="48.68747" lon="1.76446">
        <ele>159.60000610352</ele>
        <time>2014-05-31T14:39:47.000Z</time>
      </trkpt>
      <trkpt lat="48.68749" lon="1.7643">
        <ele>160.60000610352</ele>
        <time>2014-05-31T14:39:53.000Z</time>
      </trkpt>
      <trkpt lat="48.68751" lon="1.76407">
        <ele>162.19999694824</ele>
        <time>2014-05-31T14:39:58.000Z</time>
      </trkpt>
      <trkpt lat="48.68752" lon="1.76368">
        <ele>162.19999694824</ele>
        <time>2014-05-31T14:40:05.000Z</time>
      </trkpt>
      <trkpt lat="48.68755" lon="1.76321">
        <ele>162.19999694824</ele>
        <time>2014-05-31T14:40:12.000Z</time>
      </trkpt>
      <trkpt lat="48.68756" lon="1.763">
        <ele>162</ele>
        <time>2014-05-31T14:40:15.000Z</time>
      </trkpt>
      <trkpt lat="48.68757" lon="1.76282">
        <ele>161.80000305176</ele>
        <time>2014-05-31T14:40:19.000Z</time>
      </trkpt>
      <trkpt lat="48.68758" lon="1.76268">
        <ele>161.60000610352</ele>
        <time>2014-05-31T14:40:21.000Z</time>
      </trkpt>
      <trkpt lat="48.68759" lon="1.7624">
        <ele>161.39999389648</ele>
        <time>2014-05-31T14:40:26.000Z</time>
      </trkpt>
      <trkpt lat="48.68759" lon="1.76234">
        <ele>161.39999389648</ele>
        <time>2014-05-31T14:40:27.000Z</time>
      </trkpt>
      <trkpt lat="48.68763" lon="1.76182">
        <ele>162.19999694824</ele>
        <time>2014-05-31T14:40:36.000Z</time>
      </trkpt>
      <trkpt lat="48.68766" lon="1.76149">
        <ele>162.80000305176</ele>
        <time>2014-05-31T14:40:42.000Z</time>
      </trkpt>
      <trkpt lat="48.68768" lon="1.76129">
        <ele>163.19999694824</ele>
        <time>2014-05-31T14:40:46.000Z</time>
      </trkpt>
      <trkpt lat="48.68773" lon="1.76107">
        <ele>163.80000305176</ele>
        <time>2014-05-31T14:40:51.000Z</time>
      </trkpt>
      <trkpt lat="48.68777" lon="1.76084">
        <ele>164.39999389648</ele>
        <time>2014-05-31T14:40:56.000Z</time>
      </trkpt>
      <trkpt lat="48.68781" lon="1.76057">
        <ele>164.19999694824</ele>
        <time>2014-05-31T14:41:01.000Z</time>
      </trkpt>
      <trkpt lat="48.68787" lon="1.76014">
        <ele>164</ele>
        <time>2014-05-31T14:41:08.000Z</time>
      </trkpt>
      <trkpt lat="48.68789" lon="1.76003">
        <ele>163.80000305176</ele>
        <time>2014-05-31T14:41:10.000Z</time>
      </trkpt>
      <trkpt lat="48.68796" lon="1.75968">
        <ele>164</ele>
        <time>2014-05-31T14:41:17.000Z</time>
      </trkpt>
      <trkpt lat="48.68801" lon="1.75956">
        <ele>164.19999694824</ele>
        <time>2014-05-31T14:41:21.000Z</time>
      </trkpt>
      <trkpt lat="48.68806" lon="1.75941">
        <ele>164.19999694824</ele>
        <time>2014-05-31T14:41:25.000Z</time>
      </trkpt>
      <trkpt lat="48.68812" lon="1.75907">
        <ele>163.60000610352</ele>
        <time>2014-05-31T14:41:32.000Z</time>
      </trkpt>
      <trkpt lat="48.68818" lon="1.75879">
        <ele>163</ele>
        <time>2014-05-31T14:41:37.000Z</time>
      </trkpt>
      <trkpt lat="48.68828" lon="1.75837">
        <ele>163</ele>
        <time>2014-05-31T14:41:45.000Z</time>
      </trkpt>
      <trkpt lat="48.68837" lon="1.75801">
        <ele>163.19999694824</ele>
        <time>2014-05-31T14:41:52.000Z</time>
      </trkpt>
      <trkpt lat="48.6885" lon="1.75792">
        <ele>163.60000610352</ele>
        <time>2014-05-31T14:41:56.000Z</time>
      </trkpt>
      <trkpt lat="48.68871" lon="1.75792">
        <ele>164.39999389648</ele>
        <time>2014-05-31T14:42:02.000Z</time>
      </trkpt>
      <trkpt lat="48.68882" lon="1.75794">
        <ele>164.80000305176</ele>
        <time>2014-05-31T14:42:06.000Z</time>
      </trkpt>
      <trkpt lat="48.6889" lon="1.75796">
        <ele>165</ele>
        <time>2014-05-31T14:42:08.000Z</time>
      </trkpt>
      <trkpt lat="48.6891" lon="1.75799">
        <ele>165.80000305176</ele>
        <time>2014-05-31T14:42:12.000Z</time>
      </trkpt>
      <trkpt lat="48.68948" lon="1.75793">
        <ele>166.60000610352</ele>
        <time>2014-05-31T14:42:18.000Z</time>
      </trkpt>
      <trkpt lat="48.68959" lon="1.75791">
        <ele>166.60000610352</ele>
        <time>2014-05-31T14:42:20.000Z</time>
      </trkpt>
      <trkpt lat="48.68986" lon="1.75785">
        <ele>166.60000610352</ele>
        <time>2014-05-31T14:42:25.000Z</time>
      </trkpt>
      <trkpt lat="48.68996" lon="1.75785">
        <ele>166.39999389648</ele>
        <time>2014-05-31T14:42:27.000Z</time>
      </trkpt>
      <trkpt lat="48.6902" lon="1.75791">
        <ele>166.19999694824</ele>
        <time>2014-05-31T14:42:32.000Z</time>
      </trkpt>
      <trkpt lat="48.69032" lon="1.75796">
        <ele>166.19999694824</ele>
        <time>2014-05-31T14:42:34.000Z</time>
      </trkpt>
      <trkpt lat="48.69069" lon="1.75809">
        <ele>166.19999694824</ele>
        <time>2014-05-31T14:42:40.000Z</time>
      </trkpt>
      <trkpt lat="48.69074" lon="1.7581">
        <ele>166</ele>
        <time>2014-05-31T14:42:41.000Z</time>
      </trkpt>
      <trkpt lat="48.6909" lon="1.75819">
        <ele>166.19999694824</ele>
        <time>2014-05-31T14:42:45.000Z</time>
      </trkpt>
      <trkpt lat="48.69107" lon="1.75826">
        <ele>166.19999694824</ele>
        <time>2014-05-31T14:42:48.000Z</time>
      </trkpt>
      <trkpt lat="48.69136" lon="1.75825">
        <ele>165.80000305176</ele>
        <time>2014-05-31T14:42:52.000Z</time>
      </trkpt>
      <trkpt lat="48.69149" lon="1.75824">
        <ele>165.60000610352</ele>
        <time>2014-05-31T14:42:54.000Z</time>
      </trkpt>
      <trkpt lat="48.69179" lon="1.75824">
        <ele>165.19999694824</ele>
        <time>2014-05-31T14:42:59.000Z</time>
      </trkpt>
      <trkpt lat="48.69192" lon="1.75823">
        <ele>165</ele>
        <time>2014-05-31T14:43:01.000Z</time>
      </trkpt>
      <trkpt lat="48.69205" lon="1.75824">
        <ele>165</ele>
        <time>2014-05-31T14:43:03.000Z</time>
      </trkpt>
      <trkpt lat="48.69233" lon="1.75828">
        <ele>164.80000305176</ele>
        <time>2014-05-31T14:43:09.000Z</time>
      </trkpt>
      <trkpt lat="48.69237" lon="1.75828">
        <ele>164.80000305176</ele>
        <time>2014-05-31T14:43:10.000Z</time>
      </trkpt>
      <trkpt lat="48.69244" lon="1.75828">
        <ele>164.80000305176</ele>
        <time>2014-05-31T14:43:12.000Z</time>
      </trkpt>
      <trkpt lat="48.69264" lon="1.7583">
        <ele>164.60000610352</ele>
        <time>2014-05-31T14:43:17.000Z</time>
      </trkpt>
      <trkpt lat="48.69281" lon="1.75826">
        <ele>164.39999389648</ele>
        <time>2014-05-31T14:43:21.000Z</time>
      </trkpt>
      <trkpt lat="48.69306" lon="1.75824">
        <ele>164.60000610352</ele>
        <time>2014-05-31T14:43:27.000Z</time>
      </trkpt>
      <trkpt lat="48.69319" lon="1.75825">
        <ele>164.80000305176</ele>
        <time>2014-05-31T14:43:31.000Z</time>
      </trkpt>
      <trkpt lat="48.69335" lon="1.75827">
        <ele>165</ele>
        <time>2014-05-31T14:43:36.000Z</time>
      </trkpt>
      <trkpt lat="48.69351" lon="1.75828">
        <ele>165.19999694824</ele>
        <time>2014-05-31T14:43:41.000Z</time>
      </trkpt>
      <trkpt lat="48.69356" lon="1.7583">
        <ele>165.39999389648</ele>
        <time>2014-05-31T14:43:43.000Z</time>
      </trkpt>
      <trkpt lat="48.6937" lon="1.75834">
        <ele>165.80000305176</ele>
        <time>2014-05-31T14:43:48.000Z</time>
      </trkpt>
      <trkpt lat="48.69377" lon="1.75836">
        <ele>166</ele>
        <time>2014-05-31T14:43:50.000Z</time>
      </trkpt>
      <trkpt lat="48.69407" lon="1.75843">
        <ele>166.80000305176</ele>
        <time>2014-05-31T14:43:58.000Z</time>
      </trkpt>
      <trkpt lat="48.69424" lon="1.75851">
        <ele>167.39999389648</ele>
        <time>2014-05-31T14:44:03.000Z</time>
      </trkpt>
      <trkpt lat="48.69446" lon="1.75853">
        <ele>168</ele>
        <time>2014-05-31T14:44:09.000Z</time>
      </trkpt>
      <trkpt lat="48.69464" lon="1.75852">
        <ele>168.39999389648</ele>
        <time>2014-05-31T14:44:14.000Z</time>
      </trkpt>
      <trkpt lat="48.69485" lon="1.7585">
        <ele>167.80000305176</ele>
        <time>2014-05-31T14:44:20.000Z</time>
      </trkpt>
      <trkpt lat="48.69509" lon="1.7585">
        <ele>166.80000305176</ele>
        <time>2014-05-31T14:44:27.000Z</time>
      </trkpt>
      <trkpt lat="48.69525" lon="1.75851">
        <ele>166.39999389648</ele>
        <time>2014-05-31T14:44:32.000Z</time>
      </trkpt>
      <trkpt lat="48.69542" lon="1.75854">
        <ele>166.19999694824</ele>
        <time>2014-05-31T14:44:37.000Z</time>
      </trkpt>
      <trkpt lat="48.69558" lon="1.75853">
        <ele>166</ele>
        <time>2014-05-31T14:44:42.000Z</time>
      </trkpt>
      <trkpt lat="48.69573" lon="1.75853">
        <ele>166.39999389648</ele>
        <time>2014-05-31T14:44:47.000Z</time>
      </trkpt>
      <trkpt lat="48.69585" lon="1.75854">
        <ele>166.80000305176</ele>
        <time>2014-05-31T14:44:52.000Z</time>
      </trkpt>
      <trkpt lat="48.69596" lon="1.75858">
        <ele>167.19999694824</ele>
        <time>2014-05-31T14:44:59.000Z</time>
      </trkpt>
      <trkpt lat="48.69607" lon="1.75862">
        <ele>167.39999389648</ele>
        <time>2014-05-31T14:45:05.000Z</time>
      </trkpt>
      <trkpt lat="48.69621" lon="1.75864">
        <ele>167.19999694824</ele>
        <time>2014-05-31T14:45:12.000Z</time>
      </trkpt>
      <trkpt lat="48.69628" lon="1.7587">
        <ele>167.19999694824</ele>
        <time>2014-05-31T14:45:16.000Z</time>
      </trkpt>
      <trkpt lat="48.69633" lon="1.75872">
        <ele>167.19999694824</ele>
        <time>2014-05-31T14:45:19.000Z</time>
      </trkpt>
      <trkpt lat="48.69639" lon="1.75877">
        <ele>167.19999694824</ele>
        <time>2014-05-31T14:45:23.000Z</time>
      </trkpt>
      <trkpt lat="48.69646" lon="1.75878">
        <ele>167</ele>
        <time>2014-05-31T14:45:28.000Z</time>
      </trkpt>
      <trkpt lat="48.69657" lon="1.75893">
        <ele>167.39999389648</ele>
        <time>2014-05-31T14:45:34.000Z</time>
      </trkpt>
      <trkpt lat="48.69658" lon="1.75894">
        <ele>167.39999389648</ele>
        <time>2014-05-31T14:45:35.000Z</time>
      </trkpt>
      <trkpt lat="48.69672" lon="1.75896">
        <ele>167</ele>
        <time>2014-05-31T14:45:43.000Z</time>
      </trkpt>
      <trkpt lat="48.69677" lon="1.759">
        <ele>167</ele>
        <time>2014-05-31T14:45:47.000Z</time>
      </trkpt>
      <trkpt lat="48.69688" lon="1.75903">
        <ele>166.80000305176</ele>
        <time>2014-05-31T14:45:54.000Z</time>
      </trkpt>
      <trkpt lat="48.69693" lon="1.75905">
        <ele>167</ele>
        <time>2014-05-31T14:45:58.000Z</time>
      </trkpt>
      <trkpt lat="48.69699" lon="1.75911">
        <ele>167.19999694824</ele>
        <time>2014-05-31T14:46:03.000Z</time>
      </trkpt>
      <trkpt lat="48.69702" lon="1.75914">
        <ele>167.19999694824</ele>
        <time>2014-05-31T14:46:05.000Z</time>
      </trkpt>
      <trkpt lat="48.6971" lon="1.75916">
        <ele>167.19999694824</ele>
        <time>2014-05-31T14:46:11.000Z</time>
      </trkpt>
      <trkpt lat="48.69711" lon="1.75917">
        <ele>167.19999694824</ele>
        <time>2014-05-31T14:46:12.000Z</time>
      </trkpt>
      <trkpt lat="48.69721" lon="1.75922">
        <ele>167.39999389648</ele>
        <time>2014-05-31T14:46:18.000Z</time>
      </trkpt>
      <trkpt lat="48.69731" lon="1.75934">
        <ele>167.80000305176</ele>
        <time>2014-05-31T14:46:27.000Z</time>
      </trkpt>
      <trkpt lat="48.69737" lon="1.75936">
        <ele>168</ele>
        <time>2014-05-31T14:46:32.000Z</time>
      </trkpt>
      <trkpt lat="48.69745" lon="1.75935">
        <ele>167.80000305176</ele>
        <time>2014-05-31T14:46:37.000Z</time>
      </trkpt>
      <trkpt lat="48.69752" lon="1.75937">
        <ele>167.80000305176</ele>
        <time>2014-05-31T14:46:42.000Z</time>
      </trkpt>
      <trkpt lat="48.69759" lon="1.75942">
        <ele>168</ele>
        <time>2014-05-31T14:46:48.000Z</time>
      </trkpt>
      <trkpt lat="48.69767" lon="1.7595">
        <ele>168.19999694824</ele>
        <time>2014-05-31T14:46:55.000Z</time>
      </trkpt>
      <trkpt lat="48.69776" lon="1.75957">
        <ele>168.39999389648</ele>
        <time>2014-05-31T14:47:02.000Z</time>
      </trkpt>
      <trkpt lat="48.69784" lon="1.75963">
        <ele>168.39999389648</ele>
        <time>2014-05-31T14:47:08.000Z</time>
      </trkpt>
      <trkpt lat="48.69792" lon="1.75971">
        <ele>168.39999389648</ele>
        <time>2014-05-31T14:47:15.000Z</time>
      </trkpt>
      <trkpt lat="48.69801" lon="1.75978">
        <ele>168.39999389648</ele>
        <time>2014-05-31T14:47:22.000Z</time>
      </trkpt>
      <trkpt lat="48.69804" lon="1.7598">
        <ele>168.39999389648</ele>
        <time>2014-05-31T14:47:25.000Z</time>
      </trkpt>
      <trkpt lat="48.69812" lon="1.75983">
        <ele>168.19999694824</ele>
        <time>2014-05-31T14:47:30.000Z</time>
      </trkpt>
      <trkpt lat="48.69818" lon="1.75985">
        <ele>168.19999694824</ele>
        <time>2014-05-31T14:47:34.000Z</time>
      </trkpt>
      <trkpt lat="48.69825" lon="1.75991">
        <ele>168.19999694824</ele>
        <time>2014-05-31T14:47:39.000Z</time>
      </trkpt>
      <trkpt lat="48.6983" lon="1.75993">
        <ele>168.19999694824</ele>
        <time>2014-05-31T14:47:43.000Z</time>
      </trkpt>
      <trkpt lat="48.6984" lon="1.75998">
        <ele>168.19999694824</ele>
        <time>2014-05-31T14:47:50.000Z</time>
      </trkpt>
      <trkpt lat="48.69853" lon="1.76001">
        <ele>167.80000305176</ele>
        <time>2014-05-31T14:47:58.000Z</time>
      </trkpt>
      <trkpt lat="48.69861" lon="1.76005">
        <ele>167.60000610352</ele>
        <time>2014-05-31T14:48:04.000Z</time>
      </trkpt>
      <trkpt lat="48.69871" lon="1.76014">
        <ele>167.39999389648</ele>
        <time>2014-05-31T14:48:11.000Z</time>
      </trkpt>
      <trkpt lat="48.6988" lon="1.76024">
        <ele>167.19999694824</ele>
        <time>2014-05-31T14:48:18.000Z</time>
      </trkpt>
      <trkpt lat="48.69889" lon="1.76037">
        <ele>167.39999389648</ele>
        <time>2014-05-31T14:48:26.000Z</time>
      </trkpt>
      <trkpt lat="48.69898" lon="1.76049">
        <ele>167.39999389648</ele>
        <time>2014-05-31T14:48:33.000Z</time>
      </trkpt>
      <trkpt lat="48.69905" lon="1.7606">
        <ele>167.60000610352</ele>
        <time>2014-05-31T14:48:40.000Z</time>
      </trkpt>
      <trkpt lat="48.69906" lon="1.76062">
        <ele>167.60000610352</ele>
        <time>2014-05-31T14:48:42.000Z</time>
      </trkpt>
      <trkpt lat="48.69912" lon="1.76068">
        <ele>167.60000610352</ele>
        <time>2014-05-31T14:48:46.000Z</time>
      </trkpt>
      <trkpt lat="48.6992" lon="1.76074">
        <ele>167.39999389648</ele>
        <time>2014-05-31T14:48:52.000Z</time>
      </trkpt>
      <trkpt lat="48.69928" lon="1.76078">
        <ele>167</ele>
        <time>2014-05-31T14:48:57.000Z</time>
      </trkpt>
      <trkpt lat="48.69935" lon="1.76086">
        <ele>166.80000305176</ele>
        <time>2014-05-31T14:49:03.000Z</time>
      </trkpt>
      <trkpt lat="48.69939" lon="1.7609">
        <ele>166.80000305176</ele>
        <time>2014-05-31T14:49:06.000Z</time>
      </trkpt>
      <trkpt lat="48.69947" lon="1.76098">
        <ele>166.80000305176</ele>
        <time>2014-05-31T14:49:12.000Z</time>
      </trkpt>
      <trkpt lat="48.69955" lon="1.7611">
        <ele>167</ele>
        <time>2014-05-31T14:49:18.000Z</time>
      </trkpt>
      <trkpt lat="48.69964" lon="1.76122">
        <ele>167.19999694824</ele>
        <time>2014-05-31T14:49:26.000Z</time>
      </trkpt>
      <trkpt lat="48.69974" lon="1.76135">
        <ele>167.19999694824</ele>
        <time>2014-05-31T14:49:35.000Z</time>
      </trkpt>
      <trkpt lat="48.69976" lon="1.76138">
        <ele>167.39999389648</ele>
        <time>2014-05-31T14:49:37.000Z</time>
      </trkpt>
      <trkpt lat="48.69983" lon="1.7615">
        <ele>167.60000610352</ele>
        <time>2014-05-31T14:49:44.000Z</time>
      </trkpt>
      <trkpt lat="48.69984" lon="1.76153">
        <ele>167.60000610352</ele>
        <time>2014-05-31T14:49:45.000Z</time>
      </trkpt>
      <trkpt lat="48.69991" lon="1.76164">
        <ele>167.60000610352</ele>
        <time>2014-05-31T14:49:52.000Z</time>
      </trkpt>
      <trkpt lat="48.69998" lon="1.76174">
        <ele>167.60000610352</ele>
        <time>2014-05-31T14:49:58.000Z</time>
      </trkpt>
      <trkpt lat="48.70002" lon="1.7618">
        <ele>167.39999389648</ele>
        <time>2014-05-31T14:50:02.000Z</time>
      </trkpt>
      <trkpt lat="48.70011" lon="1.76188">
        <ele>167.19999694824</ele>
        <time>2014-05-31T14:50:09.000Z</time>
      </trkpt>
      <trkpt lat="48.70017" lon="1.76199">
        <ele>167.19999694824</ele>
        <time>2014-05-31T14:50:15.000Z</time>
      </trkpt>
      <trkpt lat="48.70021" lon="1.76201">
        <ele>167.19999694824</ele>
        <time>2014-05-31T14:50:18.000Z</time>
      </trkpt>
      <trkpt lat="48.70026" lon="1.76199">
        <ele>167</ele>
        <time>2014-05-31T14:50:22.000Z</time>
      </trkpt>
      <trkpt lat="48.70032" lon="1.76187">
        <ele>166.80000305176</ele>
        <time>2014-05-31T14:50:28.000Z</time>
      </trkpt>
      <trkpt lat="48.70035" lon="1.7618">
        <ele>166.60000610352</ele>
        <time>2014-05-31T14:50:31.000Z</time>
      </trkpt>
      <trkpt lat="48.70045" lon="1.76163">
        <ele>166.19999694824</ele>
        <time>2014-05-31T14:50:40.000Z</time>
      </trkpt>
      <trkpt lat="48.70055" lon="1.7615">
        <ele>166</ele>
        <time>2014-05-31T14:50:48.000Z</time>
      </trkpt>
      <trkpt lat="48.70056" lon="1.76148">
        <ele>166</ele>
        <time>2014-05-31T14:50:49.000Z</time>
      </trkpt>
      <trkpt lat="48.70063" lon="1.76138">
        <ele>165.80000305176</ele>
        <time>2014-05-31T14:50:55.000Z</time>
      </trkpt>
      <trkpt lat="48.70067" lon="1.76134">
        <ele>165.80000305176</ele>
        <time>2014-05-31T14:50:58.000Z</time>
      </trkpt>
      <trkpt lat="48.70077" lon="1.76121">
        <ele>165.60000610352</ele>
        <time>2014-05-31T14:51:06.000Z</time>
      </trkpt>
      <trkpt lat="48.70083" lon="1.7611">
        <ele>165.39999389648</ele>
        <time>2014-05-31T14:51:12.000Z</time>
      </trkpt>
      <trkpt lat="48.7009" lon="1.76095">
        <ele>165.19999694824</ele>
        <time>2014-05-31T14:51:19.000Z</time>
      </trkpt>
      <trkpt lat="48.70095" lon="1.76089">
        <ele>165.19999694824</ele>
        <time>2014-05-31T14:51:24.000Z</time>
      </trkpt>
      <trkpt lat="48.70099" lon="1.76084">
        <ele>165.19999694824</ele>
        <time>2014-05-31T14:51:28.000Z</time>
      </trkpt>
      <trkpt lat="48.70103" lon="1.7608">
        <ele>165.19999694824</ele>
        <time>2014-05-31T14:51:31.000Z</time>
      </trkpt>
      <trkpt lat="48.70111" lon="1.7607">
        <ele>165</ele>
        <time>2014-05-31T14:51:38.000Z</time>
      </trkpt>
      <trkpt lat="48.70116" lon="1.76064">
        <ele>165.19999694824</ele>
        <time>2014-05-31T14:51:42.000Z</time>
      </trkpt>
      <trkpt lat="48.70118" lon="1.76061">
        <ele>165.19999694824</ele>
        <time>2014-05-31T14:51:44.000Z</time>
      </trkpt>
      <trkpt lat="48.70124" lon="1.76052">
        <ele>165.19999694824</ele>
        <time>2014-05-31T14:51:49.000Z</time>
      </trkpt>
      <trkpt lat="48.70129" lon="1.76043">
        <ele>165.39999389648</ele>
        <time>2014-05-31T14:51:54.000Z</time>
      </trkpt>
      <trkpt lat="48.70131" lon="1.7604">
        <ele>165.39999389648</ele>
        <time>2014-05-31T14:51:56.000Z</time>
      </trkpt>
      <trkpt lat="48.70139" lon="1.76028">
        <ele>165.39999389648</ele>
        <time>2014-05-31T14:52:03.000Z</time>
      </trkpt>
      <trkpt lat="48.70146" lon="1.76018">
        <ele>165.39999389648</ele>
        <time>2014-05-31T14:52:09.000Z</time>
      </trkpt>
      <trkpt lat="48.70152" lon="1.76009">
        <ele>165.19999694824</ele>
        <time>2014-05-31T14:52:14.000Z</time>
      </trkpt>
      <trkpt lat="48.7016" lon="1.76">
        <ele>165.19999694824</ele>
        <time>2014-05-31T14:52:20.000Z</time>
      </trkpt>
      <trkpt lat="48.70168" lon="1.75988">
        <ele>165</ele>
        <time>2014-05-31T14:52:28.000Z</time>
      </trkpt>
      <trkpt lat="48.70176" lon="1.75977">
        <ele>165.19999694824</ele>
        <time>2014-05-31T14:52:35.000Z</time>
      </trkpt>
      <trkpt lat="48.70178" lon="1.75973">
        <ele>165.39999389648</ele>
        <time>2014-05-31T14:52:37.000Z</time>
      </trkpt>
      <trkpt lat="48.70182" lon="1.75967">
        <ele>165.60000610352</ele>
        <time>2014-05-31T14:52:41.000Z</time>
      </trkpt>
      <trkpt lat="48.70185" lon="1.75962">
        <ele>166</ele>
        <time>2014-05-31T14:52:45.000Z</time>
      </trkpt>
      <trkpt lat="48.70191" lon="1.75954">
        <ele>166.60000610352</ele>
        <time>2014-05-31T14:52:51.000Z</time>
      </trkpt>
      <trkpt lat="48.70193" lon="1.7595">
        <ele>167</ele>
        <time>2014-05-31T14:52:53.000Z</time>
      </trkpt>
      <trkpt lat="48.702" lon="1.75939">
        <ele>167.80000305176</ele>
        <time>2014-05-31T14:53:00.000Z</time>
      </trkpt>
      <trkpt lat="48.70205" lon="1.75934">
        <ele>168.60000610352</ele>
        <time>2014-05-31T14:53:04.000Z</time>
      </trkpt>
      <trkpt lat="48.7021" lon="1.75928">
        <ele>169.19999694824</ele>
        <time>2014-05-31T14:53:08.000Z</time>
      </trkpt>
      <trkpt lat="48.70215" lon="1.7592">
        <ele>169.39999389648</ele>
        <time>2014-05-31T14:53:13.000Z</time>
      </trkpt>
      <trkpt lat="48.70223" lon="1.75911">
        <ele>169.80000305176</ele>
        <time>2014-05-31T14:53:19.000Z</time>
      </trkpt>
      <trkpt lat="48.70229" lon="1.75902">
        <ele>170</ele>
        <time>2014-05-31T14:53:26.000Z</time>
      </trkpt>
      <trkpt lat="48.70236" lon="1.75891">
        <ele>170</ele>
        <time>2014-05-31T14:53:34.000Z</time>
      </trkpt>
      <trkpt lat="48.70242" lon="1.75882">
        <ele>170</ele>
        <time>2014-05-31T14:53:40.000Z</time>
      </trkpt>
      <trkpt lat="48.70248" lon="1.75871">
        <ele>170.39999389648</ele>
        <time>2014-05-31T14:53:46.000Z</time>
      </trkpt>
      <trkpt lat="48.70254" lon="1.75862">
        <ele>170.80000305176</ele>
        <time>2014-05-31T14:53:52.000Z</time>
      </trkpt>
      <trkpt lat="48.70256" lon="1.75859">
        <ele>171</ele>
        <time>2014-05-31T14:53:54.000Z</time>
      </trkpt>
      <trkpt lat="48.70261" lon="1.7585">
        <ele>171.39999389648</ele>
        <time>2014-05-31T14:54:00.000Z</time>
      </trkpt>
      <trkpt lat="48.70262" lon="1.75845">
        <ele>171.39999389648</ele>
        <time>2014-05-31T14:54:02.000Z</time>
      </trkpt>
      <trkpt lat="48.70273" lon="1.75835">
        <ele>172.19999694824</ele>
        <time>2014-05-31T14:54:11.000Z</time>
      </trkpt>
      <trkpt lat="48.70284" lon="1.75821">
        <ele>173</ele>
        <time>2014-05-31T14:54:21.000Z</time>
      </trkpt>
      <trkpt lat="48.7029" lon="1.75815">
        <ele>173.60000610352</ele>
        <time>2014-05-31T14:54:27.000Z</time>
      </trkpt>
      <trkpt lat="48.70297" lon="1.75809">
        <ele>174</ele>
        <time>2014-05-31T14:54:34.000Z</time>
      </trkpt>
      <trkpt lat="48.70298" lon="1.75808">
        <ele>174.19999694824</ele>
        <time>2014-05-31T14:54:35.000Z</time>
      </trkpt>
      <trkpt lat="48.70302" lon="1.75799">
        <ele>174.60000610352</ele>
        <time>2014-05-31T14:54:41.000Z</time>
      </trkpt>
      <trkpt lat="48.70303" lon="1.75784">
        <ele>174.80000305176</ele>
        <time>2014-05-31T14:54:47.000Z</time>
      </trkpt>
      <trkpt lat="48.70306" lon="1.75771">
        <ele>175.19999694824</ele>
        <time>2014-05-31T14:54:54.000Z</time>
      </trkpt>
      <trkpt lat="48.70308" lon="1.75764">
        <ele>175.39999389648</ele>
        <time>2014-05-31T14:54:57.000Z</time>
      </trkpt>
      <trkpt lat="48.7031" lon="1.75748">
        <ele>175.80000305176</ele>
        <time>2014-05-31T14:55:04.000Z</time>
      </trkpt>
      <trkpt lat="48.70311" lon="1.75741">
        <ele>175.80000305176</ele>
        <time>2014-05-31T14:55:07.000Z</time>
      </trkpt>
      <trkpt lat="48.70314" lon="1.75732">
        <ele>176.19999694824</ele>
        <time>2014-05-31T14:55:12.000Z</time>
      </trkpt>
      <trkpt lat="48.70318" lon="1.75719">
        <ele>176.19999694824</ele>
        <time>2014-05-31T14:55:18.000Z</time>
      </trkpt>
      <trkpt lat="48.70319" lon="1.75711">
        <ele>176.19999694824</ele>
        <time>2014-05-31T14:55:21.000Z</time>
      </trkpt>
      <trkpt lat="48.7032" lon="1.75706">
        <ele>176.19999694824</ele>
        <time>2014-05-31T14:55:24.000Z</time>
      </trkpt>
      <trkpt lat="48.70322" lon="1.75696">
        <ele>176.39999389648</ele>
        <time>2014-05-31T14:55:31.000Z</time>
      </trkpt>
      <trkpt lat="48.70326" lon="1.75684">
        <ele>176.80000305176</ele>
        <time>2014-05-31T14:55:36.000Z</time>
      </trkpt>
      <trkpt lat="48.70331" lon="1.75664">
        <ele>177.19999694824</ele>
        <time>2014-05-31T14:55:45.000Z</time>
      </trkpt>
      <trkpt lat="48.70334" lon="1.75649">
        <ele>177.39999389648</ele>
        <time>2014-05-31T14:55:52.000Z</time>
      </trkpt>
      <trkpt lat="48.70336" lon="1.75643">
        <ele>177.80000305176</ele>
        <time>2014-05-31T14:55:58.000Z</time>
      </trkpt>
      <trkpt lat="48.70338" lon="1.75636">
        <ele>178.19999694824</ele>
        <time>2014-05-31T14:56:06.000Z</time>
      </trkpt>
      <trkpt lat="48.70343" lon="1.75618">
        <ele>178.60000610352</ele>
        <time>2014-05-31T14:56:10.000Z</time>
      </trkpt>
      <trkpt lat="48.70344" lon="1.75614">
        <ele>178.80000305176</ele>
        <time>2014-05-31T14:56:11.000Z</time>
      </trkpt>
      <trkpt lat="48.70346" lon="1.75593">
        <ele>179.19999694824</ele>
        <time>2014-05-31T14:56:17.000Z</time>
      </trkpt>
      <trkpt lat="48.70351" lon="1.7558">
        <ele>179.60000610352</ele>
        <time>2014-05-31T14:56:22.000Z</time>
      </trkpt>
      <trkpt lat="48.70352" lon="1.75574">
        <ele>179.80000305176</ele>
        <time>2014-05-31T14:56:27.000Z</time>
      </trkpt>
      <trkpt lat="48.70354" lon="1.75561">
        <ele>180.19999694824</ele>
        <time>2014-05-31T14:56:33.000Z</time>
      </trkpt>
      <trkpt lat="48.70356" lon="1.75552">
        <ele>180.39999389648</ele>
        <time>2014-05-31T14:56:37.000Z</time>
      </trkpt>
      <trkpt lat="48.70357" lon="1.75542">
        <ele>180.60000610352</ele>
        <time>2014-05-31T14:56:41.000Z</time>
      </trkpt>
      <trkpt lat="48.70361" lon="1.7553">
        <ele>181</ele>
        <time>2014-05-31T14:56:47.000Z</time>
      </trkpt>
      <trkpt lat="48.70363" lon="1.75519">
        <ele>181.39999389648</ele>
        <time>2014-05-31T14:56:52.000Z</time>
      </trkpt>
      <trkpt lat="48.70367" lon="1.75504">
        <ele>181.80000305176</ele>
        <time>2014-05-31T14:56:59.000Z</time>
      </trkpt>
      <trkpt lat="48.70369" lon="1.75492">
        <ele>181.60000610352</ele>
        <time>2014-05-31T14:57:05.000Z</time>
      </trkpt>
      <trkpt lat="48.70374" lon="1.75477">
        <ele>181.80000305176</ele>
        <time>2014-05-31T14:57:12.000Z</time>
      </trkpt>
      <trkpt lat="48.70376" lon="1.75464">
        <ele>181.80000305176</ele>
        <time>2014-05-31T14:57:18.000Z</time>
      </trkpt>
      <trkpt lat="48.70374" lon="1.7545">
        <ele>181.80000305176</ele>
        <time>2014-05-31T14:57:25.000Z</time>
      </trkpt>
      <trkpt lat="48.70371" lon="1.75441">
        <ele>181.60000610352</ele>
        <time>2014-05-31T14:57:31.000Z</time>
      </trkpt>
      <trkpt lat="48.70373" lon="1.75432">
        <ele>181.80000305176</ele>
        <time>2014-05-31T14:57:36.000Z</time>
      </trkpt>
      <trkpt lat="48.70378" lon="1.75421">
        <ele>181.80000305176</ele>
        <time>2014-05-31T14:57:40.000Z</time>
      </trkpt>
      <trkpt lat="48.70389" lon="1.75414">
        <ele>181.60000610352</ele>
        <time>2014-05-31T14:57:47.000Z</time>
      </trkpt>
      <trkpt lat="48.70397" lon="1.75414">
        <ele>181.80000305176</ele>
        <time>2014-05-31T14:57:52.000Z</time>
      </trkpt>
      <trkpt lat="48.70408" lon="1.75421">
        <ele>182</ele>
        <time>2014-05-31T14:58:00.000Z</time>
      </trkpt>
      <trkpt lat="48.70418" lon="1.75425">
        <ele>182.19999694824</ele>
        <time>2014-05-31T14:58:06.000Z</time>
      </trkpt>
      <trkpt lat="48.70423" lon="1.75425">
        <ele>182.39999389648</ele>
        <time>2014-05-31T14:58:09.000Z</time>
      </trkpt>
      <trkpt lat="48.70425" lon="1.75426">
        <ele>182.39999389648</ele>
        <time>2014-05-31T14:58:11.000Z</time>
      </trkpt>
      <trkpt lat="48.70434" lon="1.75433">
        <ele>182.60000610352</ele>
        <time>2014-05-31T14:58:18.000Z</time>
      </trkpt>
      <trkpt lat="48.70443" lon="1.75439">
        <ele>182.60000610352</ele>
        <time>2014-05-31T14:58:25.000Z</time>
      </trkpt>
      <trkpt lat="48.7045" lon="1.75444">
        <ele>182.39999389648</ele>
        <time>2014-05-31T14:58:30.000Z</time>
      </trkpt>
      <trkpt lat="48.70459" lon="1.75448">
        <ele>182.19999694824</ele>
        <time>2014-05-31T14:58:37.000Z</time>
      </trkpt>
      <trkpt lat="48.70463" lon="1.75451">
        <ele>182.19999694824</ele>
        <time>2014-05-31T14:58:40.000Z</time>
      </trkpt>
      <trkpt lat="48.70469" lon="1.7546">
        <ele>182.19999694824</ele>
        <time>2014-05-31T14:58:46.000Z</time>
      </trkpt>
      <trkpt lat="48.70471" lon="1.75463">
        <ele>182.19999694824</ele>
        <time>2014-05-31T14:58:48.000Z</time>
      </trkpt>
      <trkpt lat="48.70478" lon="1.75467">
        <ele>182</ele>
        <time>2014-05-31T14:58:55.000Z</time>
      </trkpt>
      <trkpt lat="48.70482" lon="1.75468">
        <ele>182</ele>
        <time>2014-05-31T14:58:58.000Z</time>
      </trkpt>
      <trkpt lat="48.70488" lon="1.75475">
        <ele>181.80000305176</ele>
        <time>2014-05-31T14:59:04.000Z</time>
      </trkpt>
      <trkpt lat="48.70495" lon="1.75484">
        <ele>181.80000305176</ele>
        <time>2014-05-31T14:59:10.000Z</time>
      </trkpt>
      <trkpt lat="48.70502" lon="1.75491">
        <ele>181.80000305176</ele>
        <time>2014-05-31T14:59:15.000Z</time>
      </trkpt>
      <trkpt lat="48.70511" lon="1.755">
        <ele>182</ele>
        <time>2014-05-31T14:59:22.000Z</time>
      </trkpt>
      <trkpt lat="48.70518" lon="1.75507">
        <ele>182</ele>
        <time>2014-05-31T14:59:28.000Z</time>
      </trkpt>
      <trkpt lat="48.70524" lon="1.75512">
        <ele>182.19999694824</ele>
        <time>2014-05-31T14:59:34.000Z</time>
      </trkpt>
      <trkpt lat="48.7053" lon="1.75521">
        <ele>182.39999389648</ele>
        <time>2014-05-31T14:59:40.000Z</time>
      </trkpt>
      <trkpt lat="48.70537" lon="1.75533">
        <ele>182.80000305176</ele>
        <time>2014-05-31T14:59:46.000Z</time>
      </trkpt>
      <trkpt lat="48.70545" lon="1.75542">
        <ele>183</ele>
        <time>2014-05-31T14:59:52.000Z</time>
      </trkpt>
      <trkpt lat="48.70551" lon="1.75547">
        <ele>183.19999694824</ele>
        <time>2014-05-31T14:59:56.000Z</time>
      </trkpt>
      <trkpt lat="48.70553" lon="1.7555">
        <ele>183.19999694824</ele>
        <time>2014-05-31T14:59:58.000Z</time>
      </trkpt>
      <trkpt lat="48.70559" lon="1.75555">
        <ele>183.19999694824</ele>
        <time>2014-05-31T15:00:02.000Z</time>
      </trkpt>
      <trkpt lat="48.70563" lon="1.75558">
        <ele>183.39999389648</ele>
        <time>2014-05-31T15:00:06.000Z</time>
      </trkpt>
      <trkpt lat="48.70565" lon="1.7556">
        <ele>183.39999389648</ele>
        <time>2014-05-31T15:00:08.000Z</time>
      </trkpt>
      <trkpt lat="48.70574" lon="1.75562">
        <ele>183.19999694824</ele>
        <time>2014-05-31T15:00:16.000Z</time>
      </trkpt>
      <trkpt lat="48.70583" lon="1.75571">
        <ele>183.39999389648</ele>
        <time>2014-05-31T15:00:23.000Z</time>
      </trkpt>
      <trkpt lat="48.70584" lon="1.75572">
        <ele>183.60000610352</ele>
        <time>2014-05-31T15:00:24.000Z</time>
      </trkpt>
      <trkpt lat="48.70592" lon="1.75583">
        <ele>183.60000610352</ele>
        <time>2014-05-31T15:00:31.000Z</time>
      </trkpt>
      <trkpt lat="48.70596" lon="1.7559">
        <ele>183.60000610352</ele>
        <time>2014-05-31T15:00:35.000Z</time>
      </trkpt>
      <trkpt lat="48.70603" lon="1.75598">
        <ele>183.60000610352</ele>
        <time>2014-05-31T15:00:42.000Z</time>
      </trkpt>
      <trkpt lat="48.70608" lon="1.75607">
        <ele>183.39999389648</ele>
        <time>2014-05-31T15:00:46.000Z</time>
      </trkpt>
      <trkpt lat="48.70615" lon="1.7562">
        <ele>182.80000305176</ele>
        <time>2014-05-31T15:00:53.000Z</time>
      </trkpt>
      <trkpt lat="48.7062" lon="1.7563">
        <ele>182.39999389648</ele>
        <time>2014-05-31T15:00:58.000Z</time>
      </trkpt>
      <trkpt lat="48.70625" lon="1.75637">
        <ele>182</ele>
        <time>2014-05-31T15:01:02.000Z</time>
      </trkpt>
      <trkpt lat="48.70632" lon="1.75642">
        <ele>181.19999694824</ele>
        <time>2014-05-31T15:01:07.000Z</time>
      </trkpt>
      <trkpt lat="48.70634" lon="1.75643">
        <ele>181</ele>
        <time>2014-05-31T15:01:11.000Z</time>
      </trkpt>
      <trkpt lat="48.70638" lon="1.75639">
        <ele>180.39999389648</ele>
        <time>2014-05-31T15:01:38.000Z</time>
      </trkpt>
      <trkpt lat="48.70643" lon="1.7564">
        <ele>180</ele>
        <time>2014-05-31T15:01:44.000Z</time>
      </trkpt>
      <trkpt lat="48.70644" lon="1.7562">
        <ele>179.39999389648</ele>
        <time>2014-05-31T15:02:18.000Z</time>
      </trkpt>
      <trkpt lat="48.70646" lon="1.75614">
        <ele>179</ele>
        <time>2014-05-31T15:02:21.000Z</time>
      </trkpt>
      <trkpt lat="48.70649" lon="1.75604">
        <ele>178.60000610352</ele>
        <time>2014-05-31T15:02:27.000Z</time>
      </trkpt>
      <trkpt lat="48.70653" lon="1.75591">
        <ele>178.19999694824</ele>
        <time>2014-05-31T15:02:33.000Z</time>
      </trkpt>
      <trkpt lat="48.70657" lon="1.75584">
        <ele>177.80000305176</ele>
        <time>2014-05-31T15:02:39.000Z</time>
      </trkpt>
      <trkpt lat="48.70659" lon="1.75578">
        <ele>177.60000610352</ele>
        <time>2014-05-31T15:02:42.000Z</time>
      </trkpt>
      <trkpt lat="48.7066" lon="1.75581">
        <ele>177.60000610352</ele>
        <time>2014-05-31T15:02:49.000Z</time>
      </trkpt>
      <trkpt lat="48.7066" lon="1.75582">
        <ele>177.60000610352</ele>
        <time>2014-05-31T15:02:50.000Z</time>
      </trkpt>
      <trkpt lat="48.70667" lon="1.75565">
        <ele>176.19999694824</ele>
        <time>2014-05-31T15:06:52.000Z</time>
      </trkpt>
      <trkpt lat="48.7067" lon="1.7556">
        <ele>175.39999389648</ele>
        <time>2014-05-31T15:06:54.000Z</time>
      </trkpt>
      <trkpt lat="48.70679" lon="1.75541">
        <ele>174.39999389648</ele>
        <time>2014-05-31T15:07:04.000Z</time>
      </trkpt>
      <trkpt lat="48.70687" lon="1.75525">
        <ele>173.80000305176</ele>
        <time>2014-05-31T15:07:13.000Z</time>
      </trkpt>
      <trkpt lat="48.70692" lon="1.75513">
        <ele>173.39999389648</ele>
        <time>2014-05-31T15:07:19.000Z</time>
      </trkpt>
      <trkpt lat="48.70696" lon="1.75502">
        <ele>173</ele>
        <time>2014-05-31T15:07:24.000Z</time>
      </trkpt>
      <trkpt lat="48.70698" lon="1.75494">
        <ele>172.80000305176</ele>
        <time>2014-05-31T15:07:28.000Z</time>
      </trkpt>
    </trkseg>
  </trk>
</gpx>